Provisional Data: Chest Creek near Patton, PA


Please select a monitoring station.
Please select start date.
Please select start date.

Toggle Unit: C/F Toggle Unit: C/F
Sample Time Temperature (C) Temperature (F) Specific Conductivity (mS/cm) pH   Turbidity (NTU+) DO (mg/L)
8/9/2021 12:00:00 AM 20.58 69.044 0.372 7.31 15.97 7.25
8/9/2021 12:15:00 AM 20.47 68.846 0.372 7.31 15.89 7.21
8/9/2021 12:30:00 AM 20.37 68.666 0.372 7.3 13.58 7.21
8/9/2021 12:45:00 AM 20.27 68.486 0.372 7.29 16.98 7.17
8/9/2021 1:00:00 AM 20.16 68.288 0.373 7.28 14.56 7.13
8/9/2021 1:15:00 AM 20.03 68.054 0.373 7.27 15.29 7.13
8/9/2021 1:30:00 AM 19.91 67.838 0.373 7.27 15.24 7.11
8/9/2021 1:45:00 AM 19.81 67.658 0.372 7.26 17.65 7.09
8/9/2021 2:00:00 AM 19.69 67.442 0.372 7.26 16.41 7.11
8/9/2021 2:15:00 AM 19.6 67.28 0.372 7.25 16.34 7.06
8/9/2021 2:30:00 AM 19.51 67.118 0.372 7.25 16.88 7.1
8/9/2021 2:45:00 AM 19.45 67.01 0.372 7.24 18.26 7.06
8/9/2021 3:00:00 AM 19.36 66.848 0.372 7.25 16.7 7.11
8/9/2021 3:15:00 AM 19.3 66.74 0.373 7.24 17.41 7.09
8/9/2021 3:30:00 AM 19.21 66.578 0.372 7.24 17.09 7.08
8/9/2021 3:45:00 AM 19.14 66.452 0.372 7.24 16 7.08
8/9/2021 4:00:00 AM 19.07 66.326 0.371 7.24 16.79 7.09
8/9/2021 4:15:00 AM 19 66.2 0.372 7.23 15.27 7.11
8/9/2021 4:30:00 AM 18.95 66.11 0.372 7.23 17.15 7.07
8/9/2021 4:45:00 AM 18.9 66.02 0.372 7.23 15.82 7.08
8/9/2021 5:00:00 AM 18.86 65.948 0.372 7.23 18.72 7.06
8/9/2021 5:15:00 AM 18.81 65.858 0.372 7.22 19.36 7.08
8/9/2021 5:30:00 AM 18.77 65.786 0.372 7.21 17.69 7.08
8/9/2021 5:45:00 AM 18.72 65.696 0.373 7.23 17.41 7.12
8/9/2021 6:00:00 AM 18.67 65.606 0.373 7.23 17.84 7.15
8/9/2021 6:15:00 AM 18.63 65.534 0.373 7.22 19.18 7.13
8/9/2021 6:30:00 AM 18.58 65.444 0.374 7.21 19.96 7.15
8/9/2021 6:45:00 AM 18.52 65.336 0.374 7.21 17.12 7.17
8/9/2021 7:00:00 AM 18.48 65.264 0.374 7.22 17.59 7.22
8/9/2021 7:15:00 AM 18.47 65.246 0.373 7.22 17.37 7.35
8/9/2021 7:30:00 AM 18.49 65.282 0.374 7.21 17.38 7.41
8/9/2021 7:45:00 AM 18.53 65.354 0.374 7.24 17.81 7.61
8/9/2021 8:00:00 AM 18.6 65.48 0.374 7.24 17.01 7.85
8/9/2021 8:15:00 AM 18.66 65.588 0.373 7.25 16.8 8.03
8/9/2021 8:30:00 AM 18.73 65.714 0.374 7.27 16.89 8.09
8/9/2021 8:45:00 AM 18.94 66.092 0.373 7.28 17.3 8.37
8/9/2021 9:00:00 AM 19.14 66.452 0.373 7.29 19.27 8.57
8/9/2021 9:15:00 AM 19.36 66.848 0.373 7.33 17.2 8.87
8/9/2021 9:30:00 AM 19.6 67.28 0.373 7.34 17.15 9.12
8/9/2021 9:45:00 AM 19.86 67.748 0.373 7.33 16.91 9.32
8/9/2021 10:00:00 AM 20.17 68.306 0.373 7.36 18.47 9.61
8/9/2021 10:15:00 AM 20.44 68.792 0.373 7.38 16.63 9.8
8/9/2021 10:30:00 AM 20.79 69.422 0.373 7.4 15.68 10
8/9/2021 10:45:00 AM 21.12 70.016 0.373 7.42 19.83 10.21
8/9/2021 11:00:00 AM 21.46 70.628 0.373 7.49 17.12 10.43
8/9/2021 11:15:00 AM 21.84 71.312 0.373 7.49 16.78 10.59
8/9/2021 11:30:00 AM 22.16 71.888 0.373 7.53 17 10.75
8/9/2021 11:45:00 AM 22.39 72.302 0.373 7.55 17.29 10.83
8/9/2021 12:00:00 PM 22.3 72.14 0.373 7.57 16.87 10.74
8/9/2021 12:15:00 PM 22.22 71.996 0.372 7.58 17.19 10.59
8/9/2021 12:30:00 PM 22.41 72.338 0.372 7.55 16.61 10.68
8/9/2021 12:45:00 PM 22.41 72.338 0.372 7.61 15.38 10.71
8/9/2021 1:00:00 PM 22.53 72.554 0.372 7.62 16.36 10.78
8/9/2021 1:15:00 PM 22.7 72.86 0.372 7.62 14.84 10.79
8/9/2021 1:30:00 PM 23.25 73.85 0.372 7.6 14.79 10.88
8/9/2021 1:45:00 PM 23.67 74.606 0.372 7.67 16.24 11.08
8/9/2021 2:00:00 PM 23.76 74.768 0.371 7.69 14.83 11.07
8/9/2021 2:15:00 PM 23.8 74.84 0.371 7.73 18.12 11.13
8/9/2021 2:30:00 PM 24.21 75.578 0.371 7.65 16.62 11.16
8/9/2021 2:45:00 PM 24.7 76.46 0.371 7.77 15.23 11.33
8/9/2021 3:00:00 PM 25.07 77.126 0.372 7.81 16.55 11.43
8/9/2021 3:15:00 PM 25.31 77.558 0.372 7.79 19.54 11.38
8/9/2021 3:30:00 PM 25.61 78.098 0.372 7.75 171.11 11.44
8/9/2021 3:45:00 PM 25.83 78.494 0.371 7.86 17.2 11.48
8/9/2021 4:00:00 PM 25.91 78.638 0.371 7.9 19.37 11.43
8/9/2021 4:15:00 PM 25.95 78.71 0.371 7.92 15.71 11.39
8/9/2021 4:30:00 PM 26.01 78.818 0.371 7.93 20.79 11.29
8/9/2021 4:45:00 PM 26.01 78.818 0.371 7.95 18.91 11.25
8/9/2021 5:00:00 PM 25.99 78.782 0.371 7.94 16.99 11.08
8/9/2021 5:15:00 PM 25.97 78.746 0.371 7.95 16.69 10.99
8/9/2021 5:30:00 PM 25.93 78.674 0.371 7.94 14.74 10.83
8/9/2021 5:45:00 PM 25.86 78.548 0.371 7.86 17.24 10.67
8/9/2021 6:00:00 PM 25.72 78.296 0.371 7.91 17.01 10.63
8/9/2021 6:15:00 PM 25.59 78.062 0.371 7.91 15.3 10.52
8/9/2021 6:30:00 PM 25.48 77.864 0.373 7.81 19.6 10.27
8/9/2021 6:45:00 PM 25.29 77.522 0.372 7.81 16.27 10.14
8/9/2021 7:00:00 PM 25.11 77.198 0.372 7.8 14.14 9.91
8/9/2021 7:15:00 PM 24.9 76.82 0.372 7.77 16.83 9.71
8/9/2021 7:30:00 PM 24.71 76.478 0.373 7.75 15.53 9.47
8/9/2021 7:45:00 PM 24.52 76.136 0.372 7.68 22.71 9.21
8/9/2021 8:00:00 PM 24.31 75.758 0.373 7.66 14.81 8.99
8/9/2021 8:15:00 PM 24.11 75.398 0.373 7.62 19.07 8.75
8/9/2021 8:30:00 PM 23.86 74.948 0.373 7.59 14.89 8.54
8/9/2021 8:45:00 PM 23.6 74.48 0.373 7.55 17.41 8.29
8/9/2021 9:00:00 PM 23.34 74.012 0.374 7.52 14.7 8.14
8/9/2021 9:15:00 PM 23.12 73.616 0.374 7.5 17.16 7.99
8/9/2021 9:30:00 PM 22.87 73.166 0.374 7.47 15.64 7.83
8/9/2021 9:45:00 PM 22.66 72.788 0.374 7.44 15.28 7.68
8/9/2021 10:00:00 PM 22.46 72.42799 0.374 7.42 11.34 7.59
8/9/2021 10:15:00 PM 22.27 72.086 0.375 7.4 13.86 7.51
8/9/2021 10:30:00 PM 22.12 71.816 0.375 7.39 15.15 7.37
8/9/2021 10:45:00 PM 21.97 71.546 0.375 7.36 13.63 7.33
8/9/2021 11:00:00 PM 21.85 71.33 0.375 7.35 15.01 7.28
8/9/2021 11:15:00 PM 21.74 71.132 0.375 7.34 14.46 7.19
8/9/2021 11:30:00 PM 21.62 70.916 0.375 7.34 25.71 7.18
8/9/2021 11:45:00 PM 21.5 70.7 0.374 7.33 15.86 7.13
8/10/2021 12:00:00 AM 21.38 70.484 0.374 7.32 15.74 7.1
8/10/2021 12:15:00 AM 21.26 70.268 0.374 7.31 16.19 7.04
8/10/2021 12:30:00 AM 21.15 70.07 0.375 7.29 13.3 6.97
8/10/2021 12:45:00 AM 21.01 69.818 0.375 7.26 15.49 6.85
8/10/2021 1:00:00 AM 20.88 69.584 0.376 7.25 16.44 6.89
8/10/2021 1:15:00 AM 20.78 69.404 0.375 7.26 19.42 6.89
8/10/2021 1:30:00 AM 20.72 69.296 0.375 7.24 16.07 6.82
8/10/2021 1:45:00 AM 20.63 69.134 0.375 7.25 15.27 6.84
8/10/2021 2:00:00 AM 20.57 69.026 0.376 7.24 15.81 6.84
8/10/2021 2:15:00 AM 20.5 68.9 0.375 7.24 15.67 6.85
8/10/2021 2:30:00 AM 20.43 68.774 0.374 7.25 14.38 6.91
8/10/2021 2:45:00 AM 20.37 68.666 0.371 7.25 15.84 6.89
8/10/2021 3:00:00 AM 20.3 68.54 0.368 7.26 16.98 6.98
8/10/2021 3:15:00 AM 20.44 68.792 0.353 7.23 26.11 6.85
8/10/2021 3:30:00 AM 20.61 69.098 0.328 7.22 22.8 6.84
8/10/2021 3:45:00 AM 20.47 68.846 0.348 7.22 19.71 6.66
8/10/2021 4:00:00 AM 20.24 68.432 0.361 7.22 18.57 6.78
8/10/2021 4:15:00 AM 20.06 68.108 0.368 7.21 20.38 6.77
8/10/2021 4:30:00 AM 19.89 67.802 0.373 7.21 23.04 6.73
8/10/2021 4:45:00 AM 19.75 67.55 0.377 7.21 39.3 6.81
8/10/2021 5:00:00 AM 19.66 67.388 0.378 7.19 42.72 6.69
8/10/2021 5:15:00 AM 19.6 67.28 0.375 7.18 31.73 6.57
8/10/2021 5:30:00 AM 19.57 67.226 0.369 7.17 27.1 6.57
8/10/2021 5:45:00 AM 19.58 67.244 0.363 7.16 56.95 6.51
8/10/2021 6:00:00 AM 19.58 67.244 0.36 7.15 29.34 6.44
8/10/2021 6:15:00 AM 19.58 67.244 0.356 7.14 39.58 6.36
8/10/2021 6:30:00 AM 19.57 67.226 0.355 7.13 28.32 6.36
8/10/2021 6:45:00 AM 19.55 67.19 0.355 7.14 98.38 6.4
8/10/2021 7:00:00 AM 19.53 67.154 0.355 7.15 22.1 6.42
8/10/2021 7:15:00 AM 19.52 67.136 0.356 7.15 28.17 6.52
8/10/2021 7:30:00 AM 19.53 67.154 0.357 7.16 19.14 6.72
8/10/2021 7:45:00 AM 19.52 67.136 0.357 7.16 14.74 6.76
8/10/2021 8:00:00 AM 19.51 67.118 0.357 7.16 16.18 6.67
8/10/2021 8:15:00 AM 19.5 67.1 0.358 7.17 18.74 6.91
8/10/2021 8:30:00 AM 19.54 67.172 0.358 7.18 23.8 6.99
8/10/2021 8:45:00 AM 19.57 67.226 0.359 7.18 16.05 7.08
8/10/2021 9:00:00 AM 19.59 67.262 0.359 7.2 17.42 7.26
8/10/2021 9:15:00 AM 19.67 67.406 0.361 7.21 18.37 7.55
8/10/2021 9:30:00 AM 19.78 67.604 0.361 7.23 15.87 7.77
8/10/2021 9:45:00 AM 19.82 67.676 0.361 7.23 28.48 7.89
8/10/2021 10:00:00 AM 19.9 67.82 0.363 7.24 22.33 8.02
8/10/2021 10:15:00 AM 20.09 68.162 0.364 7.25 16.34 8.32
8/10/2021 10:30:00 AM 20.44 68.792 0.364 7.26 18.56 8.68
8/10/2021 10:45:00 AM 20.82 69.476 0.363 7.3 20.07 8.94
8/10/2021 11:00:00 AM 20.88 69.584 0.361 7.33 17.02 9.07
8/10/2021 11:15:00 AM 20.76 69.368 0.36 7.32 18.71 8.8
8/10/2021 11:30:00 AM 20.64 69.152 0.359 7.32 19.5 8.55
8/10/2021 11:45:00 AM 20.58 69.044 0.36 7.31 20.6 8.46
8/10/2021 12:00:00 PM 20.59 69.062 0.358 7.3 18.55 8.36
8/10/2021 12:15:00 PM 20.65 69.17 0.359 7.31 21.54 8.52
8/10/2021 12:30:00 PM 20.75 69.35 0.359 7.33 30.16 8.76
8/10/2021 12:45:00 PM 20.85 69.53 0.359 7.36 20.78 8.99
8/10/2021 1:00:00 PM 21.2 70.16 0.359 7.39 18.94 9.3
8/10/2021 1:15:00 PM 21.76 71.168 0.359 7.39 16.44 9.51
8/10/2021 1:30:00 PM 22.25 72.05 0.359 7.44 16.55 9.83
8/10/2021 1:45:00 PM 22.71 72.878 0.358 7.46 14.16 10.03
8/10/2021 2:00:00 PM 23.13 73.634 0.357 7.49 15.57 10.26
8/10/2021 2:15:00 PM 23.3 73.94 0.356 7.49 15.48 10.29
8/10/2021 2:30:00 PM 23.38 74.084 0.355 7.56 17.76 10.46
8/10/2021 2:45:00 PM 23.57 74.426 0.355 7.53 18.72 10.52
8/10/2021 3:00:00 PM 23.48 74.264 0.354 7.6 17.53 10.29
8/10/2021 3:15:00 PM 23.52 74.336 0.352 7.58 28.68 10
8/10/2021 3:30:00 PM 24 75.2 0.349 7.64 38.78 10.3
8/10/2021 3:45:00 PM 24.39 75.902 0.34 7.65 19.96 10.15
8/10/2021 4:00:00 PM 24.05 75.29 0.338 7.64 28.77 9.56
8/10/2021 4:15:00 PM 23.75 74.75 0.331 7.61 62.87 9.14
8/10/2021 4:30:00 PM 24 75.2 0.308 7.61 35.94 9.11
8/10/2021 4:45:00 PM 23.89 75.002 0.326 7.61 29.59 9.22
8/10/2021 5:00:00 PM 23.69 74.642 0.334 7.62 21.06 9.23
8/10/2021 5:15:00 PM 23.6 74.48 0.34 7.61 18.02 9.28
8/10/2021 5:30:00 PM 23.73 74.714 0.339 7.61 19.84 9.38
8/10/2021 5:45:00 PM 23.66 74.588 0.334 7.59 21.95 9.19
8/10/2021 6:00:00 PM 23.55 74.39 0.328 7.57 22.96 9.13
8/10/2021 6:15:00 PM 23.47 74.246 0.326 7.56 19.32 9.01
8/10/2021 6:30:00 PM 23.35 74.03 0.323 7.54 82.18 8.88
8/10/2021 6:45:00 PM 23.25 73.85 0.37 7.53 15.02 8.79
8/10/2021 7:00:00 PM 23.18 73.724 0.326 7.51 15.96 8.7
8/10/2021 7:15:00 PM 23.07 73.526 0.324 7.5 15.78 8.62
8/10/2021 7:30:00 PM 22.92 73.256 0.338 7.49 16.8 8.45
8/10/2021 7:45:00 PM 22.74 72.932 0.373 7.47 17.53 8.32
8/10/2021 8:00:00 PM 22.56 72.608 0.33 7.46 29.81 8.19
8/10/2021 8:15:00 PM 22.4 72.32 0.325 7.43 17.6 8.05
8/10/2021 8:30:00 PM 22.24 72.032 0.331 7.43 23.04 7.95
8/10/2021 8:45:00 PM 22.1 71.78 0.329 7.39 39.65 7.79
8/10/2021 9:00:00 PM 21.97 71.546 0.326 7.4 20.04 7.7
8/10/2021 9:15:00 PM 21.85 71.33 0.323 7.38 14.36 7.59
8/10/2021 9:30:00 PM 21.71 71.078 0.324 7.37 21.04 7.53
8/10/2021 9:45:00 PM 21.58 70.844 0.323 7.36 19.74 7.45
8/10/2021 10:00:00 PM 21.48 70.664 0.323 7.35 18.5 7.34
8/10/2021 10:15:00 PM 21.37 70.466 0.322 7.34 18.03 7.28
8/10/2021 10:30:00 PM 21.26 70.268 0.321 7.34 19.17 7.24
8/10/2021 10:45:00 PM 21.18 70.124 0.32 7.33 17.97 7.2
8/10/2021 11:00:00 PM 21.1 69.98 0.319 7.33 18.72 7.17
8/10/2021 11:15:00 PM 21.03 69.854 0.318 7.33 13.46 7.16
8/10/2021 11:30:00 PM 20.99 69.782 0.317 7.33 17.05 7.17
8/10/2021 11:45:00 PM 20.95 69.71 0.314 7.34 18.18 7.12
8/11/2021 12:00:00 AM 20.92 69.656 0.312 7.34 16.95 7.15
8/11/2021 12:15:00 AM 20.9 69.62 0.31 7.34 18.29 7.07
8/11/2021 12:30:00 AM 20.9 69.62 0.308 7.35 16.06 7.12
8/11/2021 12:45:00 AM 20.9 69.62 0.306 7.35 16.55 7.14
8/11/2021 1:00:00 AM 20.89 69.602 0.304 7.36 29.89 7.14
8/11/2021 1:15:00 AM 20.87 69.566 0.304 7.36 18.81 7.15
8/11/2021 1:30:00 AM 20.85 69.53 0.304 7.37 20.63 7.17
8/11/2021 1:45:00 AM 20.84 69.512 0.304 7.37 20.73 7.17
8/11/2021 2:00:00 AM 20.83 69.494 0.304 7.37 28.51 7.16
8/11/2021 2:15:00 AM 20.83 69.494 0.303 7.38 15.61 7.16
8/11/2021 2:30:00 AM 20.84 69.512 0.303 7.37 15.45 7.17
8/11/2021 2:45:00 AM 20.83 69.494 0.302 7.38 19.67 7.17
8/11/2021 3:00:00 AM 20.82 69.476 0.301 7.39 22.23 7.19
8/11/2021 3:15:00 AM 20.8 69.44 0.301 7.4 62.35 7.19
8/11/2021 3:30:00 AM 20.79 69.422 0.301 7.39 55.76 7.18
8/11/2021 3:45:00 AM 20.79 69.422 0.3 7.4 70.53 7.2
8/11/2021 4:00:00 AM 20.78 69.404 0.3 7.4 12.71 7.21
8/11/2021 4:15:00 AM 20.78 69.404 0.299 7.4 16.71 7.2
8/11/2021 4:30:00 AM 20.77 69.386 0.298 7.41 49.77 7.22
8/11/2021 4:45:00 AM 20.76 69.368 0.297 7.41 32.25 7.2
8/11/2021 5:00:00 AM 20.74 69.332 0.296 7.41 49.25 7.21
8/11/2021 5:15:00 AM 20.73 69.314 0.295 7.42 21.64 7.22
8/11/2021 5:30:00 AM 20.71 69.278 0.295 7.42 18.69 7.22
8/11/2021 5:45:00 AM 20.69 69.242 0.294 7.41 17.06 7.22
8/11/2021 6:00:00 AM 20.68 69.224 0.293 7.41 21.35 7.21
8/11/2021 6:15:00 AM 20.67 69.206 0.293 7.41 27.61 7.22
8/11/2021 6:30:00 AM 20.68 69.224 0.292 7.41 23.36 7.24
8/11/2021 6:45:00 AM 20.69 69.242 0.292 7.41 22.82 7.25
8/11/2021 7:00:00 AM 20.71 69.278 0.291 7.42 18.5 7.28
8/11/2021 7:15:00 AM 20.75 69.35 0.291 7.43 20.53 7.34
8/11/2021 7:30:00 AM 20.79 69.422 0.291 7.42 20.54 7.44
8/11/2021 7:45:00 AM 20.83 69.494 0.291 7.44 22.55 7.53
8/11/2021 8:00:00 AM 20.88 69.584 0.29 7.45 18.63 7.64
8/11/2021 8:15:00 AM 20.94 69.692 0.29 7.45 33.8 7.73
8/11/2021 8:30:00 AM 21.01 69.818 0.29 7.46 17.21 7.83
8/11/2021 8:45:00 AM 21.05 69.89 0.29 7.47 17.45 7.9
8/11/2021 9:00:00 AM 21.17 70.106 0.29 7.49 22.98 8.08
8/11/2021 9:15:00 AM 21.4 70.52 0.29 7.49 19.6 8.31
8/11/2021 9:30:00 AM 21.63 70.934 0.29 7.53 21.57 8.51
8/11/2021 9:45:00 AM 21.85 71.33 0.29 7.56 24.61 8.71
8/11/2021 10:00:00 AM 22.08 71.744 0.291 7.57 19.55 8.89
8/11/2021 10:15:00 AM 22.27 72.086 0.291 7.61 22.64 9.03
8/11/2021 10:30:00 AM 22.49 72.482 0.291 7.62 24.48 9.15
8/11/2021 10:45:00 AM 22.53 72.554 0.291 7.65 20.46 9.22
8/11/2021 11:00:00 AM 22.59 72.662 0.292 7.61 284.1 9.19
8/11/2021 11:15:00 AM 22.9 73.22 0.292 7.67 80.96 9.37
8/11/2021 11:30:00 AM 23.06 73.508 0.293 7.7 47.35 9.47
8/11/2021 11:45:00 AM 23.34 74.012 0.293 7.66 32.23 9.6
8/11/2021 12:00:00 PM 23.73 74.714 0.294 7.72 436.66 9.71
8/11/2021 12:15:00 PM 24.11 75.398 0.294 7.79 25.18 9.9
8/11/2021 12:30:00 PM 24.51 76.118 0.294 7.81 23.29 10.04
8/11/2021 12:45:00 PM 24.89 76.802 0.295 7.85 21.79 10.12
8/11/2021 1:00:00 PM 25.13 77.234 0.295 7.87 42.91 10.18
8/11/2021 1:15:00 PM 25.44 77.792 0.296 7.88 18.48 10.22
8/11/2021 1:30:00 PM 25.52 77.936 0.297 7.93 17.64 10.25
8/11/2021 1:45:00 PM 25.62 78.116 0.297 7.93 16.79 10.2
8/11/2021 2:00:00 PM 25.76 78.368 0.297 7.95 16.71 10.14
8/11/2021 2:15:00 PM 25.84 78.512 0.298 7.97 30.17 10.13
8/11/2021 2:30:00 PM 25.82 78.476 0.299 7.96 17.09 10.06
8/11/2021 2:45:00 PM 25.46 77.828 0.299 7.91 23.85 9.63
8/11/2021 3:00:00 PM 25.3 77.54 0.3 7.89 19.38 9.43
8/11/2021 3:15:00 PM 25.25 77.45 0.3 7.88 30.51 9.45
8/11/2021 3:30:00 PM 25.25 77.45 0.3 7.87 15.87 9.44
8/11/2021 3:45:00 PM 25.18 77.324 0.3 7.91 15.69 9.5
8/11/2021 4:00:00 PM 25.02 77.036 0.3 7.89 17.4 9.47
8/11/2021 4:15:00 PM 24.85 76.73 0.301 7.87 71.45 9.33
8/11/2021 4:30:00 PM 24.64 76.352 0.301 7.84 16.29 9.21
8/11/2021 4:45:00 PM 24.47 76.046 0.302 7.8 18.37 8.98
8/11/2021 5:00:00 PM 24.28 75.704 0.303 7.76 15.76 8.82
8/11/2021 5:15:00 PM 24.11 75.398 0.304 7.73 15.13 8.75
8/11/2021 5:30:00 PM 24.01 75.218 0.304 7.72 15 8.8
8/11/2021 5:45:00 PM 23.92 75.056 0.305 7.71 16.84 8.86
8/11/2021 6:00:00 PM 23.81 74.858 0.305 7.7 17.51 8.87
8/11/2021 6:15:00 PM 23.68 74.624 0.306 7.69 16.17 8.81
8/11/2021 6:30:00 PM 23.54 74.372 0.306 7.67 16.37 8.74
8/11/2021 6:45:00 PM 23.4 74.12 0.307 7.65 16.78 8.61
8/11/2021 7:00:00 PM 23.29 73.922 0.307 7.62 16.44 8.47
8/11/2021 7:15:00 PM 23.17 73.706 0.307 7.6 17.74 8.38
8/11/2021 7:30:00 PM 23.05 73.49 0.307 7.58 17.65 8.24
8/11/2021 7:45:00 PM 22.94 73.292 0.309 7.55 16.88 8.08
8/11/2021 8:00:00 PM 22.81 73.058 0.309 7.53 17.73 7.93
8/11/2021 8:15:00 PM 22.69 72.842 0.31 7.5 17.34 7.83
8/11/2021 8:30:00 PM 22.56 72.608 0.31 7.49 41.14 7.74
8/11/2021 8:45:00 PM 22.47 72.446 0.311 7.47 18.22 7.58
8/11/2021 9:00:00 PM 22.35 72.23 0.311 7.45 16.86 7.54
8/11/2021 9:15:00 PM 22.26 72.068 0.311 7.43 19.21 7.41
8/11/2021 9:30:00 PM 22.16 71.888 0.312 7.42 16.47 7.37
8/11/2021 9:45:00 PM 22.09 71.762 0.312 7.4 15.81 7.27
8/11/2021 10:00:00 PM 21.98 71.564 0.313 7.4 18.31 7.22
8/11/2021 10:15:00 PM 21.89 71.402 0.313 7.39 18.59 7.18
8/11/2021 10:30:00 PM 21.81 71.258 0.313 7.37 16.54 7.08
8/11/2021 10:45:00 PM 21.71 71.078 0.313 7.37 16.44 7.11
8/11/2021 11:00:00 PM 21.62 70.916 0.314 7.36 18.6 7.03
8/11/2021 11:15:00 PM 21.54 70.772 0.314 7.36 17.6 6.96
8/11/2021 11:30:00 PM 21.45 70.61 0.314 7.34 17.91 6.98
8/11/2021 11:45:00 PM 21.37 70.466 0.314 7.34 18.04 6.95
8/12/2021 12:00:00 AM 21.29 70.32201 0.314 7.34 17.73 6.93
8/12/2021 12:15:00 AM 21.22 70.196 0.315 7.33 18.04 6.92
8/12/2021 12:30:00 AM 21.13 70.034 0.315 7.33 17.7 6.89
8/12/2021 12:45:00 AM 21.05 69.89 0.315 7.32 18.99 6.93
8/12/2021 1:00:00 AM 20.97 69.746 0.316 7.32 17.99 6.95
8/12/2021 1:15:00 AM 20.91 69.638 0.316 7.32 26.56 6.96
8/12/2021 1:30:00 AM 20.86 69.548 0.316 7.31 19.35 6.92
8/12/2021 1:45:00 AM 20.79 69.422 0.317 7.31 19.16 6.94
8/12/2021 2:00:00 AM 20.72 69.296 0.317 7.31 17.28 6.91
8/12/2021 2:15:00 AM 20.64 69.152 0.317 7.32 18.2 6.94
8/12/2021 2:30:00 AM 20.59 69.062 0.318 7.31 17.88 6.93
8/12/2021 2:45:00 AM 20.53 68.954 0.318 7.31 18.37 6.92
8/12/2021 3:00:00 AM 20.47 68.846 0.318 7.31 18.14 6.94
8/12/2021 3:15:00 AM 20.41 68.738 0.319 7.31 18.53 6.95
8/12/2021 3:30:00 AM 20.35 68.63 0.319 7.31 18.15 6.95
8/12/2021 3:45:00 AM 20.28 68.504 0.319 7.31 19.6 6.99
8/12/2021 4:00:00 AM 20.23 68.414 0.319 7.31 22.04 7
8/12/2021 4:15:00 AM 20.16 68.288 0.32 7.31 19.28 6.99
8/12/2021 4:30:00 AM 20.11 68.198 0.32 7.3 23.51 6.95
8/12/2021 4:45:00 AM 20.05 68.09 0.32 7.3 20.48 6.97
8/12/2021 5:00:00 AM 20 68 0.32 7.3 23.63 6.94
8/12/2021 5:15:00 AM 19.94 67.892 0.32 7.3 24.38 7
8/12/2021 5:30:00 AM 19.88 67.784 0.321 7.3 23.32 7.02
8/12/2021 5:45:00 AM 19.84 67.712 0.321 7.29 27.93 7.02
8/12/2021 6:00:00 AM 19.8 67.64 0.321 7.29 22.53 7.01
8/12/2021 6:15:00 AM 19.77 67.586 0.322 7.29 22.99 6.98
8/12/2021 6:30:00 AM 19.75 67.55 0.322 7.29 21.15 7.04
8/12/2021 6:45:00 AM 19.73 67.514 0.322 7.29 22.26 7.05
8/12/2021 7:00:00 AM 19.72 67.496 0.322 7.26 22.87 7.07
8/12/2021 7:15:00 AM 19.72 67.496 0.322 7.29 35.94 7.11
8/12/2021 7:30:00 AM 19.72 67.496 0.323 7.3 27.75 7.33
8/12/2021 7:45:00 AM 19.77 67.586 0.323 7.31 23.51 7.42
8/12/2021 8:00:00 AM 19.84 67.712 0.323 7.31 24.55 7.58
8/12/2021 8:15:00 AM 19.9 67.82 0.323 7.33 22.87 7.75
8/12/2021 8:30:00 AM 20 68 0.323 7.35 25.4 7.91
8/12/2021 8:45:00 AM 20.19 68.342 0.323 7.35 23.91 8.1
8/12/2021 9:00:00 AM 20.37 68.666 0.323 7.37 39.63 8.32
8/12/2021 9:15:00 AM 20.56 69.008 0.323 7.4 25.07 8.55
8/12/2021 9:30:00 AM 20.81 69.458 0.323 7.42 23.41 8.76
8/12/2021 9:45:00 AM 21.02 69.836 0.323 7.44 24.12 8.93
8/12/2021 10:00:00 AM 21.29 70.32201 0.323 7.48 23.27 9.16
8/12/2021 10:15:00 AM 21.45 70.61 0.323 7.49 24.63 9.29
8/12/2021 10:30:00 AM 21.58 70.844 0.323 7.52 24.43 9.39
8/12/2021 10:45:00 AM 21.73 71.114 0.323 7.53 26.93 9.51
8/12/2021 11:00:00 AM 21.94 71.492 0.322 7.55 24.74 9.66
8/12/2021 11:15:00 AM 22.05 71.69 0.322 7.58 24.44 9.71
8/12/2021 11:30:00 AM 22.3 72.14 0.32 7.6 25.55 9.84
8/12/2021 11:45:00 AM 22.61 72.698 0.375 7.61 27.7 9.96
8/12/2021 12:00:00 PM 22.81 73.058 0.375 7.65 25 10.1
8/12/2021 12:15:00 PM 22.94 73.292 0.33 7.65 31.2 10.16
8/12/2021 12:30:00 PM 23.08 73.544 0.326 7.69 26.04 10.26
8/12/2021 12:45:00 PM 23.35 74.03 0.325 7.71 23.58 10.38
8/12/2021 1:00:00 PM 23.62 74.516 0.325 7.74 23.7 10.48
8/12/2021 1:15:00 PM 23.68 74.624 0.326 7.73 25.07 10.48
8/12/2021 1:30:00 PM 23.86 74.948 0.324 7.76 22.18 10.53
8/12/2021 1:45:00 PM 24.11 75.398 0.323 7.8 32.87 10.62
8/12/2021 2:00:00 PM 24.34 75.812 0.325 7.79 22.69 10.66
8/12/2021 2:15:00 PM 24.6 76.28 0.323 7.8 26.43 10.67
8/12/2021 2:30:00 PM 25.04 77.07201 0.153 7.47 626.57 10.61
8/12/2021 2:45:00 PM 25.44 77.792 0.323 7.87 31.88 10.86
8/12/2021 3:00:00 PM 25.68 78.224 0.323 7.9 57.81 10.94
8/12/2021 3:15:00 PM 25.95 78.71 0.323 7.91 19.92 10.95
8/12/2021 3:30:00 PM 26.14 79.052 0.323 7.93 27.45 10.91
8/12/2021 3:45:00 PM 26.2 79.16 0.323 7.96 22.13 10.81
8/12/2021 4:00:00 PM 26.33 79.394 0.323 7.97 23.82 10.79
8/12/2021 4:15:00 PM 26.41 79.538 0.322 7.98 18.61 10.78
8/12/2021 4:30:00 PM 26.54 79.772 0.322 7.93 69.79 10.72
8/12/2021 4:45:00 PM 26.61 79.898 0.322 7.97 44.01 10.61
8/12/2021 5:00:00 PM 26.64 79.952 0.322 7.99 27.18 10.5
8/12/2021 5:15:00 PM 26.65 79.97 0.322 7.91 26.42 10.39
8/12/2021 5:30:00 PM 26.65 79.97 0.323 7.94 40.36 10.3
8/12/2021 5:45:00 PM 26.57 79.826 0.323 7.96 28.78 10.2
8/12/2021 6:00:00 PM 26.49 79.682 0.323 7.89 28.91 9.97
8/12/2021 6:15:00 PM 26.41 79.538 0.322 7.85 27.49 9.86
8/12/2021 6:30:00 PM 26.32 79.376 0.323 7.83 52.91 9.73
8/12/2021 6:45:00 PM 26.14 79.052 0.323 7.84 25.86 9.51
8/12/2021 7:00:00 PM 25.91 78.638 0.323 7.8 37.72 9.25
8/12/2021 7:15:00 PM 25.69 78.242 0.324 7.76 26.91 9.01
8/12/2021 7:30:00 PM 25.52 77.936 0.324 7.69 28.91 8.76
8/12/2021 7:45:00 PM 25.29 77.522 0.323 7.66 25.76 8.53
8/12/2021 8:00:00 PM 24.95 76.91 0.324 7.62 31.14 8.26
8/12/2021 8:15:00 PM 24.57 76.226 0.324 7.59 25.22 8.02
8/12/2021 8:30:00 PM 24.26 75.668 0.324 7.55 25.65 7.85
8/12/2021 8:45:00 PM 24.02 75.236 0.324 7.52 25.66 7.67
8/12/2021 9:00:00 PM 23.83 74.894 0.323 7.48 24.77 7.5
8/12/2021 9:15:00 PM 23.7 74.66 0.324 7.45 21.65 7.32
8/12/2021 9:30:00 PM 23.47 74.246 0.312 7.45 23.75 7.3
8/12/2021 9:45:00 PM 23.28 73.904 0.303 7.43 26.43 7.25
8/12/2021 10:00:00 PM 23.18 73.724 0.287 7.41 39.93 7.19
8/12/2021 10:15:00 PM 23 73.4 0.294 7.39 94.07 7.13
8/12/2021 10:30:00 PM 22.81 73.058 0.298 7.38 47.34 7.12
8/12/2021 10:45:00 PM 22.61 72.698 0.305 7.37 36.61 7.07
8/12/2021 11:00:00 PM 22.44 72.392 0.31 7.35 28.65 6.94
8/12/2021 11:15:00 PM 22.23 72.014 0.312 7.3 27.37 6.9
8/12/2021 11:30:00 PM 22.06 71.708 0.311 7.28 27.88 6.87
8/12/2021 11:45:00 PM 21.95 71.51 0.308 7.28 33.37 6.84
8/13/2021 12:00:00 AM 21.88 71.384 0.304 7.28 26.77 6.81
8/13/2021 12:15:00 AM 21.82 71.276 0.302 7.27 33.49 6.73
8/13/2021 12:30:00 AM 21.77 71.186 0.298 7.27 28.79 6.73
8/13/2021 12:45:00 AM 21.75 71.15 0.296 7.26 29.09 6.62
8/13/2021 1:00:00 AM 21.72 71.096 0.296 7.26 25.57 6.7
8/13/2021 1:15:00 AM 21.69 71.042 0.296 7.26 25.79 6.65
8/13/2021 1:30:00 AM 21.66 70.988 0.298 7.26 44.35 6.66
8/13/2021 1:45:00 AM 21.61 70.898 0.3 7.25 26.57 6.61
8/13/2021 2:00:00 AM 21.56 70.808 0.302 7.25 27.2 6.6
8/13/2021 2:15:00 AM 21.52 70.736 0.304 7.25 28.4 6.5
8/13/2021 2:30:00 AM 21.47 70.646 0.305 7.24 25.04 6.55
8/13/2021 2:45:00 AM 21.43 70.574 0.306 7.24 26.99 6.33
8/13/2021 3:00:00 AM 21.36 70.448 0.307 7.24 25.75 6.57
8/13/2021 3:15:00 AM 21.3 70.34 0.308 7.24 24.06 6.54
8/13/2021 3:30:00 AM 21.23 70.214 0.31 7.25 24.69 6.63
8/13/2021 3:45:00 AM 21.17 70.106 0.311 7.24 24.62 6.61
8/13/2021 4:00:00 AM 21.1 69.98 0.312 7.24 24.8 6.58
8/13/2021 4:15:00 AM 21.03 69.854 0.314 7.24 26.71 6.64
8/13/2021 4:30:00 AM 20.97 69.746 0.315 7.24 26.03 6.61
8/13/2021 4:45:00 AM 20.9 69.62 0.316 7.24 30.15 6.62
8/13/2021 5:00:00 AM 20.83 69.494 0.317 7.24 97.11 6.59
8/13/2021 5:15:00 AM 20.75 69.35 0.318 7.24 27.77 6.59
8/13/2021 5:30:00 AM 20.67 69.206 0.319 7.24 26.84 6.66
8/13/2021 5:45:00 AM 20.59 69.062 0.32 7.24 29.35 6.67
8/13/2021 6:00:00 AM 20.51 68.918 0.321 7.24 26.22 6.76
8/13/2021 6:15:00 AM 20.43 68.774 0.322 7.25 35.61 6.8
8/13/2021 6:30:00 AM 20.36 68.648 0.323 7.25 31.64 6.76
8/13/2021 6:45:00 AM 20.26 68.468 0.327 7.25 33.47 6.89
8/13/2021 7:00:00 AM 20.15 68.27 0.331 7.25 35.82 6.96
8/13/2021 7:15:00 AM 20.07 68.126 0.332 7.26 32.95 7.1
8/13/2021 7:30:00 AM 20.04 68.07201 0.333 7.27 33.31 7.18
8/13/2021 7:45:00 AM 20.05 68.09 0.331 7.28 31.03 7.35
8/13/2021 8:00:00 AM 20.09 68.162 0.331 7.29 32.77 7.5
8/13/2021 8:15:00 AM 20.16 68.288 0.33 7.31 35.67 7.6
8/13/2021 8:30:00 AM 20.26 68.468 0.328 7.33 32.85 7.83
8/13/2021 8:45:00 AM 20.39 68.702 0.327 7.35 32.95 7.99
8/13/2021 9:00:00 AM 20.55 68.99 0.326 7.37 54.17 8.21
8/13/2021 9:15:00 AM 20.71 69.278 0.325 7.38 37.65 8.42
8/13/2021 9:30:00 AM 20.79 69.422 0.323 7.39 31.36 8.49
8/13/2021 9:45:00 AM 21.01 69.818 0.322 7.43 30.2 8.73
8/13/2021 10:00:00 AM 21.18 70.124 0.321 7.45 32.45 8.87
8/13/2021 10:15:00 AM 21.45 70.61 0.319 7.47 34.9 9.03
8/13/2021 10:30:00 AM 21.81 71.258 0.318 7.46 34.53 9.3
8/13/2021 10:45:00 AM 22.06 71.708 0.317 7.52 35.23 9.42
8/13/2021 11:00:00 AM 22.36 72.248 0.316 7.54 39.33 9.56
8/13/2021 11:15:00 AM 22.72 72.896 0.315 7.59 33.33 9.71
8/13/2021 11:30:00 AM 22.97 73.346 0.313 7.6 35.34 9.81
8/13/2021 11:45:00 AM 23.2 73.76 0.312 7.64 32.43 9.84
8/13/2021 12:00:00 PM 23.63 74.534 0.311 7.69 35.58 10.06
8/13/2021 12:15:00 PM 24.08 75.344 0.309 7.71 34.58 10.19
8/13/2021 12:30:00 PM 24.38 75.884 0.36 7.73 38.82 10.23
8/13/2021 12:45:00 PM 24.71 76.478 0.359 7.75 115.71 10.25
8/13/2021 1:00:00 PM 25.15 77.27 0.308 7.78 40.69 10.36
8/13/2021 1:15:00 PM 25.53 77.954 0.307 7.81 98.74 10.2
8/13/2021 1:30:00 PM 25.82 78.476 0.32 7.87 34.78 10.43
8/13/2021 1:45:00 PM 26.06 78.908 0.298 7.9 34.83 10.45
8/13/2021 2:00:00 PM 26.3 79.34 0.296 7.94 45.35 10.44
8/13/2021 2:15:00 PM 26.53 79.754 0.294 7.97 40.59 10.38
8/13/2021 2:30:00 PM 26.6 79.88 0.29 7.98 34.62 10.25
8/13/2021 2:45:00 PM 26.76 80.168 0.286 8.01 61.45 10.13
8/13/2021 3:00:00 PM 26.94 80.492 0.282 8.02 29.11 10.06
8/13/2021 3:15:00 PM 27.11 80.798 0.279 8.02 29.6 10.01
8/13/2021 3:30:00 PM 27.16 80.888 0.276 8.04 33.25 9.87
8/13/2021 3:45:00 PM 27.05 80.69 0.274 8.04 33.68 9.68
8/13/2021 4:00:00 PM 27.02 80.636 0.273 8.03 31.28 9.59
8/13/2021 4:15:00 PM 26.93 80.474 0.272 8.01 42.51 9.51
8/13/2021 4:30:00 PM 26.91 80.438 0.271 8.01 51.74 9.43
8/13/2021 4:45:00 PM 26.75 80.15 0.271 7.99 20.74 9.33
8/13/2021 5:00:00 PM 26.68 80.024 0.271 7.99 38.82 9.26
8/13/2021 5:15:00 PM 26.6 79.88 0.271 7.98 37.78 9.18
8/13/2021 5:30:00 PM 26.51 79.718 0.271 7.96 18.79 9.09
8/13/2021 5:45:00 PM 26.4 79.52 0.271 7.94 19.07 8.96
8/13/2021 6:00:00 PM 26.31 79.358 0.271 7.92 17.94 8.88
8/13/2021 6:15:00 PM 26.15 79.07 0.272 7.89 17.31 8.72
8/13/2021 6:30:00 PM 26.01 78.818 0.271 7.86 19.19 8.58
8/13/2021 6:45:00 PM 25.81 78.458 0.272 7.81 17.77 8.4
8/13/2021 7:00:00 PM 25.6 78.08 0.272 7.79 15.13 8.26
8/13/2021 7:15:00 PM 25.39 77.702 0.272 7.75 46.68 8.08
8/13/2021 7:30:00 PM 25.22 77.396 0.272 7.7 18.65 7.91
8/13/2021 7:45:00 PM 25.05 77.09 0.272 7.67 18.68 7.73
8/13/2021 8:00:00 PM 24.88 76.784 0.272 7.64 18.99 7.6
8/13/2021 8:15:00 PM 24.72 76.496 0.273 7.6 23.58 7.47
8/13/2021 8:30:00 PM 24.57 76.226 0.273 7.58 14.63 7.36
8/13/2021 8:45:00 PM 24.43 75.974 0.273 7.55 16.46 7.27
8/13/2021 9:00:00 PM 24.31 75.758 0.273 7.53 18.59 7.18
8/13/2021 9:15:00 PM 24.1 75.38 0.273 7.52 22.21 7.17
8/13/2021 9:30:00 PM 23.94 75.092 0.273 7.5 14.21 7.12
8/13/2021 9:45:00 PM 23.8 74.84 0.273 7.5 14.52 7.09
8/13/2021 10:00:00 PM 23.69 74.642 0.272 7.48 15.02 7.04
8/13/2021 10:15:00 PM 23.61 74.498 0.27 7.46 40.93 6.99
8/13/2021 10:30:00 PM 23.48 74.264 0.272 7.46 24.28 7.01
8/13/2021 10:45:00 PM 23.33 73.994 0.276 7.45 26.08 6.99
8/13/2021 11:00:00 PM 23.17 73.706 0.281 7.44 19 7.01
8/13/2021 11:15:00 PM 23.03 73.454 0.284 7.42 19.92 6.99
8/13/2021 11:30:00 PM 22.91 73.238 0.285 7.41 16.37 6.95
8/13/2021 11:45:00 PM 22.82 73.076 0.283 7.4 17.64 6.89
8/14/2021 12:00:00 AM 22.75 72.95 0.282 7.39 20.34 6.89
8/14/2021 12:15:00 AM 22.68 72.824 0.281 7.39 20.91 6.87
8/14/2021 12:30:00 AM 22.62 72.716 0.281 7.38 16.93 6.86
8/14/2021 12:45:00 AM 22.55 72.59 0.281 7.38 20.5 6.86
8/14/2021 1:00:00 AM 22.49 72.482 0.281 7.38 16.56 6.89
8/14/2021 1:15:00 AM 22.43 72.374 0.281 7.37 21.9 6.88
8/14/2021 1:30:00 AM 22.38 72.284 0.281 7.36 19.74 6.85
8/14/2021 1:45:00 AM 22.32 72.176 0.281 7.38 35.94 6.88
8/14/2021 2:00:00 AM 22.27 72.086 0.282 7.37 19.12 6.81
8/14/2021 2:15:00 AM 22.21 71.978 0.282 7.36 20.73 6.87
8/14/2021 2:30:00 AM 22.15 71.87 0.283 7.36 18.26 6.86
8/14/2021 2:45:00 AM 22.08 71.744 0.283 7.35 17.32 6.85
8/14/2021 3:00:00 AM 22.02 71.636 0.284 7.35 19.82 6.84
8/14/2021 3:15:00 AM 21.97 71.546 0.285 7.35 27.12 6.86
8/14/2021 3:30:00 AM 21.92 71.456 0.285 7.35 16.7 6.85
8/14/2021 3:45:00 AM 21.87 71.366 0.286 7.35 20.66 6.85
8/14/2021 4:00:00 AM 21.81 71.258 0.287 7.34 55.3 6.84
8/14/2021 4:15:00 AM 21.75 71.15 0.287 7.34 25.73 6.88
8/14/2021 4:30:00 AM 21.68 71.024 0.288 7.34 26.35 6.86
8/14/2021 4:45:00 AM 21.63 70.934 0.288 7.34 29.89 6.84
8/14/2021 5:00:00 AM 21.59 70.862 0.289 7.33 21.39 6.86
8/14/2021 5:15:00 AM 21.54 70.772 0.289 7.33 19.05 6.87
8/14/2021 5:30:00 AM 21.49 70.682 0.29 7.33 31.47 6.87
8/14/2021 5:45:00 AM 21.44 70.592 0.29 7.33 22.92 6.88
8/14/2021 6:00:00 AM 21.41 70.538 0.29 7.33 21.3 6.86
8/14/2021 6:15:00 AM 21.37 70.466 0.291 7.33 26.02 6.87
8/14/2021 6:30:00 AM 21.34 70.412 0.29 7.32 25.69 6.88
8/14/2021 6:45:00 AM 21.33 70.394 0.29 7.33 20.76 6.87
8/14/2021 7:00:00 AM 21.32 70.376 0.291 7.34 23.56 6.92
8/14/2021 7:15:00 AM 21.31 70.358 0.291 7.34 27.67 6.98
8/14/2021 7:30:00 AM 21.31 70.358 0.29 7.35 20.65 6.97
8/14/2021 7:45:00 AM 21.32 70.376 0.289 7.35 28.39 7.01
8/14/2021 8:00:00 AM 21.32 70.376 0.289 7.36 23.27 7.03
8/14/2021 8:15:00 AM 21.34 70.412 0.289 7.36 23.22 7.08
8/14/2021 8:30:00 AM 21.37 70.466 0.288 7.37 22.08 7.15
8/14/2021 8:45:00 AM 21.4 70.52 0.288 7.38 24.13 7.2
8/14/2021 9:00:00 AM 21.44 70.592 0.287 7.38 25.42 7.36
8/14/2021 9:15:00 AM 21.5 70.7 0.287 7.4 22.8 7.48
8/14/2021 9:30:00 AM 21.51 70.718 0.287 7.41 24.25 7.56
8/14/2021 9:45:00 AM 21.53 70.754 0.288 7.41 31.48 7.59
8/14/2021 10:00:00 AM 21.56 70.808 0.287 7.43 37.63 7.66
8/14/2021 10:15:00 AM 21.6 70.88 0.287 7.44 29.66 7.78
8/14/2021 10:30:00 AM 21.67 71.006 0.287 7.43 34.93 7.94
8/14/2021 10:45:00 AM 21.75 71.15 0.287 7.47 27.68 8.1
8/14/2021 11:00:00 AM 21.76 71.168 0.287 7.47 33.1 8.09
8/14/2021 11:15:00 AM 21.85 71.33 0.288 7.48 29.9 8.29
8/14/2021 11:30:00 AM 21.9 71.42 0.288 7.49 33.31 8.28
8/14/2021 11:45:00 AM 21.85 71.33 0.288 7.5 40.99 8.27
8/14/2021 12:00:00 PM 21.86 71.348 0.288 7.5 50.75 8.22
8/14/2021 12:15:00 PM 21.91 71.438 0.289 7.51 36.3 8.33
8/14/2021 12:30:00 PM 22.09 71.762 0.289 7.54 35.95 8.59
8/14/2021 12:45:00 PM 22.16 71.888 0.289 7.56 32.47 8.74
8/14/2021 1:00:00 PM 22.21 71.978 0.289 7.58 39.83 8.81
8/14/2021 1:15:00 PM 22.37 72.266 0.289 7.6 31.71 8.99
8/14/2021 1:30:00 PM 22.46 72.42799 0.29 7.6 38.67 9.06
8/14/2021 1:45:00 PM 22.65 72.77 0.29 7.62 57.82 9.22
8/14/2021 2:00:00 PM 23.1 73.58 0.291 7.64 185.31 9.42
8/14/2021 2:15:00 PM 23.32 73.976 0.291 7.7 50.6 9.57
8/14/2021 2:30:00 PM 23.53 74.354 0.291 7.73 43.73 9.72
8/14/2021 2:45:00 PM 23.49 74.282 0.291 7.74 40.98 9.65
8/14/2021 3:00:00 PM 23.37 74.066 0.291 7.71 44.13 9.49
8/14/2021 3:15:00 PM 23.39 74.102 0.291 7.7 47.79 9.5
8/14/2021 3:30:00 PM 23.38 74.084 0.292 7.74 41.87 9.45
8/14/2021 3:45:00 PM 23.53 74.354 0.292 7.76 39.84 9.57
8/14/2021 4:00:00 PM 23.53 74.354 0.292 7.74 39.36 9.53
8/14/2021 4:15:00 PM 23.68 74.624 0.293 7.75 38.22 9.59
8/14/2021 4:30:00 PM 23.8 74.84 0.293 7.78 42.34 9.68
8/14/2021 4:45:00 PM 23.78 74.804 0.293 7.79 50.27 9.61
8/14/2021 5:00:00 PM 23.75 74.75 0.293 7.77 37.22 9.53
8/14/2021 5:15:00 PM 23.79 74.82201 0.294 7.76 38.95 9.52
8/14/2021 5:30:00 PM 23.79 74.82201 0.294 7.76 53.96 9.5
8/14/2021 5:45:00 PM 23.71 74.67799 0.294 7.77 38.99 9.42
8/14/2021 6:00:00 PM 23.67 74.606 0.295 7.75 41.12 9.38
8/14/2021 6:15:00 PM 23.6 74.48 0.295 7.75 43.98 9.32
8/14/2021 6:30:00 PM 23.49 74.282 0.295 7.73 43.95 9.24
8/14/2021 6:45:00 PM 23.35 74.03 0.295 7.72 42.16 9.14
8/14/2021 7:00:00 PM 23.19 73.742 0.296 7.7 45.39 8.98
8/14/2021 7:15:00 PM 23.02 73.436 0.296 7.66 42.18 8.8
8/14/2021 7:30:00 PM 22.85 73.13 0.296 7.64 41.97 8.63
8/14/2021 7:45:00 PM 22.66 72.788 0.296 7.6 54.27 8.41
8/14/2021 8:00:00 PM 22.47 72.446 0.296 7.57 49.62 8.26
8/14/2021 8:15:00 PM 22.28 72.104 0.297 7.54 37.83 8.1
8/14/2021 8:30:00 PM 22.11 71.798 0.297 7.51 40.24 7.95
8/14/2021 8:45:00 PM 21.97 71.546 0.297 7.5 58.13 7.78
8/14/2021 9:00:00 PM 21.84 71.312 0.297 7.47 40.69 7.7
8/14/2021 9:15:00 PM 21.72 71.096 0.297 7.45 41.92 7.61
8/14/2021 9:30:00 PM 21.59 70.862 0.298 7.44 43.56 7.56
8/14/2021 9:45:00 PM 21.45 70.61 0.297 7.42 40.46 7.49
8/14/2021 10:00:00 PM 21.31 70.358 0.298 7.41 40.52 7.44
8/14/2021 10:15:00 PM 21.2 70.16 0.298 7.38 47.45 7.34
8/14/2021 10:30:00 PM 21.07 69.926 0.297 7.37 43.27 7.35
8/14/2021 10:45:00 PM 20.96 69.728 0.298 7.36 47.14 7.29
8/14/2021 11:00:00 PM 20.85 69.53 0.298 7.35 41.6 7.27
8/14/2021 11:15:00 PM 20.75 69.35 0.298 7.34 39.69 7.25
8/14/2021 11:30:00 PM 20.65 69.17 0.297 7.34 42.23 7.24
8/14/2021 11:45:00 PM 20.56 69.008 0.297 7.34 43.47 7.2
8/15/2021 12:00:00 AM 20.5 68.9 0.297 7.34 41.46 7.19
8/15/2021 12:15:00 AM 20.44 68.792 0.297 7.33 41.04 7.19
8/15/2021 12:30:00 AM 20.35 68.63 0.297 7.33 40.73 7.21
8/15/2021 12:45:00 AM 20.28 68.504 0.297 7.33 42.49 7.21
8/15/2021 1:00:00 AM 20.2 68.36 0.297 7.32 60.72 7.2
8/15/2021 1:15:00 AM 20.11 68.198 0.297 7.32 43.07 7.24
8/15/2021 1:30:00 AM 20.04 68.07201 0.296 7.33 41.08 7.19
8/15/2021 1:45:00 AM 19.95 67.91 0.297 7.31 43.55 7.24
8/15/2021 2:00:00 AM 19.88 67.784 0.296 7.31 42.15 7.22
8/15/2021 2:15:00 AM 19.78 67.604 0.297 7.32 42.22 7.27
8/15/2021 2:30:00 AM 19.72 67.496 0.297 7.31 40.42 7.22
8/15/2021 2:45:00 AM 19.65 67.37 0.297 7.31 42.38 7.25
8/15/2021 3:00:00 AM 19.6 67.28 0.297 7.31 58.17 7.27
8/15/2021 3:15:00 AM 19.55 67.19 0.298 7.31 42.29 7.28
8/15/2021 3:30:00 AM 19.5 67.1 0.298 7.31 54.69 7.26
8/15/2021 3:45:00 AM 19.44 66.992 0.299 7.31 42.67 7.31
8/15/2021 4:00:00 AM 19.38 66.884 0.299 7.31 51.52 7.26
8/15/2021 4:15:00 AM 19.3 66.74 0.299 7.31 44.52 7.3
8/15/2021 4:30:00 AM 19.22 66.596 0.299 7.31 40.78 7.3
8/15/2021 4:45:00 AM 19.15 66.47 0.3 7.31 48.08 7.35
8/15/2021 5:00:00 AM 19.1 66.38 0.299 7.3 45.38 7.32
8/15/2021 5:15:00 AM 19.04 66.272 0.3 7.3 48.7 7.35
8/15/2021 5:30:00 AM 18.99 66.182 0.301 7.3 54.29 7.35
8/15/2021 5:45:00 AM 18.93 66.074 0.301 7.3 45.13 7.34
8/15/2021 6:00:00 AM 18.87 65.966 0.301 7.3 77.58 7.34
8/15/2021 6:15:00 AM 18.82 65.876 0.301 7.29 41.38 7.3
8/15/2021 6:30:00 AM 18.76 65.768 0.302 7.3 48.53 7.4
8/15/2021 6:45:00 AM 18.72 65.696 0.302 7.29 56.36 7.36
8/15/2021 7:00:00 AM 18.68 65.624 0.302 7.29 50.07 7.42
8/15/2021 7:15:00 AM 18.65 65.57 0.302 7.29 44.01 7.54
8/15/2021 7:30:00 AM 18.64 65.552 0.303 7.31 45.6 7.59
8/15/2021 7:45:00 AM 18.64 65.552 0.303 7.31 43.25 7.68
8/15/2021 8:00:00 AM 18.67 65.606 0.303 7.32 46.46 7.79
8/15/2021 8:15:00 AM 18.72 65.696 0.303 7.34 44.39 8
8/15/2021 8:30:00 AM 18.81 65.858 0.304 7.36 46.08 8.13
8/15/2021 8:45:00 AM 18.89 66.002 0.304 7.36 44.17 8.32
8/15/2021 9:00:00 AM 19 66.2 0.304 7.39 41.96 8.51
8/15/2021 9:15:00 AM 19.17 66.506 0.304 7.42 69.59 8.75
8/15/2021 9:30:00 AM 19.35 66.83 0.305 7.41 42.73 8.84
8/15/2021 9:45:00 AM 19.5 67.1 0.305 7.43 49.7 9.06
8/15/2021 10:00:00 AM 19.49 67.082 0.305 7.46 44.49 9.08
8/15/2021 10:15:00 AM 19.51 67.118 0.305 7.47 42.4 9.19
8/15/2021 10:30:00 AM 19.6 67.28 0.305 7.49 48.64 9.34
8/15/2021 10:45:00 AM 19.83 67.694 0.305 7.5 52.73 9.45
8/15/2021 11:00:00 AM 20.17 68.306 0.306 7.53 46.4 9.71
8/15/2021 11:15:00 AM 20.53 68.954 0.306 7.54 53.24 9.79
8/15/2021 11:30:00 AM 20.83 69.494 0.306 7.55 52.13 9.97
8/15/2021 11:45:00 AM 21.09 69.962 0.307 7.57 47.84 10.06
8/15/2021 12:00:00 PM 21.43 70.574 0.306 7.62 50.15 10.2
8/15/2021 12:15:00 PM 21.87 71.366 0.307 7.65 43.78 10.33
8/15/2021 12:30:00 PM 22.26 72.068 0.307 7.67 43.04 10.39
8/15/2021 12:45:00 PM 22.5 72.5 0.308 7.68 43.85 10.41
8/15/2021 1:00:00 PM 22.88 73.184 0.308 7.65 43.62 10.53
8/15/2021 1:15:00 PM 23.25 73.85 0.308 7.7 47.71 10.44
8/15/2021 1:30:00 PM 23.34 74.012 0.308 7.69 43.32 10.52
8/15/2021 1:45:00 PM 23.42 74.156 0.308 7.73 44.44 10.57
8/15/2021 2:00:00 PM 23.31 73.958 0.308 7.74 46.78 10.44
8/15/2021 2:15:00 PM 23.2 73.76 0.309 7.73 378.71 9.93
8/15/2021 2:30:00 PM 23.17 73.706 0.308 7.76 114.77 10.38
8/15/2021 2:45:00 PM 23.14 73.652 0.309 7.77 46.6 10.34
8/15/2021 3:00:00 PM 23.05 73.49 0.309 7.75 48.61 10.17
8/15/2021 3:15:00 PM 22.98 73.364 0.309 7.73 45.94 10.17
8/15/2021 3:30:00 PM 22.97 73.346 0.309 7.74 50.08 10.19
8/15/2021 3:45:00 PM 22.97 73.346 0.309 7.75 65.03 10.23
8/15/2021 4:00:00 PM 22.94 73.292 0.309 7.77 47.43 10.23
8/15/2021 4:15:00 PM 22.92 73.256 0.309 7.77 46.9 10.14
8/15/2021 4:30:00 PM 22.89 73.202 0.31 7.8 43.35 10.19
8/15/2021 4:45:00 PM 22.82 73.076 0.31 7.75 58.01 10.17
8/15/2021 5:00:00 PM 22.76 72.968 0.309 7.79 48.47 10.18
8/15/2021 5:15:00 PM 22.73 72.914 0.31 7.74 46.83 10.13
8/15/2021 5:30:00 PM 22.72 72.896 0.31 7.78 43.39 10.13
8/15/2021 5:45:00 PM 22.68 72.824 0.311 7.76 45.33 10.05
8/15/2021 6:00:00 PM 22.58 72.644 0.311 7.78 46.84 10.05
8/15/2021 6:15:00 PM 22.46 72.42799 0.312 7.72 45.13 9.93
8/15/2021 6:30:00 PM 22.33 72.194 0.312 7.74 44.4 9.78
8/15/2021 6:45:00 PM 22.21 71.978 0.312 7.69 45.04 9.64
8/15/2021 7:00:00 PM 22.11 71.798 0.312 7.69 77.95 9.48
8/15/2021 7:15:00 PM 22 71.6 0.312 7.66 43.39 9.35
8/15/2021 7:30:00 PM 21.84 71.312 0.312 7.64 44.47 9.19
8/15/2021 7:45:00 PM 21.68 71.024 0.313 7.62 65.46 9.05
8/15/2021 8:00:00 PM 21.53 70.754 0.313 7.59 46.78 8.87
8/15/2021 8:15:00 PM 21.38 70.484 0.314 7.57 61.37 8.73
8/15/2021 8:30:00 PM 21.27 70.286 0.315 7.52 113.79 8.4
8/15/2021 8:45:00 PM 21.13 70.034 0.236 7.41 1062.69 7.7
8/15/2021 9:00:00 PM 21 69.8 0.315 7.48 19.74 8.23
8/15/2021 9:15:00 PM 20.88 69.584 0.315 7.47 13.33 8.12
8/15/2021 9:30:00 PM 20.77 69.386 0.315 7.45 23.63 8.01
8/15/2021 9:45:00 PM 20.67 69.206 0.316 7.43 18.58 7.93
8/15/2021 10:00:00 PM 20.57 69.026 0.316 7.42 18.16 7.82
8/15/2021 10:15:00 PM 20.47 68.846 0.317 7.4 17.83 7.79
8/15/2021 10:30:00 PM 20.38 68.684 0.316 7.39 19.75 7.69
8/15/2021 10:45:00 PM 20.29 68.522 0.317 7.37 15.33 7.65
8/15/2021 11:00:00 PM 20.21 68.378 0.317 7.35 16.47 7.54
8/15/2021 11:15:00 PM 20.11 68.198 0.317 7.34 19.25 7.53
8/15/2021 11:30:00 PM 20.03 68.054 0.318 7.34 17.34 7.49
8/15/2021 11:45:00 PM 19.96 67.92799 0.318 7.32 17.77 7.43
8/16/2021 12:00:00 AM 19.89 67.802 0.318 7.31 16.41 7.36
8/16/2021 12:15:00 AM 19.83 67.694 0.318 7.3 17.02 7.37
8/16/2021 12:30:00 AM 19.77 67.586 0.318 7.3 21.7 7.33
8/16/2021 12:45:00 AM 19.71 67.478 0.319 7.28 21.83 7.33
8/16/2021 1:00:00 AM 19.66 67.388 0.319 7.28 19.55 7.35
8/16/2021 1:15:00 AM 19.62 67.316 0.318 7.27 19.73 7.32
8/16/2021 1:30:00 AM 19.57 67.226 0.319 7.28 16.82 7.32
8/16/2021 1:45:00 AM 19.52 67.136 0.319 7.27 18.58 7.23
8/16/2021 2:00:00 AM 19.46 67.028 0.319 7.28 16.78 7.23
8/16/2021 2:15:00 AM 19.42 66.956 0.319 7.27 28.83 7.23
8/16/2021 2:30:00 AM 19.38 66.884 0.319 7.26 18.68 7.23
8/16/2021 2:45:00 AM 19.34 66.812 0.319 7.26 27.98 7.25
8/16/2021 3:00:00 AM 19.29 66.722 0.319 7.25 21.67 7.14
8/16/2021 3:15:00 AM 19.24 66.632 0.319 7.26 40.47 7.22
8/16/2021 3:30:00 AM 19.19 66.542 0.32 7.26 16.76 7.23
8/16/2021 3:45:00 AM 19.15 66.47 0.32 7.24 20.22 7.21
8/16/2021 4:00:00 AM 19.11 66.398 0.32 7.25 18.45 7.26
8/16/2021 4:15:00 AM 19.08 66.344 0.32 7.25 17.49 7.24
8/16/2021 4:30:00 AM 19.06 66.308 0.32 7.25 19 7.24
8/16/2021 4:45:00 AM 19.02 66.236 0.32 7.25 17.53 7.25
8/16/2021 5:00:00 AM 18.98 66.164 0.321 7.25 18.12 7.21
8/16/2021 5:15:00 AM 18.95 66.11 0.321 7.25 17.99 7.21
8/16/2021 5:30:00 AM 18.91 66.038 0.321 7.25 18.12 7.22
8/16/2021 5:45:00 AM 18.86 65.948 0.322 7.24 271.48 7.2
8/16/2021 6:00:00 AM 18.84 65.912 0.322 7.25 29.99 7.2
8/16/2021 6:15:00 AM 18.8 65.84 0.322 7.24 24.17 7.21
8/16/2021 6:30:00 AM 18.76 65.768 0.322 7.24 20.57 7.23
8/16/2021 6:45:00 AM 18.73 65.714 0.322 7.23 28.87 7.21
8/16/2021 7:00:00 AM 18.69 65.642 0.323 7.23 27.91 7.24
8/16/2021 7:15:00 AM 18.68 65.624 0.323 7.24 30.13 7.33
8/16/2021 7:30:00 AM 18.68 65.624 0.323 7.24 29.28 7.37
8/16/2021 7:45:00 AM 18.69 65.642 0.323 7.24 30.86 7.52
8/16/2021 8:00:00 AM 18.7 65.66 0.323 7.26 22.51 7.67
8/16/2021 8:15:00 AM 18.71 65.67799 0.323 7.27 32.82 7.72
8/16/2021 8:30:00 AM 18.73 65.714 0.323 7.28 23.83 7.82
8/16/2021 8:45:00 AM 18.74 65.732 0.323 7.27 30.56 7.85
8/16/2021 9:00:00 AM 18.78 65.804 0.323 7.28 34.11 7.93
8/16/2021 9:15:00 AM 18.87 65.966 0.323 7.29 26.83 8.16
8/16/2021 9:30:00 AM 19.05 66.29 0.323 7.3 21.09 8.41
8/16/2021 9:45:00 AM 19.14 66.452 0.323 7.32 18.35 8.53
8/16/2021 10:00:00 AM 19.2 66.56 0.323 7.34 24.55 8.63
8/16/2021 10:15:00 AM 19.33 66.794 0.323 7.36 15.83 8.87
8/16/2021 10:30:00 AM 19.44 66.992 0.323 7.37 17.65 8.92
8/16/2021 10:45:00 AM 19.54 67.172 0.323 7.37 16.32 9.06
8/16/2021 11:00:00 AM 19.66 67.388 0.323 7.4 27.57 9.3
8/16/2021 11:15:00 AM 19.84 67.712 0.323 7.4 26.74 9.42
8/16/2021 11:30:00 AM 20.01 68.018 0.323 7.41 42.63 9.51
8/16/2021 11:45:00 AM 20.27 68.486 0.323 7.45 28.95 9.71
8/16/2021 12:00:00 PM 20.49 68.882 0.323 7.47 26.9 9.85
8/16/2021 12:15:00 PM 20.61 69.098 0.322 7.49 20.46 9.99
8/16/2021 12:30:00 PM 20.64 69.152 0.323 7.51 23.45 9.96
8/16/2021 12:45:00 PM 20.6 69.08 0.323 7.51 22.4 9.94
8/16/2021 1:00:00 PM 20.56 69.008 0.322 7.52 22.38 9.86
8/16/2021 1:15:00 PM 20.55 68.99 0.323 7.52 23.12 9.8
8/16/2021 1:30:00 PM 20.54 68.972 0.323 7.47 25.33 9.64
8/16/2021 1:45:00 PM 20.55 68.99 0.323 7.5 45.7 9.65
8/16/2021 2:00:00 PM 20.58 69.044 0.323 7.49 29.86 9.72
8/16/2021 2:15:00 PM 20.57 69.026 0.323 7.52 26.41 9.66
8/16/2021 2:30:00 PM 20.51 68.918 0.322 7.51 53.42 9.56
8/16/2021 2:45:00 PM 20.47 68.846 0.322 7.5 32.1 9.46
8/16/2021 3:00:00 PM 20.47 68.846 0.322 7.51 44.97 9.5
8/16/2021 3:15:00 PM 20.52 68.936 0.322 7.49 29.26 9.62
8/16/2021 3:30:00 PM 20.56 69.008 0.322 7.52 25.52 9.64
8/16/2021 3:45:00 PM 20.54 68.972 0.322 7.54 24.6 9.68
8/16/2021 4:00:00 PM 20.51 68.918 0.322 7.53 35.28 9.61
8/16/2021 4:15:00 PM 20.47 68.846 0.323 7.5 25.68 9.43
8/16/2021 4:30:00 PM 20.41 68.738 0.323 7.5 28.56 9.36
8/16/2021 4:45:00 PM 20.38 68.684 0.323 7.48 26.01 9.31
8/16/2021 5:00:00 PM 20.35 68.63 0.323 7.47 26.17 9.23
8/16/2021 5:15:00 PM 20.31 68.558 0.323 7.47 23.85 9.14
8/16/2021 5:30:00 PM 20.26 68.468 0.324 7.44 26.03 9.05
8/16/2021 5:45:00 PM 20.22 68.396 0.324 7.44 38.94 8.97
8/16/2021 6:00:00 PM 20.18 68.324 0.323 7.42 31.46 8.86
8/16/2021 6:15:00 PM 20.12 68.216 0.324 7.42 31.22 8.76
8/16/2021 6:30:00 PM 20.06 68.108 0.324 7.41 46.42 8.64
8/16/2021 6:45:00 PM 20 68 0.323 7.4 67.9 8.54
8/16/2021 7:00:00 PM 19.95 67.91 0.323 7.38 35.65 8.39
8/16/2021 7:15:00 PM 19.91 67.838 0.323 7.37 36.6 8.33
8/16/2021 7:30:00 PM 19.87 67.766 0.323 7.36 34.84 8.3
8/16/2021 7:45:00 PM 19.82 67.676 0.323 7.35 37.22 8.19
8/16/2021 8:00:00 PM 19.77 67.586 0.323 7.34 36.56 8.13
8/16/2021 8:15:00 PM 19.73 67.514 0.323 7.33 36.73 8.03
8/16/2021 8:30:00 PM 19.67 67.406 0.323 7.32 46.12 7.99
8/16/2021 8:45:00 PM 19.63 67.334 0.324 7.31 34.36 7.83
8/16/2021 9:00:00 PM 19.57 67.226 0.325 7.3 38.3 7.83
8/16/2021 9:15:00 PM 19.53 67.154 0.325 7.29 32.51 7.78
8/16/2021 9:30:00 PM 19.48 67.064 0.326 7.29 33.22 7.73
8/16/2021 9:45:00 PM 19.44 66.992 0.326 7.28 24.73 7.66
8/16/2021 10:00:00 PM 19.4 66.92 0.326 7.27 48.45 7.57
8/16/2021 10:15:00 PM 19.37 66.866 0.326 7.26 16.56 7.57
8/16/2021 10:30:00 PM 19.33 66.794 0.326 7.25 53.05 7.51
8/16/2021 10:45:00 PM 19.31 66.758 0.325 7.24 18.66 7.44
8/16/2021 11:00:00 PM 19.28 66.704 0.325 7.24 19.36 7.4
8/16/2021 11:15:00 PM 19.26 66.668 0.325 7.23 19 7.4
8/16/2021 11:30:00 PM 19.23 66.614 0.325 7.23 20.21 7.35
8/16/2021 11:45:00 PM 19.21 66.578 0.325 7.23 17.64 7.33
8/17/2021 12:00:00 AM 19.19 66.542 0.325 7.22 18.46 7.34
8/17/2021 12:15:00 AM 19.17 66.506 0.325 7.22 18.13 7.31
8/17/2021 12:30:00 AM 19.15 66.47 0.325 7.22 27.71 7.3
8/17/2021 12:45:00 AM 19.13 66.434 0.325 7.23 18.23 7.32
8/17/2021 1:00:00 AM 19.12 66.416 0.325 7.22 18.92 7.3
8/17/2021 1:15:00 AM 19.1 66.38 0.325 7.22 17.58 7.25
8/17/2021 1:30:00 AM 19.08 66.344 0.326 7.22 18.44 7.3
8/17/2021 1:45:00 AM 19.06 66.308 0.326 7.22 18.82 7.27
8/17/2021 2:00:00 AM 19.04 66.272 0.326 7.22 20.2 7.28
8/17/2021 2:15:00 AM 19.03 66.254 0.326 7.21 19.71 7.26
8/17/2021 2:30:00 AM 19.01 66.218 0.326 7.21 23.4 7.24
8/17/2021 2:45:00 AM 18.98 66.164 0.326 7.22 18.44 7.27
8/17/2021 3:00:00 AM 18.96 66.128 0.326 7.22 33.35 7.26
8/17/2021 3:15:00 AM 18.94 66.092 0.326 7.21 48.94 7.23
8/17/2021 3:30:00 AM 18.91 66.038 0.326 7.21 20.72 7.22
8/17/2021 3:45:00 AM 18.88 65.984 0.327 7.21 20.31 7.24
8/17/2021 4:00:00 AM 18.85 65.93 0.328 7.21 24.63 7.24
8/17/2021 4:15:00 AM 18.82 65.876 0.328 7.2 144.19 7.25
8/17/2021 4:30:00 AM 18.78 65.804 0.328 7.2 18.36 7.27
8/17/2021 4:45:00 AM 18.75 65.75 0.328 7.2 17.67 7.23
8/17/2021 5:00:00 AM 18.73 65.714 0.329 7.2 18.11 7.24
8/17/2021 5:15:00 AM 18.71 65.67799 0.329 7.19 17.86 7.25
8/17/2021 5:30:00 AM 18.7 65.66 0.329 7.19 17.79 7.2
8/17/2021 5:45:00 AM 18.69 65.642 0.329 7.19 17.06 7.23
8/17/2021 6:00:00 AM 18.67 65.606 0.329 7.19 17.63 7.23
8/17/2021 6:15:00 AM 18.65 65.57 0.329 7.19 18.46 7.18
8/17/2021 6:30:00 AM 18.64 65.552 0.33 7.2 25.46 7.3
8/17/2021 6:45:00 AM 18.63 65.534 0.33 7.19 33.57 7.22
8/17/2021 7:00:00 AM 18.61 65.498 0.33 7.18 24.46 7.29
8/17/2021 7:15:00 AM 18.62 65.516 0.33 7.19 19.35 7.28
8/17/2021 7:30:00 AM 18.64 65.552 0.331 7.19 23.37 7.4
8/17/2021 7:45:00 AM 18.66 65.588 0.33 7.21 30.84 7.5
8/17/2021 8:00:00 AM 18.7 65.66 0.331 7.21 20.24 7.61
8/17/2021 8:15:00 AM 18.76 65.768 0.331 7.21 87.43 7.73
8/17/2021 8:30:00 AM 18.83 65.894 0.331 7.21 126.73 7.87
8/17/2021 8:45:00 AM 18.9 66.02 0.331 7.22 24.83 7.9
8/17/2021 9:00:00 AM 18.98 66.164 0.331 7.23 23.92 8.07
8/17/2021 9:15:00 AM 19.03 66.254 0.331 7.25 19.47 8.1
8/17/2021 9:30:00 AM 19.1 66.38 0.332 7.25 17.23 8.24
8/17/2021 9:45:00 AM 19.21 66.578 0.332 7.26 17.77 8.39
8/17/2021 10:00:00 AM 19.37 66.866 0.332 7.27 22.72 8.6
8/17/2021 10:15:00 AM 19.55 67.19 0.332 7.29 17.32 8.82
8/17/2021 10:30:00 AM 19.87 67.766 0.332 7.34 19.5 9.08
8/17/2021 10:45:00 AM 20.25 68.45 0.332 7.35 18.66 9.31
8/17/2021 11:00:00 AM 20.53 68.954 0.332 7.36 18.91 9.46
8/17/2021 11:15:00 AM 20.72 69.296 0.352 7.38 18.41 9.57
8/17/2021 11:30:00 AM 20.84 69.512 0.33 7.38 18.34 9.65
8/17/2021 11:45:00 AM 21.06 69.908 0.336 7.41 18.1 9.78
8/17/2021 12:00:00 PM 21.17 70.106 0.351 7.42 19.56 9.84
8/17/2021 12:15:00 PM 21.28 70.304 0.337 7.43 18.2 9.84
8/17/2021 12:30:00 PM 21.39 70.502 0.336 7.47 19.35 9.94
8/17/2021 12:45:00 PM 21.51 70.718 0.336 7.46 17.37 9.94
8/17/2021 1:00:00 PM 21.66 70.988 0.336 7.46 16.71 9.98
8/17/2021 1:15:00 PM 21.93 71.474 0.335 7.46 17.05 10.19
8/17/2021 1:30:00 PM 22.08 71.744 0.336 7.49 19.17 10.1
8/17/2021 1:45:00 PM 22.14 71.852 0.336 7.52 18.83 10.19
8/17/2021 2:00:00 PM 22.17 71.906 0.335 7.52 18.61 10.1
8/17/2021 2:15:00 PM 22.18 71.924 0.334 7.53 19.36 10.08
8/17/2021 2:30:00 PM 22.31 72.158 0.335 7.54 19.57 10.18
8/17/2021 2:45:00 PM 22.62 72.716 0.335 7.55 17.6 10.19
8/17/2021 3:00:00 PM 22.86 73.148 0.334 7.55 19.17 10.39
8/17/2021 3:15:00 PM 22.98 73.364 0.335 7.62 22.92 10.42
8/17/2021 3:30:00 PM 23.15 73.67 0.335 7.64 19.13 10.47
8/17/2021 3:45:00 PM 23.2 73.76 0.333 7.61 19.2 10.4
8/17/2021 4:00:00 PM 23.24 73.832 0.334 7.62 18.56 10.25
8/17/2021 4:15:00 PM 23.32 73.976 0.334 7.61 18.76 10.29
8/17/2021 4:30:00 PM 23.43 74.174 0.334 7.64 17.65 10.32
8/17/2021 4:45:00 PM 23.42 74.156 0.333 7.62 17.71 10.25
8/17/2021 5:00:00 PM 23.38 74.084 0.334 7.62 18.76 10.1
8/17/2021 5:15:00 PM 23.3 73.94 0.333 7.6 19.5 9.88
8/17/2021 5:30:00 PM 23.26 73.868 0.333 7.58 18.88 9.78
8/17/2021 5:45:00 PM 23.25 73.85 0.333 7.58 57.31 9.65
8/17/2021 6:00:00 PM 23.21 73.778 0.333 7.57 18.44 9.59
8/17/2021 6:15:00 PM 23.14 73.652 0.333 7.56 19.06 9.51
8/17/2021 6:30:00 PM 23.07 73.526 0.332 7.55 17.85 9.33
8/17/2021 6:45:00 PM 22.99 73.382 0.332 7.55 17.7 9.3
8/17/2021 7:00:00 PM 22.91 73.238 0.332 7.54 17.47 9.16
8/17/2021 7:15:00 PM 22.79 73.022 0.331 7.53 22.67 8.95
8/17/2021 7:30:00 PM 22.65 72.77 0.334 7.51 17.54 8.86
8/17/2021 7:45:00 PM 22.51 72.518 0.331 7.49 18.49 8.65
8/17/2021 8:00:00 PM 22.39 72.302 0.34 7.51 610.46 8.45
8/17/2021 8:15:00 PM 22.26 72.068 0.334 7.45 32.88 8.29
8/17/2021 8:30:00 PM 22.15 71.87 0.331 7.42 75.58 8.19
8/17/2021 8:45:00 PM 22.03 71.654 0.382 7.42 34.06 8.08
8/17/2021 9:00:00 PM 21.92 71.456 0.333 7.41 28.84 7.97
8/17/2021 9:15:00 PM 21.81 71.258 0.331 7.39 29.06 7.87
8/17/2021 9:30:00 PM 21.7 71.06 0.331 7.38 29.9 7.78
8/17/2021 9:45:00 PM 21.58 70.844 0.334 7.37 31.05 7.69
8/17/2021 10:00:00 PM 21.49 70.682 0.332 7.36 38.71 7.58
8/17/2021 10:15:00 PM 21.37 70.466 0.337 7.34 28.05 7.54
8/17/2021 10:30:00 PM 21.29 70.32201 0.337 7.33 32.02 7.43
8/17/2021 10:45:00 PM 21.18 70.124 0.348 7.32 28.62 7.44
8/17/2021 11:00:00 PM 21.11 69.998 0.328 7.31 29.34 7.36
8/17/2021 11:15:00 PM 21.03 69.854 0.328 7.28 38.38 7.28
8/17/2021 11:30:00 PM 20.96 69.728 0.329 7.27 30.8 7.26
8/17/2021 11:45:00 PM 20.87 69.566 0.329 7.28 32.94 7.23
8/18/2021 12:00:00 AM 20.8 69.44 0.328 7.27 33.01 7.22
8/18/2021 12:15:00 AM 20.75 69.35 0.328 7.27 33.34 7.18
8/18/2021 12:30:00 AM 20.69 69.242 0.328 7.26 29.62 7.09
8/18/2021 12:45:00 AM 20.63 69.134 0.328 7.25 47.83 7.11
8/18/2021 1:00:00 AM 20.59 69.062 0.328 7.25 30.04 7.08
8/18/2021 1:15:00 AM 20.53 68.954 0.328 7.25 40.8 7.11
8/18/2021 1:30:00 AM 20.48 68.864 0.328 7.25 29.22 7.07
8/18/2021 1:45:00 AM 20.44 68.792 0.328 7.23 31.58 7.02
8/18/2021 2:00:00 AM 20.4 68.72 0.327 7.25 96.45 7.08
8/18/2021 2:15:00 AM 20.37 68.666 0.326 7.17 69.22 6.79
8/18/2021 2:30:00 AM 20.32 68.576 0.327 7.23 37.32 7.02
8/18/2021 2:45:00 AM 20.27 68.486 0.326 7.24 39.53 7.06
8/18/2021 3:00:00 AM 20.23 68.414 0.325 7.23 33.16 7
8/18/2021 3:15:00 AM 20.2 68.36 0.325 7.24 33.28 7.02
8/18/2021 3:30:00 AM 20.15 68.27 0.325 7.23 97.51 7.04
8/18/2021 3:45:00 AM 20.11 68.198 0.326 7.24 36.27 7.07
8/18/2021 4:00:00 AM 20.07 68.126 0.327 7.23 75.9 7.03
8/18/2021 4:15:00 AM 20.02 68.036 0.327 7.23 35.58 7.04
8/18/2021 4:30:00 AM 19.98 67.964 0.329 7.24 35.47 7.02
8/18/2021 4:45:00 AM 19.93 67.874 0.33 7.23 37.19 7.06
8/18/2021 5:00:00 AM 19.9 67.82 0.331 7.22 36.68 7.03
8/18/2021 5:15:00 AM 19.86 67.748 0.33 7.21 41.75 7.01
8/18/2021 5:30:00 AM 19.84 67.712 0.33 7.21 40.03 6.95
8/18/2021 5:45:00 AM 19.82 67.676 0.329 7.2 42.58 6.9
8/18/2021 6:00:00 AM 19.81 67.658 0.329 7.19 41.32 6.9
8/18/2021 6:15:00 AM 19.8 67.64 0.328 7.2 35.98 6.84
8/18/2021 6:30:00 AM 19.78 67.604 0.327 7.21 41.04 6.95
8/18/2021 6:45:00 AM 19.77 67.586 0.327 7.2 45.22 6.96
8/18/2021 7:00:00 AM 19.76 67.568 0.326 7.2 52.06 6.97
8/18/2021 7:15:00 AM 19.76 67.568 0.325 7.2 36.71 6.95
8/18/2021 7:30:00 AM 19.77 67.586 0.324 7.21 31.57 7.05
8/18/2021 7:45:00 AM 19.79 67.622 0.322 7.21 39.56 7.1
8/18/2021 8:00:00 AM 19.81 67.658 0.322 7.21 59.92 7.12
8/18/2021 8:15:00 AM 19.82 67.676 0.323 7.23 29.15 7.23
8/18/2021 8:30:00 AM 19.82 67.676 0.324 7.23 17.39 7.25
8/18/2021 8:45:00 AM 19.86 67.748 0.325 7.23 26.13 7.32
8/18/2021 9:00:00 AM 19.91 67.838 0.326 7.24 22.23 7.52
8/18/2021 9:15:00 AM 19.91 67.838 0.327 7.24 15.72 7.56
8/18/2021 9:30:00 AM 19.9 67.82 0.328 7.26 20.43 7.63
8/18/2021 9:45:00 AM 19.88 67.784 0.327 7.26 19.53 7.57
8/18/2021 10:00:00 AM 19.87 67.766 0.322 7.26 18.01 7.6
8/18/2021 10:15:00 AM 19.96 67.92799 0.304 7.29 25.54 7.67
8/18/2021 10:30:00 AM 20.22 68.396 0.272 7.3 45.93 7.63
8/18/2021 10:45:00 AM 20.28 68.504 0.265 7.29 56.55 7.78
8/18/2021 11:00:00 AM 20.22 68.396 0.272 7.31 153.32 7.83
8/18/2021 11:15:00 AM 20.11 68.198 0.274 7.32 34.96 7.94
8/18/2021 11:30:00 AM 20.03 68.054 0.267 7.33 21.79 7.96
8/18/2021 11:45:00 AM 20.17 68.306 0.226 7.35 55.53 8.12
8/18/2021 12:00:00 PM 20.6 69.08 0.165 7.38 56.47 8.19
8/18/2021 12:15:00 PM 20.31 68.558 0.194 7.35 77.77 8.13
8/18/2021 12:30:00 PM 20.39 68.702 0.187 7.39 157.74 8.15
8/18/2021 12:45:00 PM 20.6 69.08 0.167 7.41 162.88 8.16
8/18/2021 1:00:00 PM 20.91 69.638 0.148 7.35 158.82 8.19
8/18/2021 1:15:00 PM 20.77 69.386 0.177 7.25 102.08 8.13
8/18/2021 1:30:00 PM 20.74 69.332 0.185 7.27 170.72 8.14
8/18/2021 1:45:00 PM 20.71 69.278 0.195 7.29 220.26 8.18
8/18/2021 2:00:00 PM 20.5 68.9 0.219 7.35 182.43 8.26
8/18/2021 2:15:00 PM 20.25 68.45 0.225 7.41 332.02 8.39
8/18/2021 2:30:00 PM 20.27 68.486 0.222 7.4 364.67 8.38
8/18/2021 2:45:00 PM 20.32 68.576 0.227 7.39 423.61 8.26
8/18/2021 3:00:00 PM 20.43 68.774 0.237 7.41 406.3 8.24
8/18/2021 3:15:00 PM 20.49 68.882 0.245 7.43 277.57 8.26
8/18/2021 3:30:00 PM 20.52 68.936 0.239 7.43 227.78 8.25
8/18/2021 3:45:00 PM 20.59 69.062 0.225 7.44 255.04 8.24
8/18/2021 4:00:00 PM 20.72 69.296 0.214 7.43 200.52 8.2
8/18/2021 4:15:00 PM 20.88 69.584 0.207 7.43 167.65 8.13
8/18/2021 4:30:00 PM 21.03 69.854 0.201 7.41 127.23 8.03
8/18/2021 4:45:00 PM 21.03 69.854 0.201 7.33 159.08 7.97
8/18/2021 5:00:00 PM 21.03 69.854 0.201 7.36 121.11 7.93
8/18/2021 5:15:00 PM 21.04 69.872 0.201 7.4 111.38 7.87
8/18/2021 5:30:00 PM 21.08 69.944 0.205 7.42 133.75 7.85
8/18/2021 5:45:00 PM 21.1 69.98 0.211 7.43 104.21 7.82
8/18/2021 6:00:00 PM 21.09 69.962 0.216 7.45 93.92 7.79
8/18/2021 6:15:00 PM 21.07 69.926 0.218 7.45 91.49 7.81
8/18/2021 6:30:00 PM 21.02 69.836 0.213 7.45 93.25 7.81
8/18/2021 6:45:00 PM 20.9 69.62 0.202 7.43 109.6 7.81
8/18/2021 7:00:00 PM 20.76 69.368 0.193 7.39 112.17 7.81
8/18/2021 7:15:00 PM 20.64 69.152 0.19 7.36 106.2 7.79
8/18/2021 7:30:00 PM 20.58 69.044 0.19 7.35 115.55 7.77
8/18/2021 7:45:00 PM 20.53 68.954 0.189 7.34 150.88 7.72
8/18/2021 8:00:00 PM 20.48 68.864 0.184 7.31 159.75 7.69
8/18/2021 8:15:00 PM 20.42 68.756 0.179 7.27 178.77 7.69
8/18/2021 8:30:00 PM 20.4 68.72 0.175 7.27 220.65 7.67
8/18/2021 8:45:00 PM 20.42 68.756 0.177 7.28 230.44 7.66
8/18/2021 9:00:00 PM 20.47 68.846 0.18 7.27 230.57 7.62
8/18/2021 9:15:00 PM 20.49 68.882 0.177 7.27 219.81 7.57
8/18/2021 9:30:00 PM 20.46 68.828 0.173 7.26 222.6 7.53
8/18/2021 9:45:00 PM 20.43 68.774 0.171 7.24 217.68 7.5
8/18/2021 10:00:00 PM 20.39 68.702 0.172 7.22 199.47 7.48
8/18/2021 10:15:00 PM 20.36 68.648 0.174 7.24 172.7 7.46
8/18/2021 10:30:00 PM 20.33 68.594 0.173 7.23 188.13 7.44
8/18/2021 10:45:00 PM 20.28 68.504 0.171 7.21 192.82 7.44
8/18/2021 11:00:00 PM 20.24 68.432 0.168 7.21 213.65 7.44
8/18/2021 11:15:00 PM 20.21 68.378 0.166 7.2 210.95 7.44
8/18/2021 11:30:00 PM 20.19 68.342 0.165 7.2 242.88 7.46
8/18/2021 11:45:00 PM 20.18 68.324 0.165 7.2 204.47 7.48
8/19/2021 12:00:00 AM 20.16 68.288 0.164 7.2 221.17 7.5
8/19/2021 12:15:00 AM 20.15 68.27 0.164 7.21 190.46 7.52
8/19/2021 12:30:00 AM 20.13 68.234 0.164 7.22 201.56 7.54
8/19/2021 12:45:00 AM 20.11 68.198 0.165 7.22 199.36 7.56
8/19/2021 1:00:00 AM 20.1 68.18 0.165 7.22 147.56 7.57
8/19/2021 1:15:00 AM 20.07 68.126 0.165 7.23 168.99 7.59
8/19/2021 1:30:00 AM 20.05 68.09 0.165 7.23 155.47 7.6
8/19/2021 1:45:00 AM 20.02 68.036 0.164 7.22 148.1 7.62
8/19/2021 2:00:00 AM 20 68 0.163 7.21 152.41 7.63
8/19/2021 2:15:00 AM 19.97 67.946 0.161 7.22 149.32 7.64
8/19/2021 2:30:00 AM 19.95 67.91 0.16 7.21 127.43 7.64
8/19/2021 2:45:00 AM 19.93 67.874 0.159 7.21 130.25 7.65
8/19/2021 3:00:00 AM 19.91 67.838 0.157 7.21 138.62 7.66
8/19/2021 3:15:00 AM 19.9 67.82 0.156 7.21 119.51 7.66
8/19/2021 3:30:00 AM 19.88 67.784 0.156 7.19 120.52 7.67
8/19/2021 3:45:00 AM 19.87 67.766 0.155 7.18 129.82 7.68
8/19/2021 4:00:00 AM 19.86 67.748 0.155 7.2 135.99 7.69
8/19/2021 4:15:00 AM 19.85 67.73 0.155 7.19 125.29 7.7
8/19/2021 4:30:00 AM 19.84 67.712 0.155 7.19 140.03 7.7
8/19/2021 4:45:00 AM 19.83 67.694 0.155 7.19 115.23 7.71
8/19/2021 5:00:00 AM 19.83 67.694 0.156 7.19 106.51 7.73
8/19/2021 5:15:00 AM 19.82 67.676 0.157 7.19 101.77 7.73
8/19/2021 5:30:00 AM 19.81 67.658 0.158 7.2 105.65 7.74
8/19/2021 5:45:00 AM 19.81 67.658 0.158 7.2 104.31 7.74
8/19/2021 6:00:00 AM 19.8 67.64 0.159 7.2 106.93 7.76
8/19/2021 6:15:00 AM 19.8 67.64 0.16 7.2 88.61 7.76
8/19/2021 6:30:00 AM 19.78 67.604 0.161 7.2 97.17 7.77
8/19/2021 6:45:00 AM 19.78 67.604 0.162 7.2 117.03 7.78
8/19/2021 7:00:00 AM 19.77 67.586 0.163 7.2 84.03 7.79
8/19/2021 7:15:00 AM 19.77 67.586 0.163 7.21 86.39 7.8
8/19/2021 7:30:00 AM 19.77 67.586 0.164 7.2 125.84 7.8
8/19/2021 7:45:00 AM 19.78 67.604 0.165 7.21 90.95 7.82
8/19/2021 8:00:00 AM 19.79 67.622 0.165 7.21 91.37 7.83
8/19/2021 8:15:00 AM 19.82 67.676 0.166 7.21 84.89 7.84
8/19/2021 8:30:00 AM 19.84 67.712 0.166 7.21 77.23 7.86
8/19/2021 8:45:00 AM 19.87 67.766 0.167 7.21 83.36 7.87
8/19/2021 9:00:00 AM 19.89 67.802 0.167 7.21 73 7.88
8/19/2021 9:15:00 AM 19.93 67.874 0.168 7.22 76.67 7.9
8/19/2021 9:30:00 AM 19.95 67.91 0.168 7.22 72.05 7.91
8/19/2021 9:45:00 AM 19.97 67.946 0.168 7.22 70.6 7.92
8/19/2021 10:00:00 AM 20.01 68.018 0.169 7.22 74.96 7.92
8/19/2021 10:15:00 AM 20.09 68.162 0.169 7.23 68.22 7.95
8/19/2021 10:30:00 AM 20.19 68.342 0.17 7.23 69.15 7.97
8/19/2021 10:45:00 AM 20.3 68.54 0.17 7.23 68.67 7.99
8/19/2021 11:00:00 AM 20.35 68.63 0.171 7.24 63.99 8
8/19/2021 11:15:00 AM 20.36 68.648 0.171 7.24 56.72 8
8/19/2021 11:30:00 AM 20.4 68.72 0.172 7.24 66.52 8.01
8/19/2021 11:45:00 AM 20.39 68.702 0.173 7.24 61.77 8.01
8/19/2021 12:00:00 PM 20.47 68.846 0.173 7.24 57.94 8.04
8/19/2021 12:15:00 PM 20.47 68.846 0.174 7.25 62.21 8.04
8/19/2021 12:30:00 PM 20.57 69.026 0.175 7.25 66.41 8.07
8/19/2021 12:45:00 PM 20.65 69.17 0.175 7.25 56.92 8.09
8/19/2021 1:00:00 PM 20.81 69.458 0.176 7.27 53.79 8.11
8/19/2021 1:15:00 PM 20.9 69.62 0.177 7.27 60.19 8.14
8/19/2021 1:30:00 PM 21.02 69.836 0.178 7.28 54.79 8.15
8/19/2021 1:45:00 PM 21.12 70.016 0.178 7.28 52.42 8.15
8/19/2021 2:00:00 PM 21.19 70.142 0.179 7.29 50.35 8.16
8/19/2021 2:15:00 PM 21.24 70.232 0.18 7.29 49.31 8.18
8/19/2021 2:30:00 PM 21.3 70.34 0.18 7.29 46.44 8.19
8/19/2021 2:45:00 PM 21.39 70.502 0.181 7.29 48.67 8.2
8/19/2021 3:00:00 PM 21.38 70.484 0.182 7.29 48.78 8.19
8/19/2021 3:15:00 PM 21.44 70.592 0.182 7.3 47.92 8.18
8/19/2021 3:30:00 PM 21.45 70.61 0.183 7.31 44.81 8.19
8/19/2021 3:45:00 PM 21.45 70.61 0.184 7.3 43.59 8.2
8/19/2021 4:00:00 PM 21.44 70.592 0.184 7.31 41.44 8.17
8/19/2021 4:15:00 PM 21.45 70.61 0.185 7.3 44.04 8.18
8/19/2021 4:30:00 PM 21.44 70.592 0.186 7.31 47.01 8.18
8/19/2021 4:45:00 PM 21.36 70.448 0.186 7.3 44.31 8.13
8/19/2021 5:00:00 PM 21.32 70.376 0.186 7.31 39.57 8.13
8/19/2021 5:15:00 PM 21.38 70.484 0.186 7.31 43.21 8.09
8/19/2021 5:30:00 PM 21.27 70.286 0.189 7.31 40.28 8.11
8/19/2021 5:45:00 PM 21.21 70.17799 0.192 7.3 39.13 8.09
8/19/2021 6:00:00 PM 21.19 70.142 0.191 7.3 36.19 8.06
8/19/2021 6:15:00 PM 21.18 70.124 0.191 7.29 37.37 8.04
8/19/2021 6:30:00 PM 21.13 70.034 0.191 7.28 43.92 8.02
8/19/2021 6:45:00 PM 21.07 69.926 0.192 7.28 34.95 7.99
8/19/2021 7:00:00 PM 21.02 69.836 0.192 7.28 35 7.97
8/19/2021 7:15:00 PM 20.96 69.728 0.193 7.28 44.08 7.96
8/19/2021 7:30:00 PM 20.91 69.638 0.194 7.28 40.6 7.93
8/19/2021 7:45:00 PM 20.86 69.548 0.195 7.26 34.2 7.92
8/19/2021 8:00:00 PM 20.81 69.458 0.195 7.27 32.82 7.9
8/19/2021 8:15:00 PM 20.76 69.368 0.196 7.26 43.8 7.88
8/19/2021 8:30:00 PM 20.72 69.296 0.196 7.26 36.23 7.85
8/19/2021 8:45:00 PM 20.67 69.206 0.198 7.18 31.26 7.85
8/19/2021 9:00:00 PM 20.63 69.134 0.198 7.19 1965.28 7.82
8/19/2021 9:15:00 PM 20.6 69.08 0.198 7.25 31.1 7.81
8/19/2021 9:30:00 PM 20.57 69.026 0.199 7.24 32.94 7.8
8/19/2021 9:45:00 PM 20.54 68.972 0.199 7.24 32.07 7.8
8/19/2021 10:00:00 PM 20.51 68.918 0.201 7.24 33.99 7.78
8/19/2021 10:15:00 PM 20.49 68.882 0.201 7.23 32.95 7.8
8/19/2021 10:30:00 PM 20.47 68.846 0.201 7.24 37.51 7.78
8/19/2021 10:45:00 PM 20.45 68.81 0.202 7.24 31.55 7.79
8/19/2021 11:00:00 PM 20.42 68.756 0.202 7.24 38.21 7.78
8/19/2021 11:15:00 PM 20.4 68.72 0.203 7.24 32.24 7.79
8/19/2021 11:30:00 PM 20.38 68.684 0.203 7.24 31.14 7.79
8/19/2021 11:45:00 PM 20.36 68.648 0.204 7.23 33.61 7.78
8/20/2021 12:00:00 AM 20.34 68.612 0.205 7.23 70.49 7.78
8/20/2021 12:15:00 AM 20.32 68.576 0.205 7.22 29.98 7.78
8/20/2021 12:30:00 AM 20.3 68.54 0.206 7.23 30.11 7.77
8/20/2021 12:45:00 AM 20.28 68.504 0.206 7.22 33.88 7.76
8/20/2021 1:00:00 AM 20.26 68.468 0.207 7.22 30.14 7.78
8/20/2021 1:15:00 AM 20.25 68.45 0.207 7.22 30.89 7.76
8/20/2021 1:30:00 AM 20.23 68.414 0.208 7.22 27.6 7.76
8/20/2021 1:45:00 AM 20.22 68.396 0.208 7.22 27.15 7.77
8/20/2021 2:00:00 AM 20.2 68.36 0.209 7.22 28.34 7.76
8/20/2021 2:15:00 AM 20.18 68.324 0.209 7.22 27.27 7.77
8/20/2021 2:30:00 AM 20.17 68.306 0.21 7.22 29.74 7.76
8/20/2021 2:45:00 AM 20.15 68.27 0.211 7.22 26.59 7.77
8/20/2021 3:00:00 AM 20.13 68.234 0.211 7.23 29.12 7.77
8/20/2021 3:15:00 AM 20.11 68.198 0.212 7.22 27.47 7.78
8/20/2021 3:30:00 AM 20.08 68.144 0.213 7.23 29.8 7.78
8/20/2021 3:45:00 AM 20.06 68.108 0.213 7.22 34.43 7.77
8/20/2021 4:00:00 AM 20.03 68.054 0.214 7.23 29.94 7.77
8/20/2021 4:15:00 AM 20.01 68.018 0.213 7.23 25.37 7.78
8/20/2021 4:30:00 AM 19.98 67.964 0.215 7.22 73.53 7.75
8/20/2021 4:45:00 AM 19.96 67.92799 0.216 7.23 46.17 7.76
8/20/2021 5:00:00 AM 19.96 67.92799 0.217 7.23 22.19 7.78
8/20/2021 5:15:00 AM 19.95 67.91 0.218 7.23 26.92 7.75
8/20/2021 5:30:00 AM 19.92 67.856 0.219 7.24 22.06 7.75
8/20/2021 5:45:00 AM 19.91 67.838 0.219 7.24 24.21 7.74
8/20/2021 6:00:00 AM 19.89 67.802 0.22 7.23 29.93 7.75
8/20/2021 6:15:00 AM 19.86 67.748 0.22 7.24 34.08 7.72
8/20/2021 6:30:00 AM 19.85 67.73 0.221 7.24 29.1 7.74
8/20/2021 6:45:00 AM 19.84 67.712 0.222 7.24 23.11 7.75
8/20/2021 7:00:00 AM 19.83 67.694 0.222 7.24 24.69 7.76
8/20/2021 7:15:00 AM 19.83 67.694 0.223 7.24 27.07 7.78
8/20/2021 7:30:00 AM 19.82 67.676 0.223 7.24 23.75 7.79
8/20/2021 7:45:00 AM 19.82 67.676 0.223 7.25 20.01 7.82
8/20/2021 8:00:00 AM 19.83 67.694 0.223 7.25 22.1 7.83
8/20/2021 8:15:00 AM 19.83 67.694 0.224 7.24 20.51 7.87
8/20/2021 8:30:00 AM 19.83 67.694 0.224 7.25 21.36 7.86
8/20/2021 8:45:00 AM 19.84 67.712 0.224 7.25 19.08 7.89
8/20/2021 9:00:00 AM 19.85 67.73 0.224 7.26 20.49 7.95
8/20/2021 9:15:00 AM 19.92 67.856 0.224 7.27 19.29 8.01
8/20/2021 9:30:00 AM 20.03 68.054 0.224 7.29 96.89 8.08
8/20/2021 9:45:00 AM 20.12 68.216 0.224 7.3 20.2 8.18
8/20/2021 10:00:00 AM 20.18 68.324 0.225 7.28 20.01 8.25
8/20/2021 10:15:00 AM 20.35 68.63 0.225 7.28 19.9 8.32
8/20/2021 10:30:00 AM 20.43 68.774 0.225 7.31 19.64 8.38
8/20/2021 10:45:00 AM 20.62 69.116 0.226 7.32 18.97 8.45
8/20/2021 11:00:00 AM 20.91 69.638 0.226 7.34 17.3 8.52
8/20/2021 11:15:00 AM 21.04 69.872 0.226 7.35 18.94 8.5
8/20/2021 11:30:00 AM 21.22 70.196 0.226 7.24 19.88 8.51
8/20/2021 11:45:00 AM 21.26 70.268 0.227 7.37 17.97 8.5
8/20/2021 12:00:00 PM 21.44 70.592 0.227 7.36 18.43 8.55
8/20/2021 12:15:00 PM 21.67 71.006 0.227 7.36 18.18 8.58
8/20/2021 12:30:00 PM 21.85 71.33 0.228 7.38 18.53 8.65
8/20/2021 12:45:00 PM 22.16 71.888 0.228 7.4 17.99 8.71
8/20/2021 1:00:00 PM 22.44 72.392 0.228 7.4 19.14 8.73
8/20/2021 1:15:00 PM 22.57 72.626 0.229 7.42 14.81 8.72
8/20/2021 1:30:00 PM 22.94 73.292 0.229 7.42 16.08 8.74
8/20/2021 1:45:00 PM 23.28 73.904 0.229 7.41 19.21 8.8
8/20/2021 2:00:00 PM 23.11 73.598 0.23 7.4 15.84 8.69
8/20/2021 2:15:00 PM 23.36 74.048 0.23 7.43 17.91 8.72
8/20/2021 2:30:00 PM 23.6 74.48 0.23 7.44 18.18 8.76
8/20/2021 2:45:00 PM 23.72 74.696 0.23 7.45 17.41 8.78
8/20/2021 3:00:00 PM 23.86 74.948 0.23 7.46 16.23 8.8
8/20/2021 3:15:00 PM 24.04 75.272 0.231 7.47 17.15 8.78
8/20/2021 3:30:00 PM 24.15 75.47 0.231 7.45 16.8 8.73
8/20/2021 3:45:00 PM 24.24 75.632 0.231 7.47 17.05 8.77
8/20/2021 4:00:00 PM 24.36 75.848 0.232 7.46 17.4 8.75
8/20/2021 4:15:00 PM 24.48 76.064 0.232 7.47 16.86 8.76
8/20/2021 4:30:00 PM 24.52 76.136 0.232 7.49 17.06 8.71
8/20/2021 4:45:00 PM 24.52 76.136 0.232 7.49 16.35 8.7
8/20/2021 5:00:00 PM 24.5 76.1 0.233 7.47 16 8.64
8/20/2021 5:15:00 PM 24.41 75.938 0.233 7.47 16.93 8.61
8/20/2021 5:30:00 PM 24.23 75.614 0.233 7.47 14.82 8.53
8/20/2021 5:45:00 PM 24.02 75.236 0.233 7.46 15.6 8.48
8/20/2021 6:00:00 PM 23.88 74.984 0.234 7.45 15.42 8.42
8/20/2021 6:15:00 PM 23.69 74.642 0.234 7.43 15.53 8.31
8/20/2021 6:30:00 PM 23.51 74.318 0.235 7.42 12.31 8.28
8/20/2021 6:45:00 PM 23.38 74.084 0.235 7.41 15.02 8.23
8/20/2021 7:00:00 PM 23.27 73.886 0.235 7.4 16.93 8.18
8/20/2021 7:15:00 PM 23.13 73.634 0.235 7.4 16.53 8.12
8/20/2021 7:30:00 PM 22.98 73.364 0.236 7.39 14.15 8.06
8/20/2021 7:45:00 PM 22.84 73.112 0.237 7.36 17.38 8
8/20/2021 8:00:00 PM 22.7 72.86 0.237 7.37 15.25 7.91
8/20/2021 8:15:00 PM 22.57 72.626 0.237 7.31 18.72 7.83
8/20/2021 8:30:00 PM 22.45 72.41 0.238 7.33 14.42 7.77
8/20/2021 8:45:00 PM 22.33 72.194 0.238 7.33 17.68 7.74
8/20/2021 9:00:00 PM 22.22 71.996 0.238 7.32 16.29 7.7
8/20/2021 9:15:00 PM 22.1 71.78 0.238 7.31 13.62 7.66
8/20/2021 9:30:00 PM 22 71.6 0.239 7.3 18.77 7.57
8/20/2021 9:45:00 PM 21.9 71.42 0.239 7.29 13.21 7.6
8/20/2021 10:00:00 PM 21.8 71.24 0.239 7.27 17.29 7.58
8/20/2021 10:15:00 PM 21.71 71.078 0.239 7.28 18.94 7.55
8/20/2021 10:30:00 PM 21.62 70.916 0.239 7.27 17.59 7.55
8/20/2021 10:45:00 PM 21.52 70.736 0.24 7.28 14.36 7.54
8/20/2021 11:00:00 PM 21.43 70.574 0.241 7.26 17.34 7.54
8/20/2021 11:15:00 PM 21.36 70.448 0.241 7.27 19.33 7.55
8/20/2021 11:30:00 PM 21.29 70.32201 0.241 7.26 17.21 7.56
8/20/2021 11:45:00 PM 21.23 70.214 0.242 7.26 19.09 7.52
8/21/2021 12:00:00 AM 21.18 70.124 0.242 7.26 17.15 7.51
8/21/2021 12:15:00 AM 21.14 70.052 0.242 7.26 19.32 7.53
8/21/2021 12:30:00 AM 21.1 69.98 0.242 7.25 16 7.54
8/21/2021 12:45:00 AM 21.06 69.908 0.243 7.25 18.3 7.54
8/21/2021 1:00:00 AM 21.02 69.836 0.243 7.26 17.73 7.52
8/21/2021 1:15:00 AM 20.96 69.728 0.243 7.25 16.84 7.5
8/21/2021 1:30:00 AM 20.92 69.656 0.243 7.25 17.67 7.54
8/21/2021 1:45:00 AM 20.88 69.584 0.244 7.23 16.23 7.53
8/21/2021 2:00:00 AM 20.85 69.53 0.244 7.22 17.72 7.5
8/21/2021 2:15:00 AM 20.8 69.44 0.244 7.23 19.27 7.52
8/21/2021 2:30:00 AM 20.75 69.35 0.244 7.24 16.05 7.53
8/21/2021 2:45:00 AM 20.71 69.278 0.245 7.23 17.63 7.52
8/21/2021 3:00:00 AM 20.67 69.206 0.245 7.23 17.79 7.52
8/21/2021 3:15:00 AM 20.64 69.152 0.245 7.23 16.7 7.52
8/21/2021 3:30:00 AM 20.6 69.08 0.246 7.23 16.84 7.51
8/21/2021 3:45:00 AM 20.56 69.008 0.246 7.22 18.12 7.53
8/21/2021 4:00:00 AM 20.53 68.954 0.246 7.23 18.78 7.45
8/21/2021 4:15:00 AM 20.51 68.918 0.246 7.21 13.56 7.53
8/21/2021 4:30:00 AM 20.49 68.882 0.247 7.23 17.96 7.47
8/21/2021 4:45:00 AM 20.47 68.846 0.247 7.23 18.22 7.54
8/21/2021 5:00:00 AM 20.46 68.828 0.247 7.22 13.53 7.48
8/21/2021 5:15:00 AM 20.44 68.792 0.248 7.21 18.03 7.54
8/21/2021 5:30:00 AM 20.42 68.756 0.248 7.23 13.61 7.52
8/21/2021 5:45:00 AM 20.41 68.738 0.244 7.23 18.76 7.52
8/21/2021 6:00:00 AM 20.39 68.702 0.248 7.23 17.69 7.55
8/21/2021 6:15:00 AM 20.37 68.666 0.249 7.21 17.74 7.55
8/21/2021 6:30:00 AM 20.36 68.648 0.249 7.23 17.73 7.52
8/21/2021 6:45:00 AM 20.35 68.63 0.249 7.21 18.71 7.54
8/21/2021 7:00:00 AM 20.33 68.594 0.25 7.22 15.49 7.57
8/21/2021 7:15:00 AM 20.32 68.576 0.25 7.23 16.16 7.62
8/21/2021 7:30:00 AM 20.34 68.612 0.251 7.23 17.78 7.69
8/21/2021 7:45:00 AM 20.36 68.648 0.251 7.25 13.9 7.76
8/21/2021 8:00:00 AM 20.41 68.738 0.251 7.24 16.19 7.84
8/21/2021 8:15:00 AM 20.44 68.792 0.251 7.26 14.65 7.91
8/21/2021 8:30:00 AM 20.51 68.918 0.251 7.26 14.29 7.97
8/21/2021 8:45:00 AM 20.59 69.062 0.252 7.28 12.85 8.1
8/21/2021 9:00:00 AM 20.7 69.26 0.252 7.23 14.57 8.17
8/21/2021 9:15:00 AM 20.82 69.476 0.252 7.23 11.74 8.21
8/21/2021 9:30:00 AM 20.96 69.728 0.252 7.31 13.82 8.34
8/21/2021 9:45:00 AM 21.13 70.034 0.253 7.3 12.21 8.4
8/21/2021 10:00:00 AM 21.31 70.358 0.253 7.34 12.74 8.45
8/21/2021 10:15:00 AM 21.5 70.7 0.254 7.34 14.47 8.47
8/21/2021 10:30:00 AM 21.73 71.114 0.254 7.36 12.73 8.66
8/21/2021 10:45:00 AM 21.95 71.51 0.254 7.38 12.5 8.71
8/21/2021 11:00:00 AM 22.27 72.086 0.254 7.38 11.07 8.78
8/21/2021 11:15:00 AM 22.47 72.446 0.255 7.41 16.24 8.83
8/21/2021 11:30:00 AM 22.72 72.896 0.255 7.42 14.31 8.82
8/21/2021 11:45:00 AM 23.01 73.418 0.255 7.43 17.25 8.91
8/21/2021 12:00:00 PM 23.32 73.976 0.256 7.42 12.58 8.91
8/21/2021 12:15:00 PM 23.45 74.21 0.256 7.44 12.66 8.96
8/21/2021 12:30:00 PM 23.8 74.84 0.256 7.47 11.2 9.05
8/21/2021 12:45:00 PM 23.95 75.11 0.256 7.47 12.58 8.98
8/21/2021 1:00:00 PM 23.7 74.66 0.256 7.46 12.5 8.79
8/21/2021 1:15:00 PM 23.5 74.3 0.256 7.43 17.73 8.65
8/21/2021 1:30:00 PM 23.37 74.066 0.257 7.44 10.93 8.65
8/21/2021 1:45:00 PM 23.47 74.246 0.257 7.47 10.67 8.76
8/21/2021 2:00:00 PM 23.4 74.12 0.257 7.48 11.07 8.75
8/21/2021 2:15:00 PM 23.54 74.372 0.257 7.48 11.69 8.89
8/21/2021 2:30:00 PM 23.58 74.444 0.258 7.48 14.21 8.94
8/21/2021 2:45:00 PM 23.42 74.156 0.258 7.49 12.62 8.85
8/21/2021 3:00:00 PM 23.32 73.976 0.258 7.46 12.17 8.72
8/21/2021 3:15:00 PM 23.38 74.084 0.258 7.48 11.17 8.74
8/21/2021 3:30:00 PM 23.34 74.012 0.258 7.47 12.06 8.72
8/21/2021 3:45:00 PM 23.23 73.814 0.259 7.47 10.53 8.67
8/21/2021 4:00:00 PM 23.09 73.562 0.259 7.44 10.12 8.59
8/21/2021 4:15:00 PM 22.99 73.382 0.259 7.45 10.63 8.59
8/21/2021 4:30:00 PM 22.9 73.22 0.259 7.45 11.79 8.53
8/21/2021 4:45:00 PM 22.78 73.004 0.26 7.45 10.5 8.45
8/21/2021 5:00:00 PM 22.72 72.896 0.26 7.45 10.63 8.57
8/21/2021 5:15:00 PM 22.82 73.076 0.26 7.46 10.28 8.64
8/21/2021 5:30:00 PM 22.81 73.058 0.26 7.45 11.29 8.63
8/21/2021 5:45:00 PM 22.72 72.896 0.26 7.43 12.16 8.58
8/21/2021 6:00:00 PM 22.66 72.788 0.261 7.44 10.85 8.56
8/21/2021 6:15:00 PM 22.62 72.716 0.262 7.44 10.41 8.5
8/21/2021 6:30:00 PM 22.59 72.662 0.262 7.43 12.54 8.45
8/21/2021 6:45:00 PM 22.53 72.554 0.261 7.42 18.03 8.39
8/21/2021 7:00:00 PM 22.48 72.464 0.261 7.42 11.25 8.37
8/21/2021 7:15:00 PM 22.39 72.302 0.261 7.39 11.18 8.28
8/21/2021 7:30:00 PM 22.3 72.14 0.262 7.39 12.29 8.19
8/21/2021 7:45:00 PM 22.2 71.96 0.262 7.36 18.91 8.1
8/21/2021 8:00:00 PM 22.12 71.816 0.262 7.37 13.05 7.94
8/21/2021 8:15:00 PM 22.03 71.654 0.263 7.34 11.56 7.87
8/21/2021 8:30:00 PM 21.91 71.438 0.263 7.34 14.46 7.81
8/21/2021 8:45:00 PM 21.82 71.276 0.263 7.33 16.04 7.73
8/21/2021 9:00:00 PM 21.71 71.078 0.264 7.33 17.78 7.73
8/21/2021 9:15:00 PM 21.39 70.502 0.282 7.26 15.89 7.77
8/21/2021 9:30:00 PM 20.74 69.332 0.315 7.36 14.73 7.9
8/21/2021 9:45:00 PM 20.53 68.954 0.319 7.37 18.09 7.89
8/21/2021 10:00:00 PM 20.53 68.954 0.316 7.35 14.19 7.9
8/21/2021 10:15:00 PM 20.55 68.99 0.312 7.34 29.49 7.83
8/21/2021 10:30:00 PM 20.56 69.008 0.31 7.35 19.96 7.83
8/21/2021 10:45:00 PM 20.54 68.972 0.308 7.34 18 7.79
8/21/2021 11:00:00 PM 20.52 68.936 0.307 7.34 15.86 7.74
8/21/2021 11:15:00 PM 20.49 68.882 0.305 7.33 14.22 7.77
8/21/2021 11:30:00 PM 20.45 68.81 0.303 7.33 15.07 7.74
8/21/2021 11:45:00 PM 20.41 68.738 0.301 7.33 12.65 7.7
8/22/2021 12:00:00 AM 20.37 68.666 0.299 7.32 14.15 7.69
8/22/2021 12:15:00 AM 20.33 68.594 0.297 7.31 13.88 7.67
8/22/2021 12:30:00 AM 20.3 68.54 0.296 7.31 13.43 7.66
8/22/2021 12:45:00 AM 20.26 68.468 0.294 7.3 14.01 7.66
8/22/2021 1:00:00 AM 20.21 68.378 0.293 7.3 12.9 7.62
8/22/2021 1:15:00 AM 20.16 68.288 0.291 7.3 14.87 7.63
8/22/2021 1:30:00 AM 20.12 68.216 0.29 7.29 14.95 7.58
8/22/2021 1:45:00 AM 20.08 68.144 0.289 7.29 13.11 7.65
8/22/2021 2:00:00 AM 20.04 68.07201 0.287 7.29 12.32 7.66
8/22/2021 2:15:00 AM 20 68 0.285 7.29 52.2 7.65
8/22/2021 2:30:00 AM 19.96 67.92799 0.284 7.29 13.32 7.65
8/22/2021 2:45:00 AM 19.93 67.874 0.282 7.28 14.52 7.65
8/22/2021 3:00:00 AM 19.89 67.802 0.28 7.28 14.41 7.66
8/22/2021 3:15:00 AM 19.85 67.73 0.279 7.28 13.33 7.67
8/22/2021 3:30:00 AM 19.82 67.676 0.277 7.28 13.81 7.67
8/22/2021 3:45:00 AM 19.8 67.64 0.275 7.28 12.75 7.66
8/22/2021 4:00:00 AM 19.77 67.586 0.273 7.26 13.37 7.68
8/22/2021 4:15:00 AM 19.74 67.532 0.272 7.26 11.78 7.66
8/22/2021 4:30:00 AM 19.7 67.46 0.271 7.26 13.52 7.67
8/22/2021 4:45:00 AM 19.67 67.406 0.27 7.26 13.56 7.68
8/22/2021 5:00:00 AM 19.64 67.352 0.268 7.26 13.27 7.69
8/22/2021 5:15:00 AM 19.6 67.28 0.267 7.26 13.98 7.68
8/22/2021 5:30:00 AM 19.56 67.208 0.266 7.26 14.13 7.5
8/22/2021 5:45:00 AM 19.53 67.154 0.266 7.26 13.22 7.69
8/22/2021 6:00:00 AM 19.49 67.082 0.265 7.27 12.74 7.71
8/22/2021 6:15:00 AM 19.45 67.01 0.265 7.27 12.57 7.67
8/22/2021 6:30:00 AM 19.41 66.938 0.264 7.27 11.66 7.72
8/22/2021 6:45:00 AM 19.38 66.884 0.264 7.27 11.03 7.74
8/22/2021 7:00:00 AM 19.36 66.848 0.264 7.27 11.97 7.74
8/22/2021 7:15:00 AM 19.35 66.83 0.264 7.28 11.96 7.83
8/22/2021 7:30:00 AM 19.34 66.812 0.264 7.28 13.78 7.86
8/22/2021 7:45:00 AM 19.34 66.812 0.264 7.29 10.46 7.93
8/22/2021 8:00:00 AM 19.35 66.83 0.264 7.29 10.97 7.97
8/22/2021 8:15:00 AM 19.38 66.884 0.264 7.3 9.91 8.03
8/22/2021 8:30:00 AM 19.44 66.992 0.263 7.31 10.02 8.2
8/22/2021 8:45:00 AM 19.49 67.082 0.264 7.32 10.57 8.29
8/22/2021 9:00:00 AM 19.56 67.208 0.264 7.33 9.68 8.34
8/22/2021 9:15:00 AM 19.67 67.406 0.265 7.35 10.01 8.48
8/22/2021 9:30:00 AM 19.76 67.568 0.265 7.36 10.11 8.58
8/22/2021 9:45:00 AM 19.83 67.694 0.265 7.37 9.28 8.68
8/22/2021 10:00:00 AM 20.08 68.144 0.265 7.38 8.78 8.81
8/22/2021 10:15:00 AM 20.41 68.738 0.265 7.41 9.07 8.94
8/22/2021 10:30:00 AM 20.52 68.936 0.266 7.42 9.29 9.01
8/22/2021 10:45:00 AM 20.75 69.35 0.266 7.44 9.06 9.13
8/22/2021 11:00:00 AM 20.93 69.674 0.267 7.45 9 9.21
8/22/2021 11:15:00 AM 21.13 70.034 0.267 7.47 8.87 9.25
8/22/2021 11:30:00 AM 21.55 70.79 0.268 7.49 9.87 9.36
8/22/2021 11:45:00 AM 21.67 71.006 0.268 7.5 8.68 9.43
8/22/2021 12:00:00 PM 21.74 71.132 0.268 7.51 8.93 9.44
8/22/2021 12:15:00 PM 22.02 71.636 0.268 7.53 8.2 9.55
8/22/2021 12:30:00 PM 22.14 71.852 0.269 7.54 8.77 9.58
8/22/2021 12:45:00 PM 22.26 72.068 0.269 7.55 8.73 9.59
8/22/2021 1:00:00 PM 22.62 72.716 0.268 7.57 328.39 9.69
8/22/2021 1:15:00 PM 22.95 73.31 0.269 7.58 8.71 9.76
8/22/2021 1:30:00 PM 23.18 73.724 0.269 7.6 8.45 9.77
8/22/2021 1:45:00 PM 23.3 73.94 0.245 7.61 8.5 9.76
8/22/2021 2:00:00 PM 23.3 73.94 0.27 7.62 8.56 9.71
8/22/2021 2:15:00 PM 23.34 74.012 0.27 7.63 8.46 9.68
8/22/2021 2:30:00 PM 23.33 73.994 0.271 7.62 7.81 9.61
8/22/2021 2:45:00 PM 23.31 73.958 0.271 7.62 7.95 9.5
8/22/2021 3:00:00 PM 23.3 73.94 0.27 7.62 7.72 9.51
8/22/2021 3:15:00 PM 23.32 73.976 0.271 7.62 7.95 9.51
8/22/2021 3:30:00 PM 23.37 74.066 0.271 7.63 8.01 9.54
8/22/2021 3:45:00 PM 23.37 74.066 0.271 7.63 7.92 9.51
8/22/2021 4:00:00 PM 23.3 73.94 0.271 7.63 8.11 9.49
8/22/2021 4:15:00 PM 23.22 73.796 0.272 7.62 7.97 9.41
8/22/2021 4:30:00 PM 23.18 73.724 0.272 7.63 7.86 9.46
8/22/2021 4:45:00 PM 23.14 73.652 0.272 7.62 8.88 9.41
8/22/2021 5:00:00 PM 23.12 73.616 0.272 7.62 8.21 9.4
8/22/2021 5:15:00 PM 23.1 73.58 0.273 7.62 8.11 9.37
8/22/2021 5:30:00 PM 23 73.4 0.273 7.6 7.72 9.21
8/22/2021 5:45:00 PM 22.9 73.22 0.273 7.58 7.73 9.09
8/22/2021 6:00:00 PM 22.81 73.058 0.273 7.57 7.72 8.99
8/22/2021 6:15:00 PM 22.73 72.914 0.274 7.55 7.76 8.91
8/22/2021 6:30:00 PM 22.61 72.698 0.274 7.54 7.78 8.83
8/22/2021 6:45:00 PM 22.48 72.464 0.274 7.51 8 8.65
8/22/2021 7:00:00 PM 22.35 72.23 0.275 7.49 7.48 8.53
8/22/2021 7:15:00 PM 22.25 72.05 0.275 7.48 7.93 8.41
8/22/2021 7:30:00 PM 22.15 71.87 0.275 7.46 7.93 8.37
8/22/2021 7:45:00 PM 22.04 71.672 0.276 7.44 8 8.2
8/22/2021 8:00:00 PM 21.93 71.474 0.276 7.42 7.85 8.09
8/22/2021 8:15:00 PM 21.82 71.276 0.276 7.41 8.11 8
8/22/2021 8:30:00 PM 21.71 71.078 0.276 7.39 8.97 7.91
8/22/2021 8:45:00 PM 21.62 70.916 0.276 7.34 9 7.88
8/22/2021 9:00:00 PM 21.53 70.754 0.277 7.35 8.28 7.83
8/22/2021 9:15:00 PM 21.45 70.61 0.277 7.33 8.86 7.75
8/22/2021 9:30:00 PM 21.37 70.466 0.277 7.35 9.8 7.73
8/22/2021 9:45:00 PM 21.3 70.34 0.277 7.34 10.77 7.66
8/22/2021 10:00:00 PM 21.21 70.17799 0.277 7.33 11.24 7.65
8/22/2021 10:15:00 PM 21.14 70.052 0.278 7.33 10.72 7.61
8/22/2021 10:30:00 PM 21.08 69.944 0.277 7.32 10.17 7.56
8/22/2021 10:45:00 PM 21.01 69.818 0.278 7.31 9.8 7.57
8/22/2021 11:00:00 PM 20.94 69.692 0.277 7.31 13.5 7.52
8/22/2021 11:15:00 PM 20.86 69.548 0.279 7.31 9.71 7.58
8/22/2021 11:30:00 PM 20.78 69.404 0.278 7.3 9.83 7.57
8/22/2021 11:45:00 PM 20.71 69.278 0.278 7.31 12.03 7.56
8/23/2021 12:00:00 AM 20.65 69.17 0.279 7.3 10.76 7.56
8/23/2021 12:15:00 AM 20.59 69.062 0.279 7.3 10.13 7.52
8/23/2021 12:30:00 AM 20.54 68.972 0.28 7.29 13.31 7.5
8/23/2021 12:45:00 AM 20.5 68.9 0.279 7.29 11 7.55
8/23/2021 1:00:00 AM 20.46 68.828 0.28 7.29 12.23 7.51
8/23/2021 1:15:00 AM 20.42 68.756 0.279 7.29 10.13 7.55
8/23/2021 1:30:00 AM 20.38 68.684 0.28 7.29 10.19 7.52
8/23/2021 1:45:00 AM 20.35 68.63 0.28 7.29 10.41 7.53
8/23/2021 2:00:00 AM 20.31 68.558 0.28 7.29 11.52 7.54
8/23/2021 2:15:00 AM 20.28 68.504 0.28 7.28 10.24 7.54
8/23/2021 2:30:00 AM 20.25 68.45 0.28 7.28 11.18 7.56
8/23/2021 2:45:00 AM 20.2 68.36 0.279 7.29 9.76 7.55
8/23/2021 3:00:00 AM 20.15 68.27 0.28 7.28 10.12 7.55
8/23/2021 3:15:00 AM 20.1 68.18 0.281 7.28 9.64 7.57
8/23/2021 3:30:00 AM 20.06 68.108 0.28 7.28 10.81 7.56
8/23/2021 3:45:00 AM 20.02 68.036 0.281 7.28 10.18 7.57
8/23/2021 4:00:00 AM 19.97 67.946 0.28 7.28 10.16 7.56
8/23/2021 4:15:00 AM 19.95 67.91 0.281 7.28 9.9 7.56
8/23/2021 4:30:00 AM 19.93 67.874 0.28 7.27 9.85 7.54
8/23/2021 4:45:00 AM 19.91 67.838 0.281 7.27 10.55 7.51
8/23/2021 5:00:00 AM 19.9 67.82 0.28 7.27 10.81 7.55
8/23/2021 5:15:00 AM 19.9 67.82 0.282 7.27 9.51 7.56
8/23/2021 5:30:00 AM 19.9 67.82 0.281 7.27 10.1 7.56
8/23/2021 5:45:00 AM 19.9 67.82 0.282 7.27 8.99 7.56
8/23/2021 6:00:00 AM 19.9 67.82 0.282 7.27 9.79 7.55
8/23/2021 6:15:00 AM 19.9 67.82 0.282 7.27 9.87 7.53
8/23/2021 6:30:00 AM 19.89 67.802 0.282 7.27 130.02 7.54
8/23/2021 6:45:00 AM 19.88 67.784 0.282 7.27 9.55 7.58
8/23/2021 7:00:00 AM 19.88 67.784 0.282 7.27 16.7 7.61
8/23/2021 7:15:00 AM 19.89 67.802 0.283 7.28 8.19 7.61
8/23/2021 7:30:00 AM 19.9 67.82 0.282 7.28 46.84 7.63
8/23/2021 7:45:00 AM 19.92 67.856 0.279 7.28 8.62 7.63
8/23/2021 8:00:00 AM 19.93 67.874 0.282 7.29 9.15 7.7
8/23/2021 8:15:00 AM 19.97 67.946 0.283 7.29 7.88 7.8
8/23/2021 8:30:00 AM 20.02 68.036 0.283 7.3 8.19 7.89
8/23/2021 8:45:00 AM 20.21 68.378 0.283 7.32 11.04 8.17
8/23/2021 9:00:00 AM 20.34 68.612 0.283 7.34 7.83 8.35
8/23/2021 9:15:00 AM 20.38 68.684 0.284 7.35 7.97 8.36
8/23/2021 9:30:00 AM 20.43 68.774 0.284 7.36 15.76 8.4
8/23/2021 9:45:00 AM 20.52 68.936 0.284 7.37 7.86 8.58
8/23/2021 10:00:00 AM 20.78 69.404 0.284 7.39 7.56 8.83
8/23/2021 10:15:00 AM 20.97 69.746 0.284 7.41 7.54 8.98
8/23/2021 10:30:00 AM 21.29 70.32201 0.284 7.44 7.97 9.21
8/23/2021 10:45:00 AM 21.56 70.808 0.284 7.45 7.67 9.34
8/23/2021 11:00:00 AM 21.87 71.366 0.284 7.48 7.7 9.47
8/23/2021 11:15:00 AM 22.18 71.924 0.284 7.5 7.8 9.6
8/23/2021 11:30:00 AM 22.5 72.5 0.284 7.53 7.81 9.73
8/23/2021 11:45:00 AM 22.67 72.806 0.284 7.54 7.57 9.74
8/23/2021 12:00:00 PM 22.93 73.274 0.284 7.56 7.74 9.83
8/23/2021 12:15:00 PM 23.27 73.886 0.284 7.58 7.91 9.89
8/23/2021 12:30:00 PM 23.51 74.318 0.285 7.6 7.7 9.92
8/23/2021 12:45:00 PM 23.8 74.84 0.285 7.61 8.12 10.01
8/23/2021 1:00:00 PM 24.16 75.488 0.285 7.63 7.48 10.09
8/23/2021 1:15:00 PM 24.49 76.082 0.283 7.65 8.04 10.15
8/23/2021 1:30:00 PM 24.81 76.658 0.285 7.68 7.8 10.24
8/23/2021 1:45:00 PM 25 77 0.285 7.7 7.73 10.18
8/23/2021 2:00:00 PM 25.2 77.36 0.285 7.71 8.01 10.16
8/23/2021 2:15:00 PM 25.44 77.792 0.285 7.72 7.27 10.18
8/23/2021 2:30:00 PM 25.68 78.224 0.285 7.73 7.22 10.12
8/23/2021 2:45:00 PM 25.92 78.656 0.285 7.73 7.36 10.18
8/23/2021 3:00:00 PM 26.11 78.998 0.286 7.75 7.56 10.22
8/23/2021 3:15:00 PM 26.29 79.32201 0.286 7.75 7.23 10.17
8/23/2021 3:30:00 PM 26.25 79.25 0.286 7.76 7.51 9.99
8/23/2021 3:45:00 PM 26.17 79.106 0.286 7.74 7.05 9.82
8/23/2021 4:00:00 PM 26.01 78.818 0.286 7.71 7.2 9.45
8/23/2021 4:15:00 PM 25.95 78.71 0.287 7.7 6.97 9.49
8/23/2021 4:30:00 PM 26.03 78.854 0.287 7.71 7.19 9.51
8/23/2021 4:45:00 PM 26.1 78.98 0.287 7.71 7.42 9.56
8/23/2021 5:00:00 PM 25.88 78.584 0.287 7.69 7.42 9.3
8/23/2021 5:15:00 PM 25.67 78.206 0.288 7.66 7.41 9.04
8/23/2021 5:30:00 PM 25.43 77.774 0.288 7.62 7.35 8.72
8/23/2021 5:45:00 PM 25.27 77.486 0.288 7.6 7.36 8.6
8/23/2021 6:00:00 PM 25.19 77.342 0.289 7.59 7.33 8.69
8/23/2021 6:15:00 PM 25.13 77.234 0.289 7.59 7.51 8.77
8/23/2021 6:30:00 PM 24.93 76.874 0.289 7.58 7.31 8.69
8/23/2021 6:45:00 PM 24.71 76.478 0.289 7.56 7.97 8.48
8/23/2021 7:00:00 PM 24.49 76.082 0.289 7.53 7.99 8.36
8/23/2021 7:15:00 PM 24.28 75.704 0.289 7.51 7.85 8.2
8/23/2021 7:30:00 PM 24.09 75.362 0.29 7.49 7.46 8.14
8/23/2021 7:45:00 PM 23.89 75.002 0.291 7.47 8.25 7.99
8/23/2021 8:00:00 PM 23.68 74.624 0.291 7.45 7.84 7.84
8/23/2021 8:15:00 PM 23.48 74.264 0.291 7.43 8.01 7.72
8/23/2021 8:30:00 PM 23.31 73.958 0.29 7.41 8.17 7.62
8/23/2021 8:45:00 PM 23.17 73.706 0.291 7.39 9.61 7.52
8/23/2021 9:00:00 PM 23.03 73.454 0.29 7.37 8.48 7.47
8/23/2021 9:15:00 PM 22.9 73.22 0.291 7.37 8.87 7.46
8/23/2021 9:30:00 PM 22.78 73.004 0.291 7.35 8.93 7.41
8/23/2021 9:45:00 PM 22.67 72.806 0.291 7.35 10.35 7.36
8/23/2021 10:00:00 PM 22.55 72.59 0.291 7.33 9.46 7.28
8/23/2021 10:15:00 PM 22.44 72.392 0.291 7.33 9.17 7.27
8/23/2021 10:30:00 PM 22.33 72.194 0.292 7.32 9 7.3
8/23/2021 10:45:00 PM 22.24 72.032 0.292 7.31 8.06 7.2
8/23/2021 11:00:00 PM 22.15 71.87 0.293 7.31 9.02 7.26
8/23/2021 11:15:00 PM 22.07 71.726 0.293 7.3 9.09 7.2
8/23/2021 11:30:00 PM 21.98 71.564 0.293 7.3 8.62 7.22
8/23/2021 11:45:00 PM 21.89 71.402 0.294 7.3 9.09 7.23
8/24/2021 12:00:00 AM 21.8 71.24 0.294 7.29 9.57 7.23
8/24/2021 12:15:00 AM 21.7 71.06 0.295 7.29 8.86 7.23
8/24/2021 12:30:00 AM 21.62 70.916 0.296 7.28 12 7.24
8/24/2021 12:45:00 AM 21.53 70.754 0.296 7.28 9.28 7.26
8/24/2021 1:00:00 AM 21.45 70.61 0.296 7.27 9.65 7.23
8/24/2021 1:15:00 AM 21.37 70.466 0.296 7.27 8.68 7.24
8/24/2021 1:30:00 AM 21.3 70.34 0.296 7.27 9.66 7.23
8/24/2021 1:45:00 AM 21.22 70.196 0.296 7.27 9.52 7.3
8/24/2021 2:00:00 AM 21.14 70.052 0.295 7.26 10.82 7.24
8/24/2021 2:15:00 AM 21.05 69.89 0.295 7.26 8.98 7.29
8/24/2021 2:30:00 AM 20.96 69.728 0.294 7.26 9.31 7.28
8/24/2021 2:45:00 AM 20.86 69.548 0.294 7.26 9.64 7.32
8/24/2021 3:00:00 AM 20.74 69.332 0.296 7.26 9.64 7.34
8/24/2021 3:15:00 AM 20.63 69.134 0.297 7.26 12.4 7.32
8/24/2021 3:30:00 AM 20.53 68.954 0.298 7.27 13.35 7.35
8/24/2021 3:45:00 AM 20.43 68.774 0.298 7.27 14.41 7.41
8/24/2021 4:00:00 AM 20.35 68.63 0.297 7.27 13.01 7.42
8/24/2021 4:15:00 AM 20.27 68.486 0.297 7.27 9.58 7.43
8/24/2021 4:30:00 AM 20.21 68.378 0.296 7.27 9.75 7.4
8/24/2021 4:45:00 AM 20.14 68.252 0.296 7.26 9.28 7.43
8/24/2021 5:00:00 AM 20.09 68.162 0.295 7.25 10.4 7.41
8/24/2021 5:15:00 AM 20.03 68.054 0.294 7.26 9.52 7.41
8/24/2021 5:30:00 AM 19.97 67.946 0.293 7.25 15.21 7.42
8/24/2021 5:45:00 AM 19.92 67.856 0.292 7.25 9.23 7.47
8/24/2021 6:00:00 AM 19.87 67.766 0.292 7.26 9.43 7.42
8/24/2021 6:15:00 AM 19.82 67.676 0.291 7.26 9.66 7.44
8/24/2021 6:30:00 AM 19.77 67.586 0.29 7.26 9.69 7.46
8/24/2021 6:45:00 AM 19.72 67.496 0.29 7.26 8.6 7.48
8/24/2021 7:00:00 AM 19.68 67.424 0.289 7.26 8.37 7.54
8/24/2021 7:15:00 AM 19.66 67.388 0.289 7.27 9.52 7.47
8/24/2021 7:30:00 AM 19.66 67.388 0.288 7.27 8.51 7.67
8/24/2021 7:45:00 AM 19.67 67.406 0.288 7.28 9.25 7.8
8/24/2021 8:00:00 AM 19.72 67.496 0.288 7.29 8.26 7.94
8/24/2021 8:15:00 AM 19.76 67.568 0.288 7.31 8.17 8.06
8/24/2021 8:30:00 AM 19.84 67.712 0.287 7.32 8.13 8.22
8/24/2021 8:45:00 AM 19.96 67.92799 0.287 7.34 8.33 8.41
8/24/2021 9:00:00 AM 20.09 68.162 0.287 7.36 8.12 8.56
8/24/2021 9:15:00 AM 20.25 68.45 0.287 7.38 7.65 8.76
8/24/2021 9:30:00 AM 20.42 68.756 0.286 7.4 7.8 8.92
8/24/2021 9:45:00 AM 20.62 69.116 0.286 7.42 7.61 9.09
8/24/2021 10:00:00 AM 20.83 69.494 0.286 7.45 7.43 9.26
8/24/2021 10:15:00 AM 21.06 69.908 0.286 7.47 7.74 9.39
8/24/2021 10:30:00 AM 21.31 70.358 0.286 7.49 7.99 9.52
8/24/2021 10:45:00 AM 21.58 70.844 0.286 7.51 7.24 9.68
8/24/2021 11:00:00 AM 21.86 71.348 0.286 7.54 7.99 9.78
8/24/2021 11:15:00 AM 22.2 71.96 0.286 7.57 8 9.94
8/24/2021 11:30:00 AM 22.5 72.5 0.286 7.58 8.37 10.01
8/24/2021 11:45:00 AM 22.83 73.094 0.286 7.61 7.94 10.15
8/24/2021 12:00:00 PM 23.16 73.688 0.286 7.63 7.95 10.23
8/24/2021 12:15:00 PM 23.5 74.3 0.286 7.66 9.18 10.32
8/24/2021 12:30:00 PM 23.82 74.876 0.287 7.68 8.28 10.39
8/24/2021 12:45:00 PM 24.14 75.452 0.287 7.71 7.35 10.46
8/24/2021 1:00:00 PM 24.45 76.01 0.287 7.73 8.04 10.5
8/24/2021 1:15:00 PM 24.75 76.55 0.287 7.76 7.13 10.55
8/24/2021 1:30:00 PM 25.05 77.09 0.287 7.77 7.39 10.6
8/24/2021 1:45:00 PM 25.34 77.612 0.287 7.79 8.83 10.6
8/24/2021 2:00:00 PM 25.59 78.062 0.287 7.81 7.37 10.61
8/24/2021 2:15:00 PM 25.84 78.512 0.288 7.82 8.05 10.59
8/24/2021 2:30:00 PM 26.07 78.926 0.288 7.85 7.34 10.6
8/24/2021 2:45:00 PM 26.29 79.32201 0.288 7.85 7.92 10.58
8/24/2021 3:00:00 PM 26.46 79.628 0.289 7.87 7.27 10.53
8/24/2021 3:15:00 PM 26.61 79.898 0.289 7.88 7.77 10.5
8/24/2021 3:30:00 PM 26.74 80.132 0.29 7.89 7.16 10.49
8/24/2021 3:45:00 PM 26.83 80.294 0.29 7.89 7.06 10.41
8/24/2021 4:00:00 PM 26.9 80.42 0.285 7.89 7.57 10.37
8/24/2021 4:15:00 PM 26.94 80.492 0.29 7.88 7.48 10.28
8/24/2021 4:30:00 PM 26.91 80.438 0.286 7.87 7.62 10.04
8/24/2021 4:45:00 PM 26.86 80.348 0.291 7.85 7.6 10.01
8/24/2021 5:00:00 PM 26.81 80.258 0.291 7.84 10.14 9.88
8/24/2021 5:15:00 PM 26.74 80.132 0.291 7.82 8.16 9.79
8/24/2021 5:30:00 PM 26.63 79.934 0.292 7.8 9.11 9.63
8/24/2021 5:45:00 PM 26.48 79.664 0.292 7.78 7.71 9.52
8/24/2021 6:00:00 PM 26.32 79.376 0.292 7.75 8.06 9.33
8/24/2021 6:15:00 PM 26.1 78.98 0.293 7.72 8.31 9.17
8/24/2021 6:30:00 PM 25.89 78.602 0.293 7.7 7.74 8.98
8/24/2021 6:45:00 PM 25.61 78.098 0.293 7.66 7.54 8.82
8/24/2021 7:00:00 PM 25.35 77.63 0.294 7.63 7.59 8.58
8/24/2021 7:15:00 PM 25.04 77.07201 0.294 7.59 8.19 8.36
8/24/2021 7:30:00 PM 24.73 76.514 0.294 7.55 7.66 8.21
8/24/2021 7:45:00 PM 24.45 76.01 0.295 7.53 8.33 8.01
8/24/2021 8:00:00 PM 24.2 75.56 0.295 7.49 7.93 7.84
8/24/2021 8:15:00 PM 23.94 75.092 0.296 7.46 10.16 7.72
8/24/2021 8:30:00 PM 23.72 74.696 0.296 7.44 11.53 7.61
8/24/2021 8:45:00 PM 23.53 74.354 0.296 7.42 8.44 7.51
8/24/2021 9:00:00 PM 23.31 73.958 0.296 7.4 8.78 7.46
8/24/2021 9:15:00 PM 23.13 73.634 0.297 7.39 8.62 7.34
8/24/2021 9:30:00 PM 22.95 73.31 0.297 7.37 8.56 7.29
8/24/2021 9:45:00 PM 22.78 73.004 0.297 7.35 10.25 7.29
8/24/2021 10:00:00 PM 22.63 72.734 0.297 7.35 8.85 7.18
8/24/2021 10:15:00 PM 22.48 72.464 0.297 7.34 9.99 7.24
8/24/2021 10:30:00 PM 22.35 72.23 0.298 7.33 9.5 7.19
8/24/2021 10:45:00 PM 22.22 71.996 0.297 7.32 10.44 7.19
8/24/2021 11:00:00 PM 22.11 71.798 0.298 7.31 9.61 7.17
8/24/2021 11:15:00 PM 22.01 71.618 0.298 7.3 9.15 7.09
8/24/2021 11:30:00 PM 21.9 71.42 0.297 7.3 8.6 7.14
8/24/2021 11:45:00 PM 21.81 71.258 0.298 7.29 9.61 7.14
8/25/2021 12:00:00 AM 21.72 71.096 0.298 7.28 9.06 7.11
8/25/2021 12:15:00 AM 21.64 70.952 0.298 7.28 11.2 7.12
8/25/2021 12:30:00 AM 21.56 70.808 0.297 7.27 14.78 7.11
8/25/2021 12:45:00 AM 21.48 70.664 0.297 7.27 9.18 7.11
8/25/2021 1:00:00 AM 21.4 70.52 0.298 7.26 8.66 7.11
8/25/2021 1:15:00 AM 21.32 70.376 0.298 7.26 45.63 7.13
8/25/2021 1:30:00 AM 21.23 70.214 0.299 7.26 10.37 7.14
8/25/2021 1:45:00 AM 21.15 70.07 0.299 7.26 8.67 7.12
8/25/2021 2:00:00 AM 21.06 69.908 0.299 7.26 10.29 7.13
8/25/2021 2:15:00 AM 20.97 69.746 0.298 7.26 10.49 7.19
8/25/2021 2:30:00 AM 20.89 69.602 0.299 7.26 9.13 7.19
8/25/2021 2:45:00 AM 20.8 69.44 0.299 7.25 8.3 7.13
8/25/2021 3:00:00 AM 20.7 69.26 0.299 7.25 8.67 7.13
8/25/2021 3:15:00 AM 20.6 69.08 0.299 7.25 10.3 7.22
8/25/2021 3:30:00 AM 20.5 68.9 0.299 7.25 8.97 7.2
8/25/2021 3:45:00 AM 20.41 68.738 0.299 7.25 8.72 7.25
8/25/2021 4:00:00 AM 20.31 68.558 0.3 7.24 8.76 7.14
8/25/2021 4:15:00 AM 20.22 68.396 0.299 7.24 10.75 7.27
8/25/2021 4:30:00 AM 20.13 68.234 0.299 7.23 9.1 7.27
8/25/2021 4:45:00 AM 20.03 68.054 0.3 7.23 9.43 7.3
8/25/2021 5:00:00 AM 19.95 67.91 0.3 7.23 9.48 7.31
8/25/2021 5:15:00 AM 19.87 67.766 0.3 7.23 9.13 7.3
8/25/2021 5:30:00 AM 19.79 67.622 0.3 7.22 9.55 7.32
8/25/2021 5:45:00 AM 19.71 67.478 0.3 7.22 10.15 7.3
8/25/2021 6:00:00 AM 19.63 67.334 0.3 7.23 10.93 7.37
8/25/2021 6:15:00 AM 19.56 67.208 0.3 7.23 8.56 7.37
8/25/2021 6:30:00 AM 19.49 67.082 0.3 7.22 9.15 7.34
8/25/2021 6:45:00 AM 19.43 66.974 0.3 7.23 9.59 7.4
8/25/2021 7:00:00 AM 19.37 66.866 0.301 7.23 9.53 7.36
8/25/2021 7:15:00 AM 19.33 66.794 0.301 7.23 8.57 7.5
8/25/2021 7:30:00 AM 19.31 66.758 0.301 7.24 9.48 7.61
8/25/2021 7:45:00 AM 19.31 66.758 0.301 7.25 8.99 7.76
8/25/2021 8:00:00 AM 19.35 66.83 0.301 7.26 8.62 7.92
8/25/2021 8:15:00 AM 19.39 66.902 0.301 7.28 8.71 8.07
8/25/2021 8:30:00 AM 19.46 67.028 0.3 7.29 15.38 8.2
8/25/2021 8:45:00 AM 19.58 67.244 0.3 7.31 9.14 8.48
8/25/2021 9:00:00 AM 19.75 67.55 0.3 7.33 8.35 8.69
8/25/2021 9:15:00 AM 19.93 67.874 0.3 7.34 9.05 8.92
8/25/2021 9:30:00 AM 20.07 68.126 0.3 7.36 12.54 8.97
8/25/2021 9:45:00 AM 20.25 68.45 0.3 7.39 8.54 9.23
8/25/2021 10:00:00 AM 20.39 68.702 0.3 7.41 10.81 9.33
8/25/2021 10:15:00 AM 20.63 69.134 0.3 7.43 13.69 9.57
8/25/2021 10:30:00 AM 20.91 69.638 0.301 7.46 8.57 9.83
8/25/2021 10:45:00 AM 21.11 69.998 0.301 7.47 8.27 9.9
8/25/2021 11:00:00 AM 21.14 70.052 0.301 7.49 8.55 9.84
8/25/2021 11:15:00 AM 21.41 70.538 0.301 7.51 8.86 10.01
8/25/2021 11:30:00 AM 21.72 71.096 0.302 7.53 8.47 10.15
8/25/2021 11:45:00 AM 22.18 71.924 0.302 7.56 8.18 10.41
8/25/2021 12:00:00 PM 22.7 72.86 0.302 7.59 9.06 10.65
8/25/2021 12:15:00 PM 23.11 73.598 0.302 7.62 17.66 10.75
8/25/2021 12:30:00 PM 23.51 74.318 0.302 7.65 8.46 10.91
8/25/2021 12:45:00 PM 23.88 74.984 0.302 7.68 8.39 10.98
8/25/2021 1:00:00 PM 24.24 75.632 0.302 7.69 10.54 11.04
8/25/2021 1:15:00 PM 24.59 76.262 0.302 7.74 14.58 11.03
8/25/2021 1:30:00 PM 24.96 76.92799 0.303 7.73 50.77 11.07
8/25/2021 1:45:00 PM 25.3 77.54 0.304 7.78 8.16 11.08
8/25/2021 2:00:00 PM 25.66 78.188 0.303 7.82 7.81 11.16
8/25/2021 2:15:00 PM 25.97 78.746 0.304 7.84 9.46 11.2
8/25/2021 2:30:00 PM 26.21 79.17799 0.302 7.84 8.41 11.09
8/25/2021 2:45:00 PM 26.07 78.926 0.304 7.83 8.12 10.77
8/25/2021 3:00:00 PM 26.19 79.142 0.301 7.81 62.65 10.57
8/25/2021 3:15:00 PM 26.56 79.808 0.305 7.85 9.28 10.59
8/25/2021 3:30:00 PM 26.9 80.42 0.305 7.86 8.65 10.9
8/25/2021 3:45:00 PM 27.07 80.726 0.305 7.88 8.07 10.79
8/25/2021 4:00:00 PM 27.27 81.086 0.304 7.87 8.36 10.84
8/25/2021 4:15:00 PM 27.26 81.068 0.304 7.89 7.97 10.7
8/25/2021 4:30:00 PM 27.28 81.104 0.304 7.89 7.85 10.61
8/25/2021 4:45:00 PM 27.26 81.068 0.304 7.88 8.31 10.48
8/25/2021 5:00:00 PM 27.09 80.762 0.304 7.85 8.53 10.15
8/25/2021 5:15:00 PM 27 80.6 0.304 7.82 20.68 9.95
8/25/2021 5:30:00 PM 26.96 80.528 0.304 7.8 8.54 9.83
8/25/2021 5:45:00 PM 26.81 80.258 0.305 7.78 8.24 9.65
8/25/2021 6:00:00 PM 26.65 79.97 0.305 7.75 8.3 9.54
8/25/2021 6:15:00 PM 26.49 79.682 0.305 7.72 8.53 9.31
8/25/2021 6:30:00 PM 26.26 79.268 0.305 7.64 15.31 9
8/25/2021 6:45:00 PM 26.03 78.854 0.306 7.65 9.2 8.91
8/25/2021 7:00:00 PM 25.79 78.422 0.306 7.61 8.25 8.66
8/25/2021 7:15:00 PM 25.57 78.026 0.307 7.57 9.24 8.17
8/25/2021 7:30:00 PM 25.3 77.54 0.307 7.54 9.01 8.18
8/25/2021 7:45:00 PM 25.03 77.054 0.307 7.5 9.37 7.99
8/25/2021 8:00:00 PM 24.79 76.622 0.308 7.47 8.88 7.78
8/25/2021 8:15:00 PM 24.54 76.172 0.307 7.45 10.01 7.63
8/25/2021 8:30:00 PM 24.29 75.722 0.307 7.43 8.44 7.33
8/25/2021 8:45:00 PM 24.07 75.326 0.303 7.41 9.03 6.96
8/25/2021 9:00:00 PM 23.86 74.948 0.305 7.39 8.87 7.03
8/25/2021 9:15:00 PM 23.67 74.606 0.307 7.38 8.78 7.13
8/25/2021 9:30:00 PM 23.5 74.3 0.308 7.37 13.67 7.2
8/25/2021 9:45:00 PM 23.31 73.958 0.305 7.35 42.13 7.19
8/25/2021 10:00:00 PM 23.14 73.652 0.307 7.34 54.5 7.11
8/25/2021 10:15:00 PM 22.98 73.364 0.308 7.33 76.69 7.1
8/25/2021 10:30:00 PM 22.82 73.076 0.306 7.32 226.55 7.07
8/25/2021 10:45:00 PM 22.67 72.806 0.31 7.32 14.84 7.02
8/25/2021 11:00:00 PM 22.54 72.57201 0.31 7.31 76.76 7.04
8/25/2021 11:15:00 PM 22.41 72.338 0.311 7.29 122.09 7.03
8/25/2021 11:30:00 PM 22.28 72.104 0.31 7.29 127.36 7.04
8/25/2021 11:45:00 PM 22.17 71.906 0.312 7.29 65.61 7.04
8/26/2021 12:00:00 AM 22.07 71.726 0.311 7.28 126.31 6.99
8/26/2021 12:15:00 AM 21.97 71.546 0.311 7.28 9.37 6.98
8/26/2021 12:30:00 AM 21.87 71.366 0.311 7.27 10.4 7.01
8/26/2021 12:45:00 AM 21.79 71.222 0.312 7.27 9.01 6.96
8/26/2021 1:00:00 AM 21.7 71.06 0.31 7.27 9.4 6.88
8/26/2021 1:15:00 AM 21.62 70.916 0.312 7.27 9.26 6.83
8/26/2021 1:30:00 AM 21.54 70.772 0.311 7.26 9.32 7.03
8/26/2021 1:45:00 AM 21.48 70.664 0.313 7.26 10.69 7.02
8/26/2021 2:00:00 AM 21.4 70.52 0.311 7.26 8.78 7
8/26/2021 2:15:00 AM 21.32 70.376 0.313 7.26 9.29 7.05
8/26/2021 2:30:00 AM 21.26 70.268 0.311 7.25 12.19 7.03
8/26/2021 2:45:00 AM 21.22 70.196 0.313 7.25 9.35 6.99
8/26/2021 3:00:00 AM 21.16 70.088 0.313 7.25 8.45 7.02
8/26/2021 3:15:00 AM 21.1 69.98 0.313 7.24 9.54 7.07
8/26/2021 3:30:00 AM 21.06 69.908 0.305 7.24 9.09 7.02
8/26/2021 3:45:00 AM 21.01 69.818 0.313 7.22 10.24 7.01
8/26/2021 4:00:00 AM 20.95 69.71 0.313 7.22 9.02 7.03
8/26/2021 4:15:00 AM 20.9 69.62 0.313 7.23 9.24 7.07
8/26/2021 4:30:00 AM 20.84 69.512 0.312 7.24 9.72 7.07
8/26/2021 4:45:00 AM 20.78 69.404 0.313 7.24 8.9 7.07
8/26/2021 5:00:00 AM 20.72 69.296 0.312 7.23 10.05 6.82
8/26/2021 5:15:00 AM 20.66 69.188 0.314 7.23 10.21 7.06
8/26/2021 5:30:00 AM 20.57 69.026 0.313 7.24 11.15 7.11
8/26/2021 5:45:00 AM 20.5 68.9 0.313 7.23 10.3 7.12
8/26/2021 6:00:00 AM 20.41 68.738 0.312 7.23 15.1 7.11
8/26/2021 6:15:00 AM 20.33 68.594 0.314 7.22 9.71 7.15
8/26/2021 6:30:00 AM 20.25 68.45 0.314 7.22 9.14 7.13
8/26/2021 6:45:00 AM 20.18 68.324 0.314 7.22 13.36 7.14
8/26/2021 7:00:00 AM 20.1 68.18 0.314 7.22 10.43 7.27
8/26/2021 7:15:00 AM 20.05 68.09 0.315 7.22 9.72 7.3
8/26/2021 7:30:00 AM 20.02 68.036 0.314 7.22 8.54 7.37
8/26/2021 7:45:00 AM 20.02 68.036 0.314 7.22 9.46 7.54
8/26/2021 8:00:00 AM 20.06 68.108 0.314 7.24 11.16 7.73
8/26/2021 8:15:00 AM 20.12 68.216 0.314 7.26 105.36 7.96
8/26/2021 8:30:00 AM 20.18 68.324 0.314 7.28 8.13 8.24
8/26/2021 8:45:00 AM 20.27 68.486 0.314 7.3 8.23 8.45
8/26/2021 9:00:00 AM 20.42 68.756 0.314 7.32 8.62 8.7
8/26/2021 9:15:00 AM 20.58 69.044 0.314 7.34 8.53 8.96
8/26/2021 9:30:00 AM 20.79 69.422 0.314 7.36 8.39 9.15
8/26/2021 9:45:00 AM 21.01 69.818 0.313 7.39 8.45 9.46
8/26/2021 10:00:00 AM 21.24 70.232 0.314 7.41 8.36 9.62
8/26/2021 10:15:00 AM 21.47 70.646 0.314 7.43 8.6 9.82
8/26/2021 10:30:00 AM 21.71 71.078 0.314 7.45 8.75 9.9
8/26/2021 10:45:00 AM 22 71.6 0.313 7.48 8.7 10.15
8/26/2021 11:00:00 AM 22.31 72.158 0.314 7.51 8.99 10.35
8/26/2021 11:15:00 AM 22.6 72.68 0.314 7.54 8.54 10.45
8/26/2021 11:30:00 AM 22.91 73.238 0.314 7.55 8.96 10.63
8/26/2021 11:45:00 AM 23.27 73.886 0.314 7.59 8.46 10.72
8/26/2021 12:00:00 PM 23.61 74.498 0.314 7.62 8.47 10.85
8/26/2021 12:15:00 PM 23.94 75.092 0.314 7.64 9.01 10.95
8/26/2021 12:30:00 PM 24.33 75.794 0.309 7.66 8.67 10.93
8/26/2021 12:45:00 PM 24.68 76.424 0.314 7.7 9.42 11.13
8/26/2021 1:00:00 PM 25.02 77.036 0.314 7.71 8.23 11.07
8/26/2021 1:15:00 PM 25.36 77.648 0.315 7.74 9.23 11.13
8/26/2021 1:30:00 PM 25.68 78.224 0.315 7.77 8.24 11.16
8/26/2021 1:45:00 PM 26.06 78.908 0.315 7.79 8.56 11.35
8/26/2021 2:00:00 PM 26.17 79.106 0.315 7.81 8.17 11.2
8/26/2021 2:15:00 PM 26.41 79.538 0.316 7.82 8.84 11.26
8/26/2021 2:30:00 PM 26.76 80.168 0.315 7.84 9.01 11.31
8/26/2021 2:45:00 PM 27.08 80.744 0.315 7.88 8.22 11.28
8/26/2021 3:00:00 PM 27.37 81.266 0.316 7.88 8.32 11.19
8/26/2021 3:15:00 PM 27.43 81.374 0.315 7.88 8.19 10.97
8/26/2021 3:30:00 PM 27.28 81.104 0.316 7.87 7.74 10.64
8/26/2021 3:45:00 PM 27.17 80.906 0.315 7.83 12.32 10.43
8/26/2021 4:00:00 PM 27.4 81.32 0.314 7.82 8.27 10.5
8/26/2021 4:15:00 PM 27.49 81.482 0.314 7.83 8.21 10.44
8/26/2021 4:30:00 PM 27.51 81.518 0.315 7.82 10.13 10.39
8/26/2021 4:45:00 PM 27.59 81.662 0.315 7.82 7.86 10.36
8/26/2021 5:00:00 PM 27.51 81.518 0.314 7.81 8.31 10.22
8/26/2021 5:15:00 PM 27.41 81.338 0.314 7.79 27.31 10.02
8/26/2021 5:30:00 PM 27.33 81.194 0.315 7.78 8.64 9.91
8/26/2021 5:45:00 PM 27.24 81.032 0.315 7.8 10.34 9.74
8/26/2021 6:00:00 PM 27.08 80.744 0.315 7.78 8.19 9.67
8/26/2021 6:15:00 PM 26.91 80.438 0.316 7.75 8.69 9.43
8/26/2021 6:30:00 PM 26.73 80.114 0.316 7.71 9.31 9.22
8/26/2021 6:45:00 PM 26.5 79.7 0.316 7.69 11.04 8.98
8/26/2021 7:00:00 PM 26.24 79.232 0.316 7.65 7.86 8.74
8/26/2021 7:15:00 PM 25.88 78.584 0.317 7.6 8.57 8.5
8/26/2021 7:30:00 PM 25.53 77.954 0.317 7.57 8.71 8.27
8/26/2021 7:45:00 PM 25.21 77.378 0.317 7.54 8.06 8.04
8/26/2021 8:00:00 PM 24.93 76.874 0.316 7.49 8.1 7.84
8/26/2021 8:15:00 PM 24.72 76.496 0.316 7.48 8.52 7.65
8/26/2021 8:30:00 PM 24.51 76.118 0.316 7.45 8.96 7.51
8/26/2021 8:45:00 PM 24.34 75.812 0.315 7.43 9.12 7.35
8/26/2021 9:00:00 PM 24.14 75.452 0.316 7.41 8.65 7.25
8/26/2021 9:15:00 PM 23.96 75.128 0.316 7.39 8.84 7.14
8/26/2021 9:30:00 PM 23.8 74.84 0.315 7.37 8.92 7.08
8/26/2021 9:45:00 PM 23.63 74.534 0.317 7.35 9.44 7.02
8/26/2021 10:00:00 PM 23.49 74.282 0.317 7.34 9.04 6.98
8/26/2021 10:15:00 PM 23.32 73.976 0.317 7.33 8.61 6.98
8/26/2021 10:30:00 PM 23.21 73.778 0.318 7.32 9.3 6.9
8/26/2021 10:45:00 PM 23.06 73.508 0.318 7.32 9.47 6.87
8/26/2021 11:00:00 PM 22.95 73.31 0.317 7.3 8.56 6.86
8/26/2021 11:15:00 PM 22.83 73.094 0.317 7.3 9.28 6.81
8/26/2021 11:30:00 PM 22.73 72.914 0.318 7.29 8.55 6.8
8/26/2021 11:45:00 PM 22.62 72.716 0.317 7.28 9.28 6.73
8/27/2021 12:00:00 AM 22.5 72.5 0.317 7.28 8.3 6.82
8/27/2021 12:15:00 AM 22.42 72.356 0.318 7.28 8.89 6.75
8/27/2021 12:30:00 AM 22.33 72.194 0.317 7.27 9.1 6.78
8/27/2021 12:45:00 AM 22.23 72.014 0.318 7.27 8.74 6.85
8/27/2021 1:00:00 AM 22.16 71.888 0.316 7.26 9.03 6.82
8/27/2021 1:15:00 AM 22.08 71.744 0.317 7.26 8.75 6.65
8/27/2021 1:30:00 AM 22.01 71.618 0.318 7.26 10.54 6.81
8/27/2021 1:45:00 AM 21.94 71.492 0.317 7.26 9.67 6.83
8/27/2021 2:00:00 AM 21.88 71.384 0.316 7.26 9.05 6.78
8/27/2021 2:15:00 AM 21.82 71.276 0.314 7.26 12.52 6.84
8/27/2021 2:30:00 AM 21.75 71.15 0.316 7.26 9.46 6.86
8/27/2021 2:45:00 AM 21.68 71.024 0.316 7.25 8.92 6.85
8/27/2021 3:00:00 AM 21.61 70.898 0.317 7.25 50.34 6.63
8/27/2021 3:15:00 AM 21.56 70.808 0.315 7.24 11.03 6.81
8/27/2021 3:30:00 AM 21.49 70.682 0.317 7.24 36.01 6.85
8/27/2021 3:45:00 AM 21.43 70.574 0.316 7.25 9.58 6.85
8/27/2021 4:00:00 AM 21.36 70.448 0.317 7.25 9.49 6.9
8/27/2021 4:15:00 AM 21.3 70.34 0.317 7.24 11.61 6.89
8/27/2021 4:30:00 AM 21.23 70.214 0.317 7.24 9.4 6.89
8/27/2021 4:45:00 AM 21.15 70.07 0.317 7.23 9.54 6.88
8/27/2021 5:00:00 AM 21.09 69.962 0.317 7.23 10.61 6.92
8/27/2021 5:15:00 AM 21.03 69.854 0.316 7.23 8.81 6.93
8/27/2021 5:30:00 AM 20.96 69.728 0.315 7.23 9.9 6.97
8/27/2021 5:45:00 AM 20.91 69.638 0.317 7.24 10.18 6.98
8/27/2021 6:00:00 AM 20.87 69.566 0.317 7.24 9.42 6.93
8/27/2021 6:15:00 AM 20.81 69.458 0.317 7.24 10.45 6.99
8/27/2021 6:30:00 AM 20.75 69.35 0.317 7.24 9.19 6.99
8/27/2021 6:45:00 AM 20.69 69.242 0.318 7.24 8.99 7
8/27/2021 7:00:00 AM 20.64 69.152 0.318 7.24 9.74 7.06
8/27/2021 7:15:00 AM 20.6 69.08 0.318 7.25 8.45 7.11
8/27/2021 7:30:00 AM 20.57 69.026 0.318 7.25 8.83 7.19
8/27/2021 7:45:00 AM 20.56 69.008 0.318 7.26 10.1 7.26
8/27/2021 8:00:00 AM 20.55 68.99 0.318 7.27 8.72 7.38
8/27/2021 8:15:00 AM 20.57 69.026 0.318 7.28 8.15 7.55
8/27/2021 8:30:00 AM 20.59 69.062 0.318 7.29 8.07 7.73
8/27/2021 8:45:00 AM 20.64 69.152 0.317 7.3 8 7.87
8/27/2021 9:00:00 AM 20.7 69.26 0.317 7.32 8.06 8.12
8/27/2021 9:15:00 AM 20.78 69.404 0.317 7.33 8.48 8.33
8/27/2021 9:30:00 AM 20.86 69.548 0.317 7.35 9.51 8.47
8/27/2021 9:45:00 AM 20.95 69.71 0.317 7.37 8.21 8.79
8/27/2021 10:00:00 AM 21.1 69.98 0.316 7.39 8.31 9.04
8/27/2021 10:15:00 AM 21.28 70.304 0.316 7.41 8.4 9.27
8/27/2021 10:30:00 AM 21.5 70.7 0.316 7.45 8.51 9.58
8/27/2021 10:45:00 AM 21.71 71.078 0.316 7.47 8.15 9.69
8/27/2021 11:00:00 AM 21.85 71.33 0.315 7.5 8.06 9.79
8/27/2021 11:15:00 AM 22.19 71.942 0.315 7.51 8.14 10.08
8/27/2021 11:30:00 AM 22.71 72.878 0.316 7.55 8.3 10.34
8/27/2021 11:45:00 AM 22.96 73.328 0.315 7.57 8.4 10.5
8/27/2021 12:00:00 PM 23.25 73.85 0.315 7.6 8.8 10.62
8/27/2021 12:15:00 PM 23.43 74.174 0.315 7.63 8.7 10.62
8/27/2021 12:30:00 PM 23.66 74.588 0.315 7.66 10.6 10.85
8/27/2021 12:45:00 PM 23.89 75.002 0.315 7.69 8.22 10.89
8/27/2021 1:00:00 PM 24.15 75.47 0.315 7.71 8.37 11.01
8/27/2021 1:15:00 PM 24.33 75.794 0.315 7.74 8.48 11.02
8/27/2021 1:30:00 PM 24.73 76.514 0.316 7.76 9.19 11.08
8/27/2021 1:45:00 PM 24.95 76.91 0.316 7.78 8.28 11.11
8/27/2021 2:00:00 PM 24.92 76.856 0.316 7.79 8.48 10.97
8/27/2021 2:15:00 PM 24.92 76.856 0.316 7.78 8.86 10.7
8/27/2021 2:30:00 PM 24.79 76.622 0.316 7.75 8.24 10.38
8/27/2021 2:45:00 PM 24.76 76.568 0.317 7.72 8.72 10.13
8/27/2021 3:00:00 PM 24.76 76.568 0.317 7.69 8.19 9.95
8/27/2021 3:15:00 PM 24.74 76.532 0.317 7.69 8.35 9.87
8/27/2021 3:30:00 PM 24.68 76.424 0.317 7.66 10.77 9.59
8/27/2021 3:45:00 PM 24.58 76.244 0.316 7.65 8.12 9.51
8/27/2021 4:00:00 PM -99999.99 -179968 -99999.99 -99999.99 -99999.99 -99999.99
8/27/2021 4:15:00 PM -99999.99 -179968 -99999.99 -99999.99 -99999.99 -99999.99
8/27/2021 4:30:00 PM -99999.99 -179968 -99999.99 -99999.99 -99999.99 -99999.99
8/27/2021 4:45:00 PM -99999.99 -179968 -99999.99 -99999.99 -99999.99 -99999.99
8/27/2021 5:00:00 PM -99999.99 -179968 -99999.99 -99999.99 -99999.99 -99999.99
8/27/2021 5:15:00 PM -99999.99 -179968 -99999.99 -99999.99 -99999.99 -99999.99
8/27/2021 5:30:00 PM -99999.99 -179968 -99999.99 -99999.99 -99999.99 -99999.99
8/27/2021 5:45:00 PM -99999.99 -179968 -99999.99 -99999.99 -99999.99 -99999.99
8/27/2021 6:00:00 PM -99999.99 -179968 -99999.99 -99999.99 -99999.99 -99999.99
8/27/2021 6:15:00 PM -99999.99 -179968 -99999.99 -99999.99 -99999.99 -99999.99
8/27/2021 6:30:00 PM -99999.99 -179968 -99999.99 -99999.99 -99999.99 -99999.99
8/27/2021 6:45:00 PM -99999.99 -179968 -99999.99 -99999.99 -99999.99 -99999.99
8/27/2021 7:00:00 PM -99999.99 -179968 -99999.99 -99999.99 -99999.99 -99999.99
8/27/2021 7:15:00 PM -99999.99 -179968 -99999.99 -99999.99 -99999.99 -99999.99
8/27/2021 7:30:00 PM -99999.99 -179968 -99999.99 -99999.99 -99999.99 -99999.99
8/27/2021 7:45:00 PM -99999.99 -179968 -99999.99 -99999.99 -99999.99 -99999.99
8/27/2021 8:00:00 PM -99999.99 -179968 -99999.99 -99999.99 -99999.99 -99999.99
8/27/2021 8:15:00 PM -99999.99 -179968 -99999.99 -99999.99 -99999.99 -99999.99
8/27/2021 8:30:00 PM -99999.99 -179968 -99999.99 -99999.99 -99999.99 -99999.99
8/27/2021 8:45:00 PM -99999.99 -179968 -99999.99 -99999.99 -99999.99 -99999.99
8/27/2021 9:00:00 PM -99999.99 -179968 -99999.99 -99999.99 -99999.99 -99999.99
8/27/2021 9:15:00 PM -99999.99 -179968 -99999.99 -99999.99 -99999.99 -99999.99
8/27/2021 9:30:00 PM -99999.99 -179968 -99999.99 -99999.99 -99999.99 -99999.99
8/27/2021 9:45:00 PM -99999.99 -179968 -99999.99 -99999.99 -99999.99 -99999.99
8/27/2021 10:00:00 PM -99999.99 -179968 -99999.99 -99999.99 -99999.99 -99999.99
8/27/2021 10:15:00 PM -99999.99 -179968 -99999.99 -99999.99 -99999.99 -99999.99
8/27/2021 10:30:00 PM -99999.99 -179968 -99999.99 -99999.99 -99999.99 -99999.99
8/27/2021 10:45:00 PM -99999.99 -179968 -99999.99 -99999.99 -99999.99 -99999.99
8/27/2021 11:00:00 PM -99999.99 -179968 -99999.99 -99999.99 -99999.99 -99999.99
8/27/2021 11:15:00 PM -99999.99 -179968 -99999.99 -99999.99 -99999.99 -99999.99
8/27/2021 11:30:00 PM -99999.99 -179968 -99999.99 -99999.99 -99999.99 -99999.99
8/27/2021 11:45:00 PM -99999.99 -179968 -99999.99 -99999.99 -99999.99 -99999.99
8/28/2021 12:00:00 AM -99999.99 -179968 -99999.99 -99999.99 -99999.99 -99999.99
8/28/2021 12:15:00 AM -99999.99 -179968 -99999.99 -99999.99 -99999.99 -99999.99
8/28/2021 12:30:00 AM -99999.99 -179968 -99999.99 -99999.99 -99999.99 -99999.99
8/28/2021 12:45:00 AM -99999.99 -179968 -99999.99 -99999.99 -99999.99 -99999.99
8/28/2021 1:00:00 AM -99999.99 -179968 -99999.99 -99999.99 -99999.99 -99999.99
8/28/2021 1:15:00 AM -99999.99 -179968 -99999.99 -99999.99 -99999.99 -99999.99
8/28/2021 1:30:00 AM -99999.99 -179968 -99999.99 -99999.99 -99999.99 -99999.99
8/28/2021 1:45:00 AM -99999.99 -179968 -99999.99 -99999.99 -99999.99 -99999.99
8/28/2021 2:00:00 AM -99999.99 -179968 -99999.99 -99999.99 -99999.99 -99999.99
8/28/2021 2:15:00 AM -99999.99 -179968 -99999.99 -99999.99 -99999.99 -99999.99
8/28/2021 2:30:00 AM -99999.99 -179968 -99999.99 -99999.99 -99999.99 -99999.99
8/28/2021 2:45:00 AM -99999.99 -179968 -99999.99 -99999.99 -99999.99 -99999.99
8/28/2021 3:00:00 AM -99999.99 -179968 -99999.99 -99999.99 -99999.99 -99999.99
8/28/2021 3:15:00 AM -99999.99 -179968 -99999.99 -99999.99 -99999.99 -99999.99
8/28/2021 3:30:00 AM -99999.99 -179968 -99999.99 -99999.99 -99999.99 -99999.99
8/28/2021 3:45:00 AM -99999.99 -179968 -99999.99 -99999.99 -99999.99 -99999.99
8/28/2021 4:00:00 AM -99999.99 -179968 -99999.99 -99999.99 -99999.99 -99999.99
8/28/2021 4:15:00 AM -99999.99 -179968 -99999.99 -99999.99 -99999.99 -99999.99
8/28/2021 4:30:00 AM -99999.99 -179968 -99999.99 -99999.99 -99999.99 -99999.99
8/28/2021 4:45:00 AM -99999.99 -179968 -99999.99 -99999.99 -99999.99 -99999.99
8/28/2021 5:00:00 AM -99999.99 -179968 -99999.99 -99999.99 -99999.99 -99999.99
8/28/2021 5:15:00 AM -99999.99 -179968 -99999.99 -99999.99 -99999.99 -99999.99
8/28/2021 5:30:00 AM -99999.99 -179968 -99999.99 -99999.99 -99999.99 -99999.99
8/28/2021 5:45:00 AM -99999.99 -179968 -99999.99 -99999.99 -99999.99 -99999.99
8/28/2021 6:00:00 AM -99999.99 -179968 -99999.99 -99999.99 -99999.99 -99999.99
8/28/2021 6:15:00 AM -99999.99 -179968 -99999.99 -99999.99 -99999.99 -99999.99
8/28/2021 6:30:00 AM -99999.99 -179968 -99999.99 -99999.99 -99999.99 -99999.99
8/28/2021 6:45:00 AM -99999.99 -179968 -99999.99 -99999.99 -99999.99 -99999.99
8/28/2021 7:00:00 AM -99999.99 -179968 -99999.99 -99999.99 -99999.99 -99999.99
8/28/2021 7:15:00 AM -99999.99 -179968 -99999.99 -99999.99 -99999.99 -99999.99
8/28/2021 7:30:00 AM -99999.99 -179968 -99999.99 -99999.99 -99999.99 -99999.99
8/28/2021 7:45:00 AM -99999.99 -179968 -99999.99 -99999.99 -99999.99 -99999.99
8/28/2021 8:00:00 AM -99999.99 -179968 -99999.99 -99999.99 -99999.99 -99999.99
8/28/2021 8:15:00 AM -99999.99 -179968 -99999.99 -99999.99 -99999.99 -99999.99
8/28/2021 8:30:00 AM -99999.99 -179968 -99999.99 -99999.99 -99999.99 -99999.99
8/28/2021 8:45:00 AM -99999.99 -179968 -99999.99 -99999.99 -99999.99 -99999.99
8/28/2021 9:00:00 AM -99999.99 -179968 -99999.99 -99999.99 -99999.99 -99999.99
8/28/2021 9:15:00 AM -99999.99 -179968 -99999.99 -99999.99 -99999.99 -99999.99
8/28/2021 9:30:00 AM -99999.99 -179968 -99999.99 -99999.99 -99999.99 -99999.99
8/28/2021 9:45:00 AM -99999.99 -179968 -99999.99 -99999.99 -99999.99 -99999.99
8/28/2021 10:00:00 AM -99999.99 -179968 -99999.99 -99999.99 -99999.99 -99999.99
8/28/2021 10:15:00 AM -99999.99 -179968 -99999.99 -99999.99 -99999.99 -99999.99
8/28/2021 10:30:00 AM -99999.99 -179968 -99999.99 -99999.99 -99999.99 -99999.99
8/28/2021 10:45:00 AM -99999.99 -179968 -99999.99 -99999.99 -99999.99 -99999.99
8/28/2021 11:00:00 AM -99999.99 -179968 -99999.99 -99999.99 -99999.99 -99999.99
8/28/2021 11:15:00 AM -99999.99 -179968 -99999.99 -99999.99 -99999.99 -99999.99
8/28/2021 11:30:00 AM -99999.99 -179968 -99999.99 -99999.99 -99999.99 -99999.99
8/28/2021 11:45:00 AM -99999.99 -179968 -99999.99 -99999.99 -99999.99 -99999.99
8/28/2021 12:00:00 PM -99999.99 -179968 -99999.99 -99999.99 -99999.99 -99999.99
8/28/2021 12:15:00 PM -99999.99 -179968 -99999.99 -99999.99 -99999.99 -99999.99
8/28/2021 12:30:00 PM -99999.99 -179968 -99999.99 -99999.99 -99999.99 -99999.99
8/28/2021 12:45:00 PM -99999.99 -179968 -99999.99 -99999.99 -99999.99 -99999.99
8/28/2021 1:00:00 PM -99999.99 -179968 -99999.99 -99999.99 -99999.99 -99999.99
8/28/2021 1:15:00 PM -99999.99 -179968 -99999.99 -99999.99 -99999.99 -99999.99
8/28/2021 1:30:00 PM -99999.99 -179968 -99999.99 -99999.99 -99999.99 -99999.99
8/28/2021 1:45:00 PM -99999.99 -179968 -99999.99 -99999.99 -99999.99 -99999.99
8/28/2021 2:00:00 PM -99999.99 -179968 -99999.99 -99999.99 -99999.99 -99999.99
8/28/2021 2:15:00 PM -99999.99 -179968 -99999.99 -99999.99 -99999.99 -99999.99
8/28/2021 2:30:00 PM -99999.99 -179968 -99999.99 -99999.99 -99999.99 -99999.99
8/28/2021 2:45:00 PM -99999.99 -179968 -99999.99 -99999.99 -99999.99 -99999.99
8/28/2021 3:00:00 PM -99999.99 -179968 -99999.99 -99999.99 -99999.99 -99999.99
8/28/2021 3:15:00 PM -99999.99 -179968 -99999.99 -99999.99 -99999.99 -99999.99
8/28/2021 3:30:00 PM -99999.99 -179968 -99999.99 -99999.99 -99999.99 -99999.99
8/28/2021 3:45:00 PM -99999.99 -179968 -99999.99 -99999.99 -99999.99 -99999.99
8/28/2021 4:00:00 PM -99999.99 -179968 -99999.99 -99999.99 -99999.99 -99999.99
8/28/2021 4:15:00 PM -99999.99 -179968 -99999.99 -99999.99 -99999.99 -99999.99
8/28/2021 4:30:00 PM -99999.99 -179968 -99999.99 -99999.99 -99999.99 -99999.99
8/28/2021 4:45:00 PM -99999.99 -179968 -99999.99 -99999.99 -99999.99 -99999.99
8/28/2021 5:00:00 PM -99999.99 -179968 -99999.99 -99999.99 -99999.99 -99999.99
8/28/2021 5:15:00 PM -99999.99 -179968 -99999.99 -99999.99 -99999.99 -99999.99
8/28/2021 5:30:00 PM -99999.99 -179968 -99999.99 -99999.99 -99999.99 -99999.99
8/28/2021 5:45:00 PM -99999.99 -179968 -99999.99 -99999.99 -99999.99 -99999.99
8/28/2021 6:00:00 PM -99999.99 -179968 -99999.99 -99999.99 -99999.99 -99999.99
8/28/2021 6:15:00 PM -99999.99 -179968 -99999.99 -99999.99 -99999.99 -99999.99
8/28/2021 6:30:00 PM -99999.99 -179968 -99999.99 -99999.99 -99999.99 -99999.99
8/28/2021 6:45:00 PM -99999.99 -179968 -99999.99 -99999.99 -99999.99 -99999.99
8/28/2021 7:00:00 PM -99999.99 -179968 -99999.99 -99999.99 -99999.99 -99999.99
8/28/2021 7:15:00 PM -99999.99 -179968 -99999.99 -99999.99 -99999.99 -99999.99
8/28/2021 7:30:00 PM -99999.99 -179968 -99999.99 -99999.99 -99999.99 -99999.99
8/28/2021 7:45:00 PM -99999.99 -179968 -99999.99 -99999.99 -99999.99 -99999.99
8/28/2021 8:00:00 PM -99999.99 -179968 -99999.99 -99999.99 -99999.99 -99999.99
8/28/2021 8:15:00 PM -99999.99 -179968 -99999.99 -99999.99 -99999.99 -99999.99
8/28/2021 8:30:00 PM -99999.99 -179968 -99999.99 -99999.99 -99999.99 -99999.99
8/28/2021 8:45:00 PM -99999.99 -179968 -99999.99 -99999.99 -99999.99 -99999.99
8/28/2021 9:00:00 PM -99999.99 -179968 -99999.99 -99999.99 -99999.99 -99999.99
8/28/2021 9:15:00 PM -99999.99 -179968 -99999.99 -99999.99 -99999.99 -99999.99
8/28/2021 9:30:00 PM -99999.99 -179968 -99999.99 -99999.99 -99999.99 -99999.99
8/28/2021 9:45:00 PM -99999.99 -179968 -99999.99 -99999.99 -99999.99 -99999.99
8/28/2021 10:00:00 PM -99999.99 -179968 -99999.99 -99999.99 -99999.99 -99999.99
8/28/2021 10:15:00 PM -99999.99 -179968 -99999.99 -99999.99 -99999.99 -99999.99
8/28/2021 10:30:00 PM -99999.99 -179968 -99999.99 -99999.99 -99999.99 -99999.99
8/28/2021 10:45:00 PM -99999.99 -179968 -99999.99 -99999.99 -99999.99 -99999.99
8/28/2021 11:00:00 PM -99999.99 -179968 -99999.99 -99999.99 -99999.99 -99999.99
8/28/2021 11:15:00 PM -99999.99 -179968 -99999.99 -99999.99 -99999.99 -99999.99
8/28/2021 11:30:00 PM -99999.99 -179968 -99999.99 -99999.99 -99999.99 -99999.99
8/28/2021 11:45:00 PM -99999.99 -179968 -99999.99 -99999.99 -99999.99 -99999.99
8/29/2021 12:00:00 AM -99999.99 -179968 -99999.99 -99999.99 -99999.99 -99999.99
8/29/2021 12:15:00 AM -99999.99 -179968 -99999.99 -99999.99 -99999.99 -99999.99
8/29/2021 12:30:00 AM -99999.99 -179968 -99999.99 -99999.99 -99999.99 -99999.99
8/29/2021 12:45:00 AM -99999.99 -179968 -99999.99 -99999.99 -99999.99 -99999.99
8/29/2021 1:00:00 AM -99999.99 -179968 -99999.99 -99999.99 -99999.99 -99999.99
8/29/2021 1:15:00 AM -99999.99 -179968 -99999.99 -99999.99 -99999.99 -99999.99
8/29/2021 1:30:00 AM -99999.99 -179968 -99999.99 -99999.99 -99999.99 -99999.99
8/29/2021 1:45:00 AM -99999.99 -179968 -99999.99 -99999.99 -99999.99 -99999.99
8/29/2021 2:00:00 AM -99999.99 -179968 -99999.99 -99999.99 -99999.99 -99999.99
8/29/2021 2:15:00 AM -99999.99 -179968 -99999.99 -99999.99 -99999.99 -99999.99
8/29/2021 2:30:00 AM -99999.99 -179968 -99999.99 -99999.99 -99999.99 -99999.99
8/29/2021 2:45:00 AM -99999.99 -179968 -99999.99 -99999.99 -99999.99 -99999.99
8/29/2021 3:00:00 AM -99999.99 -179968 -99999.99 -99999.99 -99999.99 -99999.99
8/29/2021 3:15:00 AM -99999.99 -179968 -99999.99 -99999.99 -99999.99 -99999.99
8/29/2021 3:30:00 AM -99999.99 -179968 -99999.99 -99999.99 -99999.99 -99999.99
8/29/2021 3:45:00 AM -99999.99 -179968 -99999.99 -99999.99 -99999.99 -99999.99
8/29/2021 4:00:00 AM -99999.99 -179968 -99999.99 -99999.99 -99999.99 -99999.99
8/29/2021 4:15:00 AM -99999.99 -179968 -99999.99 -99999.99 -99999.99 -99999.99
8/29/2021 4:30:00 AM -99999.99 -179968 -99999.99 -99999.99 -99999.99 -99999.99
8/29/2021 4:45:00 AM -99999.99 -179968 -99999.99 -99999.99 -99999.99 -99999.99
8/29/2021 5:00:00 AM -99999.99 -179968 -99999.99 -99999.99 -99999.99 -99999.99
8/29/2021 5:15:00 AM -99999.99 -179968 -99999.99 -99999.99 -99999.99 -99999.99
8/29/2021 5:30:00 AM -99999.99 -179968 -99999.99 -99999.99 -99999.99 -99999.99
8/29/2021 5:45:00 AM -99999.99 -179968 -99999.99 -99999.99 -99999.99 -99999.99
8/29/2021 6:00:00 AM -99999.99 -179968 -99999.99 -99999.99 -99999.99 -99999.99
8/29/2021 6:15:00 AM -99999.99 -179968 -99999.99 -99999.99 -99999.99 -99999.99
8/29/2021 6:30:00 AM -99999.99 -179968 -99999.99 -99999.99 -99999.99 -99999.99
8/29/2021 6:45:00 AM -99999.99 -179968 -99999.99 -99999.99 -99999.99 -99999.99
8/29/2021 7:00:00 AM -99999.99 -179968 -99999.99 -99999.99 -99999.99 -99999.99
8/29/2021 7:15:00 AM -99999.99 -179968 -99999.99 -99999.99 -99999.99 -99999.99
8/29/2021 7:30:00 AM -99999.99 -179968 -99999.99 -99999.99 -99999.99 -99999.99
8/29/2021 7:45:00 AM -99999.99 -179968 -99999.99 -99999.99 -99999.99 -99999.99
8/29/2021 8:00:00 AM -99999.99 -179968 -99999.99 -99999.99 -99999.99 -99999.99
8/29/2021 8:15:00 AM -99999.99 -179968 -99999.99 -99999.99 -99999.99 -99999.99
8/29/2021 8:30:00 AM -99999.99 -179968 -99999.99 -99999.99 -99999.99 -99999.99
8/29/2021 8:45:00 AM -99999.99 -179968 -99999.99 -99999.99 -99999.99 -99999.99
8/29/2021 9:00:00 AM -99999.99 -179968 -99999.99 -99999.99 -99999.99 -99999.99
8/29/2021 9:15:00 AM -99999.99 -179968 -99999.99 -99999.99 -99999.99 -99999.99
8/29/2021 9:30:00 AM -99999.99 -179968 -99999.99 -99999.99 -99999.99 -99999.99
8/29/2021 9:45:00 AM -99999.99 -179968 -99999.99 -99999.99 -99999.99 -99999.99
8/29/2021 10:00:00 AM -99999.99 -179968 -99999.99 -99999.99 -99999.99 -99999.99
8/29/2021 10:15:00 AM -99999.99 -179968 -99999.99 -99999.99 -99999.99 -99999.99
8/29/2021 10:30:00 AM -99999.99 -179968 -99999.99 -99999.99 -99999.99 -99999.99
8/29/2021 10:45:00 AM -99999.99 -179968 -99999.99 -99999.99 -99999.99 -99999.99
8/29/2021 11:00:00 AM -99999.99 -179968 -99999.99 -99999.99 -99999.99 -99999.99
8/29/2021 11:15:00 AM -99999.99 -179968 -99999.99 -99999.99 -99999.99 -99999.99
8/29/2021 11:30:00 AM -99999.99 -179968 -99999.99 -99999.99 -99999.99 -99999.99
8/29/2021 11:45:00 AM -99999.99 -179968 -99999.99 -99999.99 -99999.99 -99999.99
8/29/2021 12:00:00 PM -99999.99 -179968 -99999.99 -99999.99 -99999.99 -99999.99
8/29/2021 12:15:00 PM -99999.99 -179968 -99999.99 -99999.99 -99999.99 -99999.99
8/29/2021 12:30:00 PM -99999.99 -179968 -99999.99 -99999.99 -99999.99 -99999.99
8/29/2021 12:45:00 PM -99999.99 -179968 -99999.99 -99999.99 -99999.99 -99999.99
8/29/2021 1:00:00 PM -99999.99 -179968 -99999.99 -99999.99 -99999.99 -99999.99
8/29/2021 1:15:00 PM -99999.99 -179968 -99999.99 -99999.99 -99999.99 -99999.99
8/29/2021 1:30:00 PM -99999.99 -179968 -99999.99 -99999.99 -99999.99 -99999.99
8/29/2021 1:45:00 PM -99999.99 -179968 -99999.99 -99999.99 -99999.99 -99999.99
8/29/2021 2:00:00 PM -99999.99 -179968 -99999.99 -99999.99 -99999.99 -99999.99
8/29/2021 2:15:00 PM -99999.99 -179968 -99999.99 -99999.99 -99999.99 -99999.99
8/29/2021 2:30:00 PM -99999.99 -179968 -99999.99 -99999.99 -99999.99 -99999.99
8/29/2021 2:45:00 PM -99999.99 -179968 -99999.99 -99999.99 -99999.99 -99999.99
8/29/2021 3:00:00 PM -99999.99 -179968 -99999.99 -99999.99 -99999.99 -99999.99
8/29/2021 3:15:00 PM -99999.99 -179968 -99999.99 -99999.99 -99999.99 -99999.99
8/29/2021 3:30:00 PM -99999.99 -179968 -99999.99 -99999.99 -99999.99 -99999.99
8/29/2021 3:45:00 PM -99999.99 -179968 -99999.99 -99999.99 -99999.99 -99999.99
8/29/2021 4:00:00 PM -99999.99 -179968 -99999.99 -99999.99 -99999.99 -99999.99
8/29/2021 4:15:00 PM -99999.99 -179968 -99999.99 -99999.99 -99999.99 -99999.99
8/29/2021 4:30:00 PM -99999.99 -179968 -99999.99 -99999.99 -99999.99 -99999.99
8/29/2021 4:45:00 PM -99999.99 -179968 -99999.99 -99999.99 -99999.99 -99999.99
8/29/2021 5:00:00 PM -99999.99 -179968 -99999.99 -99999.99 -99999.99 -99999.99
8/29/2021 5:15:00 PM -99999.99 -179968 -99999.99 -99999.99 -99999.99 -99999.99
8/29/2021 5:30:00 PM -99999.99 -179968 -99999.99 -99999.99 -99999.99 -99999.99
8/29/2021 5:45:00 PM -99999.99 -179968 -99999.99 -99999.99 -99999.99 -99999.99
8/29/2021 6:00:00 PM -99999.99 -179968 -99999.99 -99999.99 -99999.99 -99999.99
8/29/2021 6:15:00 PM -99999.99 -179968 -99999.99 -99999.99 -99999.99 -99999.99
8/29/2021 6:30:00 PM -99999.99 -179968 -99999.99 -99999.99 -99999.99 -99999.99
8/29/2021 6:45:00 PM -99999.99 -179968 -99999.99 -99999.99 -99999.99 -99999.99
8/29/2021 7:00:00 PM -99999.99 -179968 -99999.99 -99999.99 -99999.99 -99999.99
8/29/2021 7:15:00 PM -99999.99 -179968 -99999.99 -99999.99 -99999.99 -99999.99
8/29/2021 7:30:00 PM -99999.99 -179968 -99999.99 -99999.99 -99999.99 -99999.99
8/29/2021 7:45:00 PM -99999.99 -179968 -99999.99 -99999.99 -99999.99 -99999.99
8/29/2021 8:00:00 PM -99999.99 -179968 -99999.99 -99999.99 -99999.99 -99999.99
8/29/2021 8:15:00 PM -99999.99 -179968 -99999.99 -99999.99 -99999.99 -99999.99
8/29/2021 8:30:00 PM -99999.99 -179968 -99999.99 -99999.99 -99999.99 -99999.99
8/29/2021 8:45:00 PM -99999.99 -179968 -99999.99 -99999.99 -99999.99 -99999.99
8/29/2021 9:00:00 PM -99999.99 -179968 -99999.99 -99999.99 -99999.99 -99999.99
8/29/2021 9:15:00 PM -99999.99 -179968 -99999.99 -99999.99 -99999.99 -99999.99
8/29/2021 9:30:00 PM -99999.99 -179968 -99999.99 -99999.99 -99999.99 -99999.99
8/29/2021 9:45:00 PM -99999.99 -179968 -99999.99 -99999.99 -99999.99 -99999.99
8/29/2021 10:00:00 PM -99999.99 -179968 -99999.99 -99999.99 -99999.99 -99999.99
8/29/2021 10:15:00 PM -99999.99 -179968 -99999.99 -99999.99 -99999.99 -99999.99
8/29/2021 10:30:00 PM -99999.99 -179968 -99999.99 -99999.99 -99999.99 -99999.99
8/29/2021 10:45:00 PM -99999.99 -179968 -99999.99 -99999.99 -99999.99 -99999.99
8/29/2021 11:00:00 PM -99999.99 -179968 -99999.99 -99999.99 -99999.99 -99999.99
8/29/2021 11:15:00 PM -99999.99 -179968 -99999.99 -99999.99 -99999.99 -99999.99
8/29/2021 11:30:00 PM -99999.99 -179968 -99999.99 -99999.99 -99999.99 -99999.99
8/29/2021 11:45:00 PM -99999.99 -179968 -99999.99 -99999.99 -99999.99 -99999.99
8/30/2021 12:00:00 AM -99999.99 -179968 -99999.99 -99999.99 -99999.99 -99999.99
8/30/2021 12:15:00 AM -99999.99 -179968 -99999.99 -99999.99 -99999.99 -99999.99
8/30/2021 12:30:00 AM -99999.99 -179968 -99999.99 -99999.99 -99999.99 -99999.99
8/30/2021 12:45:00 AM -99999.99 -179968 -99999.99 -99999.99 -99999.99 -99999.99
8/30/2021 1:00:00 AM -99999.99 -179968 -99999.99 -99999.99 -99999.99 -99999.99
8/30/2021 1:15:00 AM -99999.99 -179968 -99999.99 -99999.99 -99999.99 -99999.99
8/30/2021 1:30:00 AM -99999.99 -179968 -99999.99 -99999.99 -99999.99 -99999.99
8/30/2021 1:45:00 AM -99999.99 -179968 -99999.99 -99999.99 -99999.99 -99999.99
8/30/2021 2:00:00 AM -99999.99 -179968 -99999.99 -99999.99 -99999.99 -99999.99
8/30/2021 2:15:00 AM -99999.99 -179968 -99999.99 -99999.99 -99999.99 -99999.99
8/30/2021 2:30:00 AM -99999.99 -179968 -99999.99 -99999.99 -99999.99 -99999.99
8/30/2021 2:45:00 AM -99999.99 -179968 -99999.99 -99999.99 -99999.99 -99999.99
8/30/2021 3:00:00 AM -99999.99 -179968 -99999.99 -99999.99 -99999.99 -99999.99
8/30/2021 3:15:00 AM -99999.99 -179968 -99999.99 -99999.99 -99999.99 -99999.99
8/30/2021 3:30:00 AM -99999.99 -179968 -99999.99 -99999.99 -99999.99 -99999.99
8/30/2021 3:45:00 AM -99999.99 -179968 -99999.99 -99999.99 -99999.99 -99999.99
8/30/2021 4:00:00 AM -99999.99 -179968 -99999.99 -99999.99 -99999.99 -99999.99
8/30/2021 4:15:00 AM -99999.99 -179968 -99999.99 -99999.99 -99999.99 -99999.99
8/30/2021 4:30:00 AM -99999.99 -179968 -99999.99 -99999.99 -99999.99 -99999.99
8/30/2021 4:45:00 AM -99999.99 -179968 -99999.99 -99999.99 -99999.99 -99999.99
8/30/2021 5:00:00 AM -99999.99 -179968 -99999.99 -99999.99 -99999.99 -99999.99
8/30/2021 5:15:00 AM -99999.99 -179968 -99999.99 -99999.99 -99999.99 -99999.99
8/30/2021 5:30:00 AM -99999.99 -179968 -99999.99 -99999.99 -99999.99 -99999.99
8/30/2021 5:45:00 AM -99999.99 -179968 -99999.99 -99999.99 -99999.99 -99999.99
8/30/2021 6:00:00 AM -99999.99 -179968 -99999.99 -99999.99 -99999.99 -99999.99
8/30/2021 6:15:00 AM -99999.99 -179968 -99999.99 -99999.99 -99999.99 -99999.99
8/30/2021 6:30:00 AM -99999.99 -179968 -99999.99 -99999.99 -99999.99 -99999.99
8/30/2021 6:45:00 AM -99999.99 -179968 -99999.99 -99999.99 -99999.99 -99999.99
8/30/2021 7:00:00 AM -99999.99 -179968 -99999.99 -99999.99 -99999.99 -99999.99
8/30/2021 7:15:00 AM -99999.99 -179968 -99999.99 -99999.99 -99999.99 -99999.99
8/30/2021 7:30:00 AM -99999.99 -179968 -99999.99 -99999.99 -99999.99 -99999.99
8/30/2021 7:45:00 AM -99999.99 -179968 -99999.99 -99999.99 -99999.99 -99999.99
8/30/2021 8:00:00 AM -99999.99 -179968 -99999.99 -99999.99 -99999.99 -99999.99
8/30/2021 8:15:00 AM -99999.99 -179968 -99999.99 -99999.99 -99999.99 -99999.99
8/30/2021 8:30:00 AM -99999.99 -179968 -99999.99 -99999.99 -99999.99 -99999.99
8/30/2021 8:45:00 AM -99999.99 -179968 -99999.99 -99999.99 -99999.99 -99999.99
8/30/2021 9:00:00 AM -99999.99 -179968 -99999.99 -99999.99 -99999.99 -99999.99
8/30/2021 9:15:00 AM -99999.99 -179968 -99999.99 -99999.99 -99999.99 -99999.99
8/30/2021 9:30:00 AM -99999.99 -179968 -99999.99 -99999.99 -99999.99 -99999.99
8/30/2021 9:45:00 AM -99999.99 -179968 -99999.99 -99999.99 -99999.99 -99999.99
8/30/2021 10:00:00 AM -99999.99 -179968 -99999.99 -99999.99 -99999.99 -99999.99
8/30/2021 10:15:00 AM -99999.99 -179968 -99999.99 -99999.99 -99999.99 -99999.99
8/30/2021 10:30:00 AM -99999.99 -179968 -99999.99 -99999.99 -99999.99 -99999.99
8/30/2021 10:45:00 AM -99999.99 -179968 -99999.99 -99999.99 -99999.99 -99999.99
8/30/2021 11:00:00 AM -99999.99 -179968 -99999.99 -99999.99 -99999.99 -99999.99
8/30/2021 11:15:00 AM -99999.99 -179968 -99999.99 -99999.99 -99999.99 -99999.99
8/30/2021 11:30:00 AM -99999.99 -179968 -99999.99 -99999.99 -99999.99 -99999.99
8/30/2021 11:45:00 AM -99999.99 -179968 -99999.99 -99999.99 -99999.99 -99999.99
8/30/2021 12:00:00 PM -99999.99 -179968 -99999.99 -99999.99 -99999.99 -99999.99
8/30/2021 12:15:00 PM -99999.99 -179968 -99999.99 -99999.99 -99999.99 -99999.99
8/30/2021 12:30:00 PM -99999.99 -179968 -99999.99 -99999.99 -99999.99 -99999.99
8/30/2021 12:45:00 PM -99999.99 -179968 -99999.99 -99999.99 -99999.99 -99999.99
8/30/2021 1:00:00 PM -99999.99 -179968 -99999.99 -99999.99 -99999.99 -99999.99
8/30/2021 1:15:00 PM -99999.99 -179968 -99999.99 -99999.99 -99999.99 -99999.99
8/30/2021 1:30:00 PM -99999.99 -179968 -99999.99 -99999.99 -99999.99 -99999.99
8/30/2021 1:45:00 PM -99999.99 -179968 -99999.99 -99999.99 -99999.99 -99999.99
8/30/2021 2:00:00 PM -99999.99 -179968 -99999.99 -99999.99 -99999.99 -99999.99
8/30/2021 2:15:00 PM -99999.99 -179968 -99999.99 -99999.99 -99999.99 -99999.99
8/30/2021 2:30:00 PM -99999.99 -179968 -99999.99 -99999.99 -99999.99 -99999.99
8/30/2021 2:45:00 PM -99999.99 -179968 -99999.99 -99999.99 -99999.99 -99999.99
8/30/2021 3:00:00 PM -99999.99 -179968 -99999.99 -99999.99 -99999.99 -99999.99
8/30/2021 3:15:00 PM -99999.99 -179968 -99999.99 -99999.99 -99999.99 -99999.99
8/30/2021 3:30:00 PM -99999.99 -179968 -99999.99 -99999.99 -99999.99 -99999.99
8/30/2021 3:45:00 PM -99999.99 -179968 -99999.99 -99999.99 -99999.99 -99999.99
8/30/2021 4:00:00 PM -99999.99 -179968 -99999.99 -99999.99 -99999.99 -99999.99
8/30/2021 4:15:00 PM -99999.99 -179968 -99999.99 -99999.99 -99999.99 -99999.99
8/30/2021 4:30:00 PM -99999.99 -179968 -99999.99 -99999.99 -99999.99 -99999.99
8/30/2021 4:45:00 PM -99999.99 -179968 -99999.99 -99999.99 -99999.99 -99999.99
8/30/2021 5:00:00 PM -99999.99 -179968 -99999.99 -99999.99 -99999.99 -99999.99
8/30/2021 5:15:00 PM -99999.99 -179968 -99999.99 -99999.99 -99999.99 -99999.99
8/30/2021 5:30:00 PM -99999.99 -179968 -99999.99 -99999.99 -99999.99 -99999.99
8/30/2021 5:45:00 PM -99999.99 -179968 -99999.99 -99999.99 -99999.99 -99999.99
8/30/2021 6:00:00 PM -99999.99 -179968 -99999.99 -99999.99 -99999.99 -99999.99
8/30/2021 6:15:00 PM -99999.99 -179968 -99999.99 -99999.99 -99999.99 -99999.99
8/30/2021 6:30:00 PM -99999.99 -179968 -99999.99 -99999.99 -99999.99 -99999.99
8/30/2021 6:45:00 PM -99999.99 -179968 -99999.99 -99999.99 -99999.99 -99999.99
8/30/2021 7:00:00 PM -99999.99 -179968 -99999.99 -99999.99 -99999.99 -99999.99
8/30/2021 7:15:00 PM -99999.99 -179968 -99999.99 -99999.99 -99999.99 -99999.99
8/30/2021 7:30:00 PM -99999.99 -179968 -99999.99 -99999.99 -99999.99 -99999.99
8/30/2021 7:45:00 PM -99999.99 -179968 -99999.99 -99999.99 -99999.99 -99999.99
8/30/2021 8:00:00 PM -99999.99 -179968 -99999.99 -99999.99 -99999.99 -99999.99
8/30/2021 8:15:00 PM -99999.99 -179968 -99999.99 -99999.99 -99999.99 -99999.99
8/30/2021 8:30:00 PM -99999.99 -179968 -99999.99 -99999.99 -99999.99 -99999.99
8/30/2021 8:45:00 PM -99999.99 -179968 -99999.99 -99999.99 -99999.99 -99999.99
8/30/2021 9:00:00 PM -99999.99 -179968 -99999.99 -99999.99 -99999.99 -99999.99
8/30/2021 9:15:00 PM -99999.99 -179968 -99999.99 -99999.99 -99999.99 -99999.99
8/30/2021 9:30:00 PM -99999.99 -179968 -99999.99 -99999.99 -99999.99 -99999.99
8/30/2021 9:45:00 PM -99999.99 -179968 -99999.99 -99999.99 -99999.99 -99999.99
8/30/2021 10:00:00 PM -99999.99 -179968 -99999.99 -99999.99 -99999.99 -99999.99
8/30/2021 10:15:00 PM -99999.99 -179968 -99999.99 -99999.99 -99999.99 -99999.99
8/30/2021 10:30:00 PM -99999.99 -179968 -99999.99 -99999.99 -99999.99 -99999.99
8/30/2021 10:45:00 PM -99999.99 -179968 -99999.99 -99999.99 -99999.99 -99999.99
8/30/2021 11:00:00 PM -99999.99 -179968 -99999.99 -99999.99 -99999.99 -99999.99
8/30/2021 11:15:00 PM -99999.99 -179968 -99999.99 -99999.99 -99999.99 -99999.99
8/30/2021 11:30:00 PM -99999.99 -179968 -99999.99 -99999.99 -99999.99 -99999.99
8/30/2021 11:45:00 PM -99999.99 -179968 -99999.99 -99999.99 -99999.99 -99999.99
8/31/2021 12:00:00 AM -99999.99 -179968 -99999.99 -99999.99 -99999.99 -99999.99
8/31/2021 12:15:00 AM -99999.99 -179968 -99999.99 -99999.99 -99999.99 -99999.99
8/31/2021 12:30:00 AM -99999.99 -179968 -99999.99 -99999.99 -99999.99 -99999.99
8/31/2021 12:45:00 AM -99999.99 -179968 -99999.99 -99999.99 -99999.99 -99999.99
8/31/2021 1:00:00 AM -99999.99 -179968 -99999.99 -99999.99 -99999.99 -99999.99
8/31/2021 1:15:00 AM -99999.99 -179968 -99999.99 -99999.99 -99999.99 -99999.99
8/31/2021 1:30:00 AM -99999.99 -179968 -99999.99 -99999.99 -99999.99 -99999.99
8/31/2021 1:45:00 AM -99999.99 -179968 -99999.99 -99999.99 -99999.99 -99999.99
8/31/2021 2:00:00 AM -99999.99 -179968 -99999.99 -99999.99 -99999.99 -99999.99
8/31/2021 2:15:00 AM -99999.99 -179968 -99999.99 -99999.99 -99999.99 -99999.99
8/31/2021 2:30:00 AM -99999.99 -179968 -99999.99 -99999.99 -99999.99 -99999.99
8/31/2021 2:45:00 AM -99999.99 -179968 -99999.99 -99999.99 -99999.99 -99999.99
8/31/2021 3:00:00 AM -99999.99 -179968 -99999.99 -99999.99 -99999.99 -99999.99
8/31/2021 3:15:00 AM -99999.99 -179968 -99999.99 -99999.99 -99999.99 -99999.99
8/31/2021 3:30:00 AM -99999.99 -179968 -99999.99 -99999.99 -99999.99 -99999.99
8/31/2021 3:45:00 AM -99999.99 -179968 -99999.99 -99999.99 -99999.99 -99999.99
8/31/2021 4:00:00 AM -99999.99 -179968 -99999.99 -99999.99 -99999.99 -99999.99
8/31/2021 4:15:00 AM -99999.99 -179968 -99999.99 -99999.99 -99999.99 -99999.99
8/31/2021 4:30:00 AM -99999.99 -179968 -99999.99 -99999.99 -99999.99 -99999.99
8/31/2021 4:45:00 AM -99999.99 -179968 -99999.99 -99999.99 -99999.99 -99999.99
8/31/2021 5:00:00 AM -99999.99 -179968 -99999.99 -99999.99 -99999.99 -99999.99
8/31/2021 5:15:00 AM -99999.99 -179968 -99999.99 -99999.99 -99999.99 -99999.99
8/31/2021 5:30:00 AM -99999.99 -179968 -99999.99 -99999.99 -99999.99 -99999.99
8/31/2021 5:45:00 AM -99999.99 -179968 -99999.99 -99999.99 -99999.99 -99999.99
8/31/2021 6:00:00 AM -99999.99 -179968 -99999.99 -99999.99 -99999.99 -99999.99
8/31/2021 6:15:00 AM -99999.99 -179968 -99999.99 -99999.99 -99999.99 -99999.99
8/31/2021 6:30:00 AM -99999.99 -179968 -99999.99 -99999.99 -99999.99 -99999.99
8/31/2021 6:45:00 AM -99999.99 -179968 -99999.99 -99999.99 -99999.99 -99999.99
8/31/2021 7:00:00 AM -99999.99 -179968 -99999.99 -99999.99 -99999.99 -99999.99
8/31/2021 7:15:00 AM -99999.99 -179968 -99999.99 -99999.99 -99999.99 -99999.99
8/31/2021 7:30:00 AM -99999.99 -179968 -99999.99 -99999.99 -99999.99 -99999.99
8/31/2021 7:45:00 AM -99999.99 -179968 -99999.99 -99999.99 -99999.99 -99999.99
8/31/2021 8:00:00 AM -99999.99 -179968 -99999.99 -99999.99 -99999.99 -99999.99
8/31/2021 8:15:00 AM -99999.99 -179968 -99999.99 -99999.99 -99999.99 -99999.99
8/31/2021 8:30:00 AM -99999.99 -179968 -99999.99 -99999.99 -99999.99 -99999.99
8/31/2021 8:45:00 AM -99999.99 -179968 -99999.99 -99999.99 -99999.99 -99999.99
8/31/2021 9:00:00 AM -99999.99 -179968 -99999.99 -99999.99 -99999.99 -99999.99
8/31/2021 9:15:00 AM -99999.99 -179968 -99999.99 -99999.99 -99999.99 -99999.99
8/31/2021 9:30:00 AM -99999.99 -179968 -99999.99 -99999.99 -99999.99 -99999.99
8/31/2021 9:45:00 AM -99999.99 -179968 -99999.99 -99999.99 -99999.99 -99999.99
8/31/2021 10:00:00 AM -99999.99 -179968 -99999.99 -99999.99 -99999.99 -99999.99
8/31/2021 10:15:00 AM -99999.99 -179968 -99999.99 -99999.99 -99999.99 -99999.99
8/31/2021 10:30:00 AM -99999.99 -179968 -99999.99 -99999.99 -99999.99 -99999.99
8/31/2021 10:45:00 AM -99999.99 -179968 -99999.99 -99999.99 -99999.99 -99999.99
8/31/2021 11:00:00 AM -99999.99 -179968 -99999.99 -99999.99 -99999.99 -99999.99
8/31/2021 11:15:00 AM -99999.99 -179968 -99999.99 -99999.99 -99999.99 -99999.99
8/31/2021 11:30:00 AM -99999.99 -179968 -99999.99 -99999.99 -99999.99 -99999.99
8/31/2021 11:45:00 AM -99999.99 -179968 -99999.99 -99999.99 -99999.99 -99999.99
8/31/2021 12:00:00 PM -99999.99 -179968 -99999.99 -99999.99 -99999.99 -99999.99
8/31/2021 12:15:00 PM -99999.99 -179968 -99999.99 -99999.99 -99999.99 -99999.99
8/31/2021 12:30:00 PM -99999.99 -179968 -99999.99 -99999.99 -99999.99 -99999.99
8/31/2021 12:45:00 PM -99999.99 -179968 -99999.99 -99999.99 -99999.99 -99999.99
8/31/2021 1:00:00 PM -99999.99 -179968 -99999.99 -99999.99 -99999.99 -99999.99
8/31/2021 1:15:00 PM -99999.99 -179968 -99999.99 -99999.99 -99999.99 -99999.99
8/31/2021 1:30:00 PM -99999.99 -179968 -99999.99 -99999.99 -99999.99 -99999.99
8/31/2021 1:45:00 PM -99999.99 -179968 -99999.99 -99999.99 -99999.99 -99999.99
8/31/2021 2:00:00 PM -99999.99 -179968 -99999.99 -99999.99 -99999.99 -99999.99
8/31/2021 2:15:00 PM -99999.99 -179968 -99999.99 -99999.99 -99999.99 -99999.99
8/31/2021 2:30:00 PM -99999.99 -179968 -99999.99 -99999.99 -99999.99 -99999.99
8/31/2021 2:45:00 PM -99999.99 -179968 -99999.99 -99999.99 -99999.99 -99999.99
8/31/2021 3:00:00 PM -99999.99 -179968 -99999.99 -99999.99 -99999.99 -99999.99
8/31/2021 3:15:00 PM -99999.99 -179968 -99999.99 -99999.99 -99999.99 -99999.99
8/31/2021 3:30:00 PM -99999.99 -179968 -99999.99 -99999.99 -99999.99 -99999.99
8/31/2021 3:45:00 PM -99999.99 -179968 -99999.99 -99999.99 -99999.99 -99999.99
8/31/2021 4:00:00 PM -99999.99 -179968 -99999.99 -99999.99 -99999.99 -99999.99
8/31/2021 4:15:00 PM -99999.99 -179968 -99999.99 -99999.99 -99999.99 -99999.99
8/31/2021 4:30:00 PM -99999.99 -179968 -99999.99 -99999.99 -99999.99 -99999.99
8/31/2021 4:45:00 PM -99999.99 -179968 -99999.99 -99999.99 -99999.99 -99999.99
8/31/2021 5:00:00 PM -99999.99 -179968 -99999.99 -99999.99 -99999.99 -99999.99
8/31/2021 5:15:00 PM -99999.99 -179968 -99999.99 -99999.99 -99999.99 -99999.99
8/31/2021 5:30:00 PM -99999.99 -179968 -99999.99 -99999.99 -99999.99 -99999.99
8/31/2021 5:45:00 PM -99999.99 -179968 -99999.99 -99999.99 -99999.99 -99999.99
8/31/2021 6:00:00 PM -99999.99 -179968 -99999.99 -99999.99 -99999.99 -99999.99
8/31/2021 6:15:00 PM -99999.99 -179968 -99999.99 -99999.99 -99999.99 -99999.99
8/31/2021 6:30:00 PM -99999.99 -179968 -99999.99 -99999.99 -99999.99 -99999.99
8/31/2021 6:45:00 PM -99999.99 -179968 -99999.99 -99999.99 -99999.99 -99999.99
8/31/2021 7:00:00 PM -99999.99 -179968 -99999.99 -99999.99 -99999.99 -99999.99
8/31/2021 7:15:00 PM -99999.99 -179968 -99999.99 -99999.99 -99999.99 -99999.99
8/31/2021 7:30:00 PM -99999.99 -179968 -99999.99 -99999.99 -99999.99 -99999.99
8/31/2021 7:45:00 PM -99999.99 -179968 -99999.99 -99999.99 -99999.99 -99999.99
8/31/2021 8:00:00 PM -99999.99 -179968 -99999.99 -99999.99 -99999.99 -99999.99
8/31/2021 8:15:00 PM -99999.99 -179968 -99999.99 -99999.99 -99999.99 -99999.99
8/31/2021 8:30:00 PM -99999.99 -179968 -99999.99 -99999.99 -99999.99 -99999.99
8/31/2021 8:45:00 PM -99999.99 -179968 -99999.99 -99999.99 -99999.99 -99999.99
8/31/2021 9:00:00 PM -99999.99 -179968 -99999.99 -99999.99 -99999.99 -99999.99
8/31/2021 9:15:00 PM -99999.99 -179968 -99999.99 -99999.99 -99999.99 -99999.99
8/31/2021 9:30:00 PM -99999.99 -179968 -99999.99 -99999.99 -99999.99 -99999.99
8/31/2021 9:45:00 PM -99999.99 -179968 -99999.99 -99999.99 -99999.99 -99999.99
8/31/2021 10:00:00 PM -99999.99 -179968 -99999.99 -99999.99 -99999.99 -99999.99
8/31/2021 10:15:00 PM -99999.99 -179968 -99999.99 -99999.99 -99999.99 -99999.99
8/31/2021 10:30:00 PM -99999.99 -179968 -99999.99 -99999.99 -99999.99 -99999.99
8/31/2021 10:45:00 PM -99999.99 -179968 -99999.99 -99999.99 -99999.99 -99999.99
8/31/2021 11:00:00 PM -99999.99 -179968 -99999.99 -99999.99 -99999.99 -99999.99
8/31/2021 11:15:00 PM -99999.99 -179968 -99999.99 -99999.99 -99999.99 -99999.99
8/31/2021 11:30:00 PM -99999.99 -179968 -99999.99 -99999.99 -99999.99 -99999.99
8/31/2021 11:45:00 PM -99999.99 -179968 -99999.99 -99999.99 -99999.99 -99999.99
9/1/2021 12:00:00 AM -99999.99 -179968 -99999.99 -99999.99 -99999.99 -99999.99
9/1/2021 12:15:00 AM -99999.99 -179968 -99999.99 -99999.99 -99999.99 -99999.99
9/1/2021 12:30:00 AM -99999.99 -179968 -99999.99 -99999.99 -99999.99 -99999.99
9/1/2021 12:45:00 AM -99999.99 -179968 -99999.99 -99999.99 -99999.99 -99999.99
9/1/2021 1:00:00 AM -99999.99 -179968 -99999.99 -99999.99 -99999.99 -99999.99
9/1/2021 1:15:00 AM -99999.99 -179968 -99999.99 -99999.99 -99999.99 -99999.99
9/1/2021 1:30:00 AM -99999.99 -179968 -99999.99 -99999.99 -99999.99 -99999.99
9/1/2021 1:45:00 AM -99999.99 -179968 -99999.99 -99999.99 -99999.99 -99999.99
9/1/2021 2:00:00 AM -99999.99 -179968 -99999.99 -99999.99 -99999.99 -99999.99
9/1/2021 2:15:00 AM -99999.99 -179968 -99999.99 -99999.99 -99999.99 -99999.99
9/1/2021 2:30:00 AM -99999.99 -179968 -99999.99 -99999.99 -99999.99 -99999.99
9/1/2021 2:45:00 AM -99999.99 -179968 -99999.99 -99999.99 -99999.99 -99999.99
9/1/2021 3:00:00 AM -99999.99 -179968 -99999.99 -99999.99 -99999.99 -99999.99
9/1/2021 3:15:00 AM -99999.99 -179968 -99999.99 -99999.99 -99999.99 -99999.99
9/1/2021 3:30:00 AM -99999.99 -179968 -99999.99 -99999.99 -99999.99 -99999.99
9/1/2021 3:45:00 AM -99999.99 -179968 -99999.99 -99999.99 -99999.99 -99999.99
9/1/2021 4:00:00 AM -99999.99 -179968 -99999.99 -99999.99 -99999.99 -99999.99
9/1/2021 4:15:00 AM -99999.99 -179968 -99999.99 -99999.99 -99999.99 -99999.99
9/1/2021 4:30:00 AM -99999.99 -179968 -99999.99 -99999.99 -99999.99 -99999.99
9/1/2021 4:45:00 AM -99999.99 -179968 -99999.99 -99999.99 -99999.99 -99999.99
9/1/2021 5:00:00 AM -99999.99 -179968 -99999.99 -99999.99 -99999.99 -99999.99
9/1/2021 5:15:00 AM -99999.99 -179968 -99999.99 -99999.99 -99999.99 -99999.99
9/1/2021 5:30:00 AM -99999.99 -179968 -99999.99 -99999.99 -99999.99 -99999.99
9/1/2021 5:45:00 AM -99999.99 -179968 -99999.99 -99999.99 -99999.99 -99999.99
9/1/2021 6:00:00 AM -99999.99 -179968 -99999.99 -99999.99 -99999.99 -99999.99
9/1/2021 6:15:00 AM -99999.99 -179968 -99999.99 -99999.99 -99999.99 -99999.99
9/1/2021 6:30:00 AM -99999.99 -179968 -99999.99 -99999.99 -99999.99 -99999.99
9/1/2021 6:45:00 AM -99999.99 -179968 -99999.99 -99999.99 -99999.99 -99999.99
9/1/2021 7:00:00 AM -99999.99 -179968 -99999.99 -99999.99 -99999.99 -99999.99
9/1/2021 7:15:00 AM -99999.99 -179968 -99999.99 -99999.99 -99999.99 -99999.99
9/1/2021 7:30:00 AM -99999.99 -179968 -99999.99 -99999.99 -99999.99 -99999.99
9/1/2021 7:45:00 AM -99999.99 -179968 -99999.99 -99999.99 -99999.99 -99999.99
9/1/2021 8:00:00 AM -99999.99 -179968 -99999.99 -99999.99 -99999.99 -99999.99
9/1/2021 8:15:00 AM -99999.99 -179968 -99999.99 -99999.99 -99999.99 -99999.99
9/1/2021 8:30:00 AM -99999.99 -179968 -99999.99 -99999.99 -99999.99 -99999.99
9/1/2021 8:45:00 AM -99999.99 -179968 -99999.99 -99999.99 -99999.99 -99999.99
9/1/2021 9:00:00 AM -99999.99 -179968 -99999.99 -99999.99 -99999.99 -99999.99
9/1/2021 9:15:00 AM -99999.99 -179968 -99999.99 -99999.99 -99999.99 -99999.99
9/1/2021 9:30:00 AM -99999.99 -179968 -99999.99 -99999.99 -99999.99 -99999.99
9/1/2021 9:45:00 AM -99999.99 -179968 -99999.99 -99999.99 -99999.99 -99999.99
9/1/2021 10:00:00 AM -99999.99 -179968 -99999.99 -99999.99 -99999.99 -99999.99
9/1/2021 10:15:00 AM -99999.99 -179968 -99999.99 -99999.99 -99999.99 -99999.99
9/1/2021 10:30:00 AM -99999.99 -179968 -99999.99 -99999.99 -99999.99 -99999.99
9/1/2021 10:45:00 AM -99999.99 -179968 -99999.99 -99999.99 -99999.99 -99999.99
9/1/2021 11:00:00 AM -99999.99 -179968 -99999.99 -99999.99 -99999.99 -99999.99
9/1/2021 11:15:00 AM -99999.99 -179968 -99999.99 -99999.99 -99999.99 -99999.99
9/1/2021 11:30:00 AM -99999.99 -179968 -99999.99 -99999.99 -99999.99 -99999.99
9/1/2021 11:45:00 AM -99999.99 -179968 -99999.99 -99999.99 -99999.99 -99999.99
9/1/2021 12:00:00 PM -99999.99 -179968 -99999.99 -99999.99 -99999.99 -99999.99
9/1/2021 12:15:00 PM -99999.99 -179968 -99999.99 -99999.99 -99999.99 -99999.99
9/1/2021 12:30:00 PM -99999.99 -179968 -99999.99 -99999.99 -99999.99 -99999.99
9/1/2021 12:45:00 PM -99999.99 -179968 -99999.99 -99999.99 -99999.99 -99999.99
9/1/2021 1:00:00 PM -99999.99 -179968 -99999.99 -99999.99 -99999.99 -99999.99
9/1/2021 1:15:00 PM -99999.99 -179968 -99999.99 -99999.99 -99999.99 -99999.99
9/1/2021 1:30:00 PM -99999.99 -179968 -99999.99 -99999.99 -99999.99 -99999.99
9/1/2021 1:45:00 PM -99999.99 -179968 -99999.99 -99999.99 -99999.99 -99999.99
9/1/2021 2:00:00 PM -99999.99 -179968 -99999.99 -99999.99 -99999.99 -99999.99
9/1/2021 2:15:00 PM -99999.99 -179968 -99999.99 -99999.99 -99999.99 -99999.99
9/1/2021 2:30:00 PM -99999.99 -179968 -99999.99 -99999.99 -99999.99 -99999.99
9/1/2021 2:45:00 PM -99999.99 -179968 -99999.99 -99999.99 -99999.99 -99999.99
9/1/2021 3:00:00 PM -99999.99 -179968 -99999.99 -99999.99 -99999.99 -99999.99
9/1/2021 3:15:00 PM -99999.99 -179968 -99999.99 -99999.99 -99999.99 -99999.99
9/1/2021 3:30:00 PM -99999.99 -179968 -99999.99 -99999.99 -99999.99 -99999.99
9/1/2021 3:45:00 PM -99999.99 -179968 -99999.99 -99999.99 -99999.99 -99999.99
9/1/2021 4:00:00 PM -99999.99 -179968 -99999.99 -99999.99 -99999.99 -99999.99
9/1/2021 4:15:00 PM -99999.99 -179968 -99999.99 -99999.99 -99999.99 -99999.99
9/1/2021 4:30:00 PM -99999.99 -179968 -99999.99 -99999.99 -99999.99 -99999.99
9/1/2021 4:45:00 PM -99999.99 -179968 -99999.99 -99999.99 -99999.99 -99999.99
9/1/2021 5:00:00 PM -99999.99 -179968 -99999.99 -99999.99 -99999.99 -99999.99
9/1/2021 5:15:00 PM -99999.99 -179968 -99999.99 -99999.99 -99999.99 -99999.99
9/1/2021 5:30:00 PM -99999.99 -179968 -99999.99 -99999.99 -99999.99 -99999.99
9/1/2021 5:45:00 PM -99999.99 -179968 -99999.99 -99999.99 -99999.99 -99999.99
9/1/2021 6:00:00 PM -99999.99 -179968 -99999.99 -99999.99 -99999.99 -99999.99
9/1/2021 6:15:00 PM -99999.99 -179968 -99999.99 -99999.99 -99999.99 -99999.99
9/1/2021 6:30:00 PM -99999.99 -179968 -99999.99 -99999.99 -99999.99 -99999.99
9/1/2021 6:45:00 PM -99999.99 -179968 -99999.99 -99999.99 -99999.99 -99999.99
9/1/2021 7:00:00 PM -99999.99 -179968 -99999.99 -99999.99 -99999.99 -99999.99
9/1/2021 7:15:00 PM -99999.99 -179968 -99999.99 -99999.99 -99999.99 -99999.99
9/1/2021 7:30:00 PM -99999.99 -179968 -99999.99 -99999.99 -99999.99 -99999.99
9/1/2021 7:45:00 PM -99999.99 -179968 -99999.99 -99999.99 -99999.99 -99999.99
9/1/2021 8:00:00 PM -99999.99 -179968 -99999.99 -99999.99 -99999.99 -99999.99
9/1/2021 8:15:00 PM -99999.99 -179968 -99999.99 -99999.99 -99999.99 -99999.99
9/1/2021 8:30:00 PM -99999.99 -179968 -99999.99 -99999.99 -99999.99 -99999.99
9/1/2021 8:45:00 PM -99999.99 -179968 -99999.99 -99999.99 -99999.99 -99999.99
9/1/2021 9:00:00 PM -99999.99 -179968 -99999.99 -99999.99 -99999.99 -99999.99
9/1/2021 9:15:00 PM -99999.99 -179968 -99999.99 -99999.99 -99999.99 -99999.99
9/1/2021 9:30:00 PM -99999.99 -179968 -99999.99 -99999.99 -99999.99 -99999.99
9/1/2021 9:45:00 PM -99999.99 -179968 -99999.99 -99999.99 -99999.99 -99999.99
9/1/2021 10:00:00 PM -99999.99 -179968 -99999.99 -99999.99 -99999.99 -99999.99
9/1/2021 10:15:00 PM -99999.99 -179968 -99999.99 -99999.99 -99999.99 -99999.99
9/1/2021 10:30:00 PM -99999.99 -179968 -99999.99 -99999.99 -99999.99 -99999.99
9/1/2021 10:45:00 PM -99999.99 -179968 -99999.99 -99999.99 -99999.99 -99999.99
9/1/2021 11:00:00 PM -99999.99 -179968 -99999.99 -99999.99 -99999.99 -99999.99
9/1/2021 11:15:00 PM -99999.99 -179968 -99999.99 -99999.99 -99999.99 -99999.99
9/1/2021 11:30:00 PM -99999.99 -179968 -99999.99 -99999.99 -99999.99 -99999.99
9/1/2021 11:45:00 PM -99999.99 -179968 -99999.99 -99999.99 -99999.99 -99999.99
9/2/2021 12:00:00 AM -99999.99 -179968 -99999.99 -99999.99 -99999.99 -99999.99
9/2/2021 12:15:00 AM -99999.99 -179968 -99999.99 -99999.99 -99999.99 -99999.99
9/2/2021 12:30:00 AM -99999.99 -179968 -99999.99 -99999.99 -99999.99 -99999.99
9/2/2021 12:45:00 AM -99999.99 -179968 -99999.99 -99999.99 -99999.99 -99999.99
9/2/2021 1:00:00 AM -99999.99 -179968 -99999.99 -99999.99 -99999.99 -99999.99
9/2/2021 1:15:00 AM -99999.99 -179968 -99999.99 -99999.99 -99999.99 -99999.99
9/2/2021 1:30:00 AM -99999.99 -179968 -99999.99 -99999.99 -99999.99 -99999.99
9/2/2021 1:45:00 AM -99999.99 -179968 -99999.99 -99999.99 -99999.99 -99999.99
9/2/2021 2:00:00 AM -99999.99 -179968 -99999.99 -99999.99